<?xml version='1.0' encoding='utf-8'?>
<gpx xmlns="http://www.topografix.com/GPX/1/1" xmlns:xsi="http://www.w3.org/2001/XMLSchema-instance" version="v1.1.5" creator="iTravel Tech Inc. - http://www.itravel-tech.com" xsi:schemaLocation="http://www.topografix.com/GPX/1/1 http://www.topografix.com/GPX/1/1/gpx.xsd http://www.topografix.com/GPX/gpx_overlay/0/3 http://www.topografix.com/GPX/gpx_overlay/0/3/gpx_overlay.xsd http://www.topografix.com/GPX/gpx_modified/0/1 http://www.topografix.com/GPX/gpx_modified/0/1/gpx_modified.xsd">
<trk>
<name>Holux2011/04/29_08:09</name>
<trkseg>
<trkpt lat="21.745958" lon="104.941154">
<ele>71.4</ele>
<time>2011-04-29T05:09:25Z</time>
<desc>lat.=21.745958, lon.=104.941154, Alt.=174.314575m. Speed=0.288000m/h.</desc>
<speed>0.080000</speed>
</trkpt>
<trkpt lat="21.745804" lon="104.941208">
<ele>78.7</ele>
<time>2011-04-29T05:10:15Z</time>
<desc>lat.=21.745804, lon.=104.941208, Alt.=174.287231m. Speed=0.396000m/h.</desc>
<speed>0.110000</speed>
</trkpt>
<trkpt lat="21.745962" lon="104.941093">
<ele>71.3</ele>
<time>2011-04-29T05:10:40Z</time>
<desc>lat.=21.745962, lon.=104.941093, Alt.=173.607544m. Speed=1.476000m/h.</desc>
<speed>0.410000</speed>
</trkpt>
<trkpt lat="21.746363" lon="104.941193">
<ele>75.7</ele>
<time>2011-04-29T05:12:20Z</time>
<desc>lat.=21.746363, lon.=104.941193, Alt.=60.004425m. Speed=0.324000m/h.</desc>
<speed>0.090000</speed>
</trkpt>
<trkpt lat="21.745981" lon="104.941338">
<ele>71.0</ele>
<time>2011-04-29T05:17:10Z</time>
<desc>lat.=21.745981, lon.=104.941338, Alt.=65.301819m. Speed=1.584000m/h.</desc>
<speed>0.440000</speed>
</trkpt>
<trkpt lat="21.746023" lon="104.941521">
<ele>72.9</ele>
<time>2011-04-29T05:18:20Z</time>
<desc>lat.=21.746023, lon.=104.941521, Alt.=71.040100m. Speed=1.260000m/h.</desc>
<speed>0.350000</speed>
</trkpt>
<trkpt lat="21.745852" lon="104.941292">
<ele>75.9</ele>
<time>2011-04-29T05:20:40Z</time>
<desc>lat.=21.745852, lon.=104.941292, Alt.=67.663147m. Speed=0.540000m/h.</desc>
<speed>0.150000</speed>
</trkpt>
<trkpt lat="21.745955" lon="104.941429">
<ele>71.9</ele>
<time>2011-04-29T05:21:40Z</time>
<desc>lat.=21.745955, lon.=104.941429, Alt.=66.288147m. Speed=1.152000m/h.</desc>
<speed>0.320000</speed>
</trkpt>
<trkpt lat="21.745605" lon="104.941895">
<ele>72.0</ele>
<time>2011-04-29T05:23:00Z</time>
<desc>lat.=21.745605, lon.=104.941895, Alt.=66.731506m. Speed=22.752001m/h.</desc>
<speed>6.320000</speed>
</trkpt>
<trkpt lat="21.744400" lon="104.942123">
<ele>77.3</ele>
<time>2011-04-29T05:23:15Z</time>
<desc>lat.=21.744400, lon.=104.942123, Alt.=65.102600m. Speed=31.572001m/h.</desc>
<speed>8.770000</speed>
</trkpt>
<trkpt lat="21.741610" lon="104.941719">
<ele>61.9</ele>
<time>2011-04-29T05:23:40Z</time>
<desc>lat.=21.741610, lon.=104.941719, Alt.=58.767120m. Speed=47.088001m/h.</desc>
<speed>13.080000</speed>
</trkpt>
<trkpt lat="21.740772" lon="104.941833">
<ele>56.7</ele>
<time>2011-04-29T05:23:55Z</time>
<desc>lat.=21.740772, lon.=104.941833, Alt.=53.689972m. Speed=1.368000m/h.</desc>
<speed>0.380000</speed>
</trkpt>
<trkpt lat="21.740458" lon="104.942398">
<ele>56.4</ele>
<time>2011-04-29T05:24:30Z</time>
<desc>lat.=21.740458, lon.=104.942398, Alt.=49.261261m. Speed=3.744000m/h.</desc>
<speed>1.040000</speed>
</trkpt>
<trkpt lat="21.740461" lon="104.943176">
<ele>60.0</ele>
<time>2011-04-29T05:24:45Z</time>
<desc>lat.=21.740461, lon.=104.943176, Alt.=48.445831m. Speed=26.892000m/h.</desc>
<speed>7.470000</speed>
</trkpt>
<trkpt lat="21.740105" lon="104.944534">
<ele>62.6</ele>
<time>2011-04-29T05:25:00Z</time>
<desc>lat.=21.740105, lon.=104.944534, Alt.=49.428253m. Speed=33.984001m/h.</desc>
<speed>9.440000</speed>
</trkpt>
<trkpt lat="21.739250" lon="104.946335">
<ele>67.4</ele>
<time>2011-04-29T05:25:20Z</time>
<desc>lat.=21.739250, lon.=104.946335, Alt.=52.203644m. Speed=40.428001m/h.</desc>
<speed>11.230000</speed>
</trkpt>
<trkpt lat="21.739567" lon="104.947876">
<ele>65.0</ele>
<time>2011-04-29T05:25:35Z</time>
<desc>lat.=21.739567, lon.=104.947876, Alt.=51.940948m. Speed=38.304001m/h.</desc>
<speed>10.640000</speed>
</trkpt>
<trkpt lat="21.739023" lon="104.948799">
<ele>68.1</ele>
<time>2011-04-29T05:25:45Z</time>
<desc>lat.=21.739023, lon.=104.948799, Alt.=51.530792m. Speed=43.200001m/h.</desc>
<speed>12.000000</speed>
</trkpt>
<trkpt lat="21.738358" lon="104.949524">
<ele>72.0</ele>
<time>2011-04-29T05:25:55Z</time>
<desc>lat.=21.738358, lon.=104.949524, Alt.=52.241730m. Speed=39.132000m/h.</desc>
<speed>10.870000</speed>
</trkpt>
<trkpt lat="21.736330" lon="104.950836">
<ele>74.9</ele>
<time>2011-04-29T05:26:20Z</time>
<desc>lat.=21.736330, lon.=104.950836, Alt.=54.092316m. Speed=37.872002m/h.</desc>
<speed>10.520000</speed>
</trkpt>
<trkpt lat="21.735880" lon="104.950996">
<ele>75.6</ele>
<time>2011-04-29T05:26:25Z</time>
<desc>lat.=21.735880, lon.=104.950996, Alt.=52.981964m. Speed=41.004002m/h.</desc>
<speed>11.390000</speed>
</trkpt>
<trkpt lat="21.734333" lon="104.950577">
<ele>78.5</ele>
<time>2011-04-29T05:26:40Z</time>
<desc>lat.=21.734333, lon.=104.950577, Alt.=57.907745m. Speed=39.348000m/h.</desc>
<speed>10.930000</speed>
</trkpt>
<trkpt lat="21.733568" lon="104.951225">
<ele>77.6</ele>
<time>2011-04-29T05:26:50Z</time>
<desc>lat.=21.733568, lon.=104.951225, Alt.=59.274933m. Speed=37.152000m/h.</desc>
<speed>10.320000</speed>
</trkpt>
<trkpt lat="21.733265" lon="104.952271">
<ele>73.2</ele>
<time>2011-04-29T05:27:00Z</time>
<desc>lat.=21.733265, lon.=104.952271, Alt.=59.758331m. Speed=43.487999m/h.</desc>
<speed>12.080000</speed>
</trkpt>
<trkpt lat="21.733585" lon="104.954407">
<ele>68.7</ele>
<time>2011-04-29T05:27:20Z</time>
<desc>lat.=21.733585, lon.=104.954407, Alt.=61.753448m. Speed=38.807999m/h.</desc>
<speed>10.780000</speed>
</trkpt>
<trkpt lat="21.732529" lon="104.956390">
<ele>63.8</ele>
<time>2011-04-29T05:27:40Z</time>
<desc>lat.=21.732529, lon.=104.956390, Alt.=56.805206m. Speed=42.660000m/h.</desc>
<speed>11.850000</speed>
</trkpt>
<trkpt lat="21.732700" lon="104.958572">
<ele>68.3</ele>
<time>2011-04-29T05:28:00Z</time>
<desc>lat.=21.732700, lon.=104.958572, Alt.=55.460480m. Speed=38.088001m/h.</desc>
<speed>10.580000</speed>
</trkpt>
<trkpt lat="21.732611" lon="104.959099">
<ele>66.1</ele>
<time>2011-04-29T05:28:05Z</time>
<desc>lat.=21.732611, lon.=104.959099, Alt.=56.863800m. Speed=39.060001m/h.</desc>
<speed>10.850000</speed>
</trkpt>
<trkpt lat="21.732250" lon="104.959442">
<ele>67.7</ele>
<time>2011-04-29T05:28:10Z</time>
<desc>lat.=21.732250, lon.=104.959442, Alt.=55.250519m. Speed=38.952000m/h.</desc>
<speed>10.820000</speed>
</trkpt>
<trkpt lat="21.730425" lon="104.960403">
<ele>72.6</ele>
<time>2011-04-29T05:28:30Z</time>
<desc>lat.=21.730425, lon.=104.960403, Alt.=49.252472m. Speed=37.835999m/h.</desc>
<speed>10.510000</speed>
</trkpt>
<trkpt lat="21.729309" lon="104.961426">
<ele>70.8</ele>
<time>2011-04-29T05:28:45Z</time>
<desc>lat.=21.729309, lon.=104.961426, Alt.=47.542511m. Speed=39.852001m/h.</desc>
<speed>11.070000</speed>
</trkpt>
<trkpt lat="21.726742" lon="104.961823">
<ele>68.6</ele>
<time>2011-04-29T05:29:10Z</time>
<desc>lat.=21.726742, lon.=104.961823, Alt.=44.169464m. Speed=34.236000m/h.</desc>
<speed>9.510000</speed>
</trkpt>
<trkpt lat="21.726349" lon="104.962036">
<ele>66.3</ele>
<time>2011-04-29T05:29:15Z</time>
<desc>lat.=21.726349, lon.=104.962036, Alt.=43.946808m. Speed=36.683998m/h.</desc>
<speed>10.189999</speed>
</trkpt>
<trkpt lat="21.726118" lon="104.962471">
<ele>65.0</ele>
<time>2011-04-29T05:29:20Z</time>
<desc>lat.=21.726118, lon.=104.962471, Alt.=43.611847m. Speed=37.512001m/h.</desc>
<speed>10.420000</speed>
</trkpt>
<trkpt lat="21.725323" lon="104.966171">
<ele>64.5</ele>
<time>2011-04-29T05:29:55Z</time>
<desc>lat.=21.725323, lon.=104.966171, Alt.=42.063995m. Speed=40.355999m/h.</desc>
<speed>11.210000</speed>
</trkpt>
<trkpt lat="21.725069" lon="104.968262">
<ele>65.5</ele>
<time>2011-04-29T05:30:15Z</time>
<desc>lat.=21.725069, lon.=104.968262, Alt.=45.382355m. Speed=37.799999m/h.</desc>
<speed>10.500000</speed>
</trkpt>
<trkpt lat="21.724707" lon="104.969254">
<ele>67.1</ele>
<time>2011-04-29T05:30:25Z</time>
<desc>lat.=21.724707, lon.=104.969254, Alt.=49.858917m. Speed=40.680000m/h.</desc>
<speed>11.300000</speed>
</trkpt>
<trkpt lat="21.724762" lon="104.970795">
<ele>66.6</ele>
<time>2011-04-29T05:30:40Z</time>
<desc>lat.=21.724762, lon.=104.970795, Alt.=55.049347m. Speed=38.340000m/h.</desc>
<speed>10.650000</speed>
</trkpt>
<trkpt lat="21.724556" lon="104.972511">
<ele>71.1</ele>
<time>2011-04-29T05:31:20Z</time>
<desc>lat.=21.724556, lon.=104.972511, Alt.=55.784698m. Speed=33.804001m/h.</desc>
<speed>9.390000</speed>
</trkpt>
<trkpt lat="21.724409" lon="104.972954">
<ele>72.2</ele>
<time>2011-04-29T05:31:25Z</time>
<desc>lat.=21.724409, lon.=104.972954, Alt.=57.016144m. Speed=34.091999m/h.</desc>
<speed>9.470000</speed>
</trkpt>
<trkpt lat="21.722818" lon="104.975082">
<ele>72.5</ele>
<time>2011-04-29T05:31:50Z</time>
<desc>lat.=21.722818, lon.=104.975082, Alt.=54.323761m. Speed=40.571999m/h.</desc>
<speed>11.270000</speed>
</trkpt>
<trkpt lat="21.721600" lon="104.977234">
<ele>77.8</ele>
<time>2011-04-29T05:32:10Z</time>
<desc>lat.=21.721600, lon.=104.977234, Alt.=55.772003m. Speed=48.276001m/h.</desc>
<speed>13.410000</speed>
</trkpt>
<trkpt lat="21.721577" lon="104.977875">
<ele>80.4</ele>
<time>2011-04-29T05:32:15Z</time>
<desc>lat.=21.721577, lon.=104.977875, Alt.=55.991730m. Speed=48.563999m/h.</desc>
<speed>13.490000</speed>
</trkpt>
<trkpt lat="21.721754" lon="104.978455">
<ele>76.1</ele>
<time>2011-04-29T05:32:20Z</time>
<desc>lat.=21.721754, lon.=104.978455, Alt.=56.950714m. Speed=45.180000m/h.</desc>
<speed>12.550000</speed>
</trkpt>
<trkpt lat="21.721636" lon="104.979065">
<ele>74.8</ele>
<time>2011-04-29T05:32:25Z</time>
<desc>lat.=21.721636, lon.=104.979065, Alt.=57.583527m. Speed=46.799999m/h.</desc>
<speed>13.000000</speed>
</trkpt>
<trkpt lat="21.721018" lon="104.980080">
<ele>73.0</ele>
<time>2011-04-29T05:32:35Z</time>
<desc>lat.=21.721018, lon.=104.980080, Alt.=53.767120m. Speed=43.632000m/h.</desc>
<speed>12.120000</speed>
</trkpt>
<trkpt lat="21.720930" lon="104.981323">
<ele>73.8</ele>
<time>2011-04-29T05:32:45Z</time>
<desc>lat.=21.720930, lon.=104.981323, Alt.=50.988800m. Speed=47.088001m/h.</desc>
<speed>13.080000</speed>
</trkpt>
<trkpt lat="21.720966" lon="104.981934">
<ele>76.3</ele>
<time>2011-04-29T05:32:50Z</time>
<desc>lat.=21.720966, lon.=104.981934, Alt.=57.642120m. Speed=45.467999m/h.</desc>
<speed>12.630000</speed>
</trkpt>
<trkpt lat="21.721481" lon="104.982864">
<ele>91.1</ele>
<time>2011-04-29T05:33:00Z</time>
<desc>lat.=21.721481, lon.=104.982864, Alt.=62.418488m. Speed=38.880001m/h.</desc>
<speed>10.800000</speed>
</trkpt>
<trkpt lat="21.721439" lon="104.983360">
<ele>89.7</ele>
<time>2011-04-29T05:33:05Z</time>
<desc>lat.=21.721439, lon.=104.983360, Alt.=65.596741m. Speed=36.108002m/h.</desc>
<speed>10.030000</speed>
</trkpt>
<trkpt lat="21.719603" lon="104.986977">
<ele>76.4</ele>
<time>2011-04-29T05:33:50Z</time>
<desc>lat.=21.719603, lon.=104.986977, Alt.=63.370636m. Speed=46.296001m/h.</desc>
<speed>12.860000</speed>
</trkpt>
<trkpt lat="21.716566" lon="104.989189">
<ele>75.4</ele>
<time>2011-04-29T05:34:15Z</time>
<desc>lat.=21.716566, lon.=104.989189, Alt.=53.593292m. Speed=58.500000m/h.</desc>
<speed>16.250000</speed>
</trkpt>
<trkpt lat="21.716080" lon="104.989708">
<ele>76.9</ele>
<time>2011-04-29T05:34:20Z</time>
<desc>lat.=21.716080, lon.=104.989708, Alt.=54.641144m. Speed=52.812000m/h.</desc>
<speed>14.670000</speed>
</trkpt>
<trkpt lat="21.715473" lon="104.990784">
<ele>71.7</ele>
<time>2011-04-29T05:34:30Z</time>
<desc>lat.=21.715473, lon.=104.990784, Alt.=52.597198m. Speed=46.584000m/h.</desc>
<speed>12.940000</speed>
</trkpt>
<trkpt lat="21.711555" lon="104.994537">
<ele>63.1</ele>
<time>2011-04-29T05:35:05Z</time>
<desc>lat.=21.711555, lon.=104.994537, Alt.=50.508331m. Speed=55.908001m/h.</desc>
<speed>15.530000</speed>
</trkpt>
<trkpt lat="21.709438" lon="104.995514">
<ele>68.6</ele>
<time>2011-04-29T05:35:20Z</time>
<desc>lat.=21.709438, lon.=104.995514, Alt.=50.233917m. Speed=53.855999m/h.</desc>
<speed>14.960000</speed>
</trkpt>
<trkpt lat="21.707502" lon="104.995285">
<ele>61.5</ele>
<time>2011-04-29T05:35:35Z</time>
<desc>lat.=21.707502, lon.=104.995285, Alt.=43.452667m. Speed=60.299999m/h.</desc>
<speed>16.750000</speed>
</trkpt>
<trkpt lat="21.706196" lon="104.995461">
<ele>82.1</ele>
<time>2011-04-29T05:35:45Z</time>
<desc>lat.=21.706196, lon.=104.995461, Alt.=49.266144m. Speed=40.428001m/h.</desc>
<speed>11.230000</speed>
</trkpt>
<trkpt lat="21.705225" lon="104.996597">
<ele>69.4</ele>
<time>2011-04-29T05:36:00Z</time>
<desc>lat.=21.705225, lon.=104.996597, Alt.=60.236847m. Speed=31.860001m/h.</desc>
<speed>8.850000</speed>
</trkpt>
<trkpt lat="21.704300" lon="104.996223">
<ele>77.3</ele>
<time>2011-04-29T05:36:10Z</time>
<desc>lat.=21.704300, lon.=104.996223, Alt.=64.877991m. Speed=38.880001m/h.</desc>
<speed>10.800000</speed>
</trkpt>
<trkpt lat="21.703745" lon="104.996323">
<ele>77.9</ele>
<time>2011-04-29T05:36:15Z</time>
<desc>lat.=21.703745, lon.=104.996323, Alt.=65.766663m. Speed=45.936001m/h.</desc>
<speed>12.760000</speed>
</trkpt>
<trkpt lat="21.703232" lon="104.996643">
<ele>71.1</ele>
<time>2011-04-29T05:36:20Z</time>
<desc>lat.=21.703232, lon.=104.996643, Alt.=67.061584m. Speed=45.431999m/h.</desc>
<speed>12.620000</speed>
</trkpt>
<trkpt lat="21.702721" lon="104.996658">
<ele>78.8</ele>
<time>2011-04-29T05:36:25Z</time>
<desc>lat.=21.702721, lon.=104.996658, Alt.=68.090881m. Speed=41.976002m/h.</desc>
<speed>11.660000</speed>
</trkpt>
<trkpt lat="21.701672" lon="104.996193">
<ele>73.9</ele>
<time>2011-04-29T05:36:35Z</time>
<desc>lat.=21.701672, lon.=104.996193, Alt.=72.411194m. Speed=46.007999m/h.</desc>
<speed>12.780000</speed>
</trkpt>
<trkpt lat="21.698959" lon="104.996819">
<ele>67.3</ele>
<time>2011-04-29T05:36:55Z</time>
<desc>lat.=21.698959, lon.=104.996819, Alt.=55.176300m. Speed=53.352001m/h.</desc>
<speed>14.820000</speed>
</trkpt>
<trkpt lat="21.698341" lon="104.996803">
<ele>63.7</ele>
<time>2011-04-29T05:37:00Z</time>
<desc>lat.=21.698341, lon.=104.996803, Alt.=53.178253m. Speed=48.743999m/h.</desc>
<speed>13.540000</speed>
</trkpt>
<trkpt lat="21.695610" lon="104.994659">
<ele>71.7</ele>
<time>2011-04-29T05:37:25Z</time>
<desc>lat.=21.695610, lon.=104.994659, Alt.=53.689972m. Speed=48.348000m/h.</desc>
<speed>13.430000</speed>
</trkpt>
<trkpt lat="21.695055" lon="104.994537">
<ele>75.9</ele>
<time>2011-04-29T05:37:30Z</time>
<desc>lat.=21.695055, lon.=104.994537, Alt.=57.154816m. Speed=42.551998m/h.</desc>
<speed>11.819999</speed>
</trkpt>
<trkpt lat="21.693844" lon="104.995552">
<ele>76.8</ele>
<time>2011-04-29T05:37:45Z</time>
<desc>lat.=21.693844, lon.=104.995552, Alt.=61.030792m. Speed=34.164001m/h.</desc>
<speed>9.490000</speed>
</trkpt>
<trkpt lat="21.693432" lon="104.995461">
<ele>82.9</ele>
<time>2011-04-29T05:37:50Z</time>
<desc>lat.=21.693432, lon.=104.995461, Alt.=62.882355m. Speed=40.860001m/h.</desc>
<speed>11.350000</speed>
</trkpt>
<trkpt lat="21.692503" lon="104.994583">
<ele>67.8</ele>
<time>2011-04-29T05:38:00Z</time>
<desc>lat.=21.692503, lon.=104.994583, Alt.=64.227600m. Speed=55.872002m/h.</desc>
<speed>15.520000</speed>
</trkpt>
<trkpt lat="21.691195" lon="104.993973">
<ele>65.8</ele>
<time>2011-04-29T05:38:10Z</time>
<desc>lat.=21.691195, lon.=104.993973, Alt.=62.834503m. Speed=52.703999m/h.</desc>
<speed>14.640000</speed>
</trkpt>
<trkpt lat="21.690569" lon="104.994064">
<ele>69.0</ele>
<time>2011-04-29T05:38:15Z</time>
<desc>lat.=21.690569, lon.=104.994064, Alt.=61.472198m. Speed=49.320000m/h.</desc>
<speed>13.700000</speed>
</trkpt>
<trkpt lat="21.689554" lon="104.994637">
<ele>83.1</ele>
<time>2011-04-29T05:38:25Z</time>
<desc>lat.=21.689554, lon.=104.994637, Alt.=66.991272m. Speed=40.860001m/h.</desc>
<speed>11.350000</speed>
</trkpt>
<trkpt lat="21.689262" lon="104.995087">
<ele>76.9</ele>
<time>2011-04-29T05:38:30Z</time>
<desc>lat.=21.689262, lon.=104.995087, Alt.=71.549866m. Speed=39.203999m/h.</desc>
<speed>10.890000</speed>
</trkpt>
<trkpt lat="21.689226" lon="104.995552">
<ele>76.3</ele>
<time>2011-04-29T05:38:35Z</time>
<desc>lat.=21.689226, lon.=104.995552, Alt.=74.782288m. Speed=36.287998m/h.</desc>
<speed>10.079999</speed>
</trkpt>
<trkpt lat="21.689508" lon="104.996582">
<ele>80.5</ele>
<time>2011-04-29T05:38:45Z</time>
<desc>lat.=21.689508, lon.=104.996582, Alt.=81.063538m. Speed=42.480000m/h.</desc>
<speed>11.800000</speed>
</trkpt>
<trkpt lat="21.688856" lon="104.997337">
<ele>83.9</ele>
<time>2011-04-29T05:38:55Z</time>
<desc>lat.=21.688856, lon.=104.997337, Alt.=88.969788m. Speed=36.720001m/h.</desc>
<speed>10.200000</speed>
</trkpt>
<trkpt lat="21.688885" lon="104.998772">
<ele>94.4</ele>
<time>2011-04-29T05:39:10Z</time>
<desc>lat.=21.688885, lon.=104.998772, Alt.=101.280334m. Speed=37.296001m/h.</desc>
<speed>10.360000</speed>
</trkpt>
<trkpt lat="21.688732" lon="104.999184">
<ele>112.4</ele>
<time>2011-04-29T05:39:15Z</time>
<desc>lat.=21.688732, lon.=104.999184, Alt.=105.825256m. Speed=28.403999m/h.</desc>
<speed>7.890000</speed>
</trkpt>
<trkpt lat="21.687866" lon="104.999474">
<ele>116.2</ele>
<time>2011-04-29T05:39:25Z</time>
<desc>lat.=21.687866, lon.=104.999474, Alt.=114.419006m. Speed=37.728001m/h.</desc>
<speed>10.480000</speed>
</trkpt>
<trkpt lat="21.687584" lon="104.999886">
<ele>108.9</ele>
<time>2011-04-29T05:39:30Z</time>
<desc>lat.=21.687584, lon.=104.999886, Alt.=118.430725m. Speed=38.304001m/h.</desc>
<speed>10.640000</speed>
</trkpt>
<trkpt lat="21.687101" lon="105.000908">
<ele>93.3</ele>
<time>2011-04-29T05:39:40Z</time>
<desc>lat.=21.687101, lon.=105.000908, Alt.=125.850647m. Speed=43.164001m/h.</desc>
<speed>11.990000</speed>
</trkpt>
<trkpt lat="21.687149" lon="105.001579">
<ele>95.7</ele>
<time>2011-04-29T05:39:45Z</time>
<desc>lat.=21.687149, lon.=105.001579, Alt.=127.165100m. Speed=46.692001m/h.</desc>
<speed>12.970000</speed>
</trkpt>
<trkpt lat="21.686058" lon="105.003418">
<ele>85.4</ele>
<time>2011-04-29T05:40:00Z</time>
<desc>lat.=21.686058, lon.=105.003418, Alt.=116.100647m. Speed=60.875999m/h.</desc>
<speed>16.910000</speed>
</trkpt>
<trkpt lat="21.684944" lon="105.004471">
<ele>74.8</ele>
<time>2011-04-29T05:40:10Z</time>
<desc>lat.=21.684944, lon.=105.004471, Alt.=108.405334m. Speed=54.756001m/h.</desc>
<speed>15.210000</speed>
</trkpt>
<trkpt lat="21.684324" lon="105.005676">
<ele>76.5</ele>
<time>2011-04-29T05:40:20Z</time>
<desc>lat.=21.684324, lon.=105.005676, Alt.=98.553772m. Speed=53.891998m/h.</desc>
<speed>14.970000</speed>
</trkpt>
<trkpt lat="21.683506" lon="105.006462">
<ele>82.6</ele>
<time>2011-04-29T05:40:30Z</time>
<desc>lat.=21.683506, lon.=105.006462, Alt.=87.637756m. Speed=42.768002m/h.</desc>
<speed>11.880000</speed>
</trkpt>
<trkpt lat="21.683119" lon="105.007530">
<ele>81.6</ele>
<time>2011-04-29T05:40:40Z</time>
<desc>lat.=21.683119, lon.=105.007530, Alt.=85.237366m. Speed=41.903999m/h.</desc>
<speed>11.640000</speed>
</trkpt>
<trkpt lat="21.682365" lon="105.008369">
<ele>78.4</ele>
<time>2011-04-29T05:40:50Z</time>
<desc>lat.=21.682365, lon.=105.008369, Alt.=84.930725m. Speed=47.015999m/h.</desc>
<speed>13.060000</speed>
</trkpt>
<trkpt lat="21.682119" lon="105.009674">
<ele>77.6</ele>
<time>2011-04-29T05:41:00Z</time>
<desc>lat.=21.682119, lon.=105.009674, Alt.=84.766663m. Speed=47.304001m/h.</desc>
<speed>13.140000</speed>
</trkpt>
<trkpt lat="21.681820" lon="105.010216">
<ele>72.6</ele>
<time>2011-04-29T05:41:05Z</time>
<desc>lat.=21.681820, lon.=105.010216, Alt.=84.456116m. Speed=44.279999m/h.</desc>
<speed>12.300000</speed>
</trkpt>
<trkpt lat="21.680862" lon="105.010796">
<ele>68.6</ele>
<time>2011-04-29T05:41:15Z</time>
<desc>lat.=21.680862, lon.=105.010796, Alt.=82.452209m. Speed=46.944000m/h.</desc>
<speed>13.040000</speed>
</trkpt>
<trkpt lat="21.679935" lon="105.011696">
<ele>66.1</ele>
<time>2011-04-29T05:41:25Z</time>
<desc>lat.=21.679935, lon.=105.011696, Alt.=74.928772m. Speed=45.504002m/h.</desc>
<speed>12.640000</speed>
</trkpt>
<trkpt lat="21.678112" lon="105.013008">
<ele>72.0</ele>
<time>2011-04-29T05:41:45Z</time>
<desc>lat.=21.678112, lon.=105.013008, Alt.=67.741272m. Speed=32.832001m/h.</desc>
<speed>9.120000</speed>
</trkpt>
<trkpt lat="21.677679" lon="105.014061">
<ele>67.6</ele>
<time>2011-04-29T05:41:55Z</time>
<desc>lat.=21.677679, lon.=105.014061, Alt.=69.415100m. Speed=45.035999m/h.</desc>
<speed>12.510000</speed>
</trkpt>
<trkpt lat="21.676617" lon="105.017815">
<ele>72.0</ele>
<time>2011-04-29T05:42:30Z</time>
<desc>lat.=21.676617, lon.=105.017815, Alt.=74.118225m. Speed=43.848000m/h.</desc>
<speed>12.180000</speed>
</trkpt>
<trkpt lat="21.675686" lon="105.019211">
<ele>77.3</ele>
<time>2011-04-29T05:42:45Z</time>
<desc>lat.=21.675686, lon.=105.019211, Alt.=76.958069m. Speed=44.243999m/h.</desc>
<speed>12.290000</speed>
</trkpt>
<trkpt lat="21.674822" lon="105.019928">
<ele>73.4</ele>
<time>2011-04-29T05:42:55Z</time>
<desc>lat.=21.674822, lon.=105.019928, Alt.=79.098694m. Speed=42.228001m/h.</desc>
<speed>11.730000</speed>
</trkpt>
<trkpt lat="21.674105" lon="105.020950">
<ele>70.6</ele>
<time>2011-04-29T05:43:05Z</time>
<desc>lat.=21.674105, lon.=105.020950, Alt.=79.499084m. Speed=46.368000m/h.</desc>
<speed>12.880000</speed>
</trkpt>
<trkpt lat="21.673717" lon="105.022095">
<ele>71.5</ele>
<time>2011-04-29T05:43:15Z</time>
<desc>lat.=21.673717, lon.=105.022095, Alt.=79.797913m. Speed=44.891998m/h.</desc>
<speed>12.470000</speed>
</trkpt>
<trkpt lat="21.673729" lon="105.023926">
<ele>74.6</ele>
<time>2011-04-29T05:43:30Z</time>
<desc>lat.=21.673729, lon.=105.023926, Alt.=81.452209m. Speed=47.015999m/h.</desc>
<speed>13.060000</speed>
</trkpt>
<trkpt lat="21.673231" lon="105.025093">
<ele>82.2</ele>
<time>2011-04-29T05:43:40Z</time>
<desc>lat.=21.673231, lon.=105.025093, Alt.=82.842834m. Speed=43.848000m/h.</desc>
<speed>12.180000</speed>
</trkpt>
<trkpt lat="21.673346" lon="105.025635">
<ele>86.8</ele>
<time>2011-04-29T05:43:45Z</time>
<desc>lat.=21.673346, lon.=105.025635, Alt.=83.344788m. Speed=41.832001m/h.</desc>
<speed>11.620000</speed>
</trkpt>
<trkpt lat="21.673985" lon="105.026634">
<ele>79.9</ele>
<time>2011-04-29T05:43:55Z</time>
<desc>lat.=21.673985, lon.=105.026634, Alt.=83.858459m. Speed=46.223999m/h.</desc>
<speed>12.840000</speed>
</trkpt>
<trkpt lat="21.674067" lon="105.027222">
<ele>81.4</ele>
<time>2011-04-29T05:44:00Z</time>
<desc>lat.=21.674067, lon.=105.027222, Alt.=83.151428m. Speed=48.383999m/h.</desc>
<speed>13.440000</speed>
</trkpt>
<trkpt lat="21.673820" lon="105.027802">
<ele>78.9</ele>
<time>2011-04-29T05:44:05Z</time>
<desc>lat.=21.673820, lon.=105.027802, Alt.=83.270569m. Speed=46.872002m/h.</desc>
<speed>13.020000</speed>
</trkpt>
<trkpt lat="21.672331" lon="105.028954">
<ele>74.4</ele>
<time>2011-04-29T05:44:20Z</time>
<desc>lat.=21.672331, lon.=105.028954, Alt.=73.928772m. Speed=41.256001m/h.</desc>
<speed>11.460000</speed>
</trkpt>
<trkpt lat="21.672192" lon="105.029556">
<ele>70.4</ele>
<time>2011-04-29T05:44:25Z</time>
<desc>lat.=21.672192, lon.=105.029556, Alt.=69.686584m. Speed=47.916000m/h.</desc>
<speed>13.310000</speed>
</trkpt>
<trkpt lat="21.671616" lon="105.030670">
<ele>69.7</ele>
<time>2011-04-29T05:44:35Z</time>
<desc>lat.=21.671616, lon.=105.030670, Alt.=65.094788m. Speed=47.015999m/h.</desc>
<speed>13.060000</speed>
</trkpt>
<trkpt lat="21.672270" lon="105.032303">
<ele>70.1</ele>
<time>2011-04-29T05:44:50Z</time>
<desc>lat.=21.672270, lon.=105.032303, Alt.=66.016663m. Speed=46.296001m/h.</desc>
<speed>12.860000</speed>
</trkpt>
<trkpt lat="21.672297" lon="105.032913">
<ele>69.6</ele>
<time>2011-04-29T05:44:55Z</time>
<desc>lat.=21.672297, lon.=105.032913, Alt.=66.602600m. Speed=43.956001m/h.</desc>
<speed>12.210000</speed>
</trkpt>
<trkpt lat="21.671915" lon="105.034782">
<ele>70.7</ele>
<time>2011-04-29T05:45:10Z</time>
<desc>lat.=21.671915, lon.=105.034782, Alt.=65.586975m. Speed=47.484001m/h.</desc>
<speed>13.190000</speed>
</trkpt>
<trkpt lat="21.671919" lon="105.035408">
<ele>70.9</ele>
<time>2011-04-29T05:45:15Z</time>
<desc>lat.=21.671919, lon.=105.035408, Alt.=64.372131m. Speed=47.231998m/h.</desc>
<speed>13.120000</speed>
</trkpt>
<trkpt lat="21.672337" lon="105.036278">
<ele>76.4</ele>
<time>2011-04-29T05:45:25Z</time>
<desc>lat.=21.672337, lon.=105.036278, Alt.=62.872589m. Speed=31.716000m/h.</desc>
<speed>8.810000</speed>
</trkpt>
<trkpt lat="21.673725" lon="105.037010">
<ele>88.8</ele>
<time>2011-04-29T05:45:45Z</time>
<desc>lat.=21.673725, lon.=105.037010, Alt.=59.979034m. Speed=27.648001m/h.</desc>
<speed>7.680000</speed>
</trkpt>
<trkpt lat="21.673975" lon="105.037308">
<ele>86.4</ele>
<time>2011-04-29T05:45:50Z</time>
<desc>lat.=21.673975, lon.=105.037308, Alt.=59.882355m. Speed=31.392000m/h.</desc>
<speed>8.720000</speed>
</trkpt>
<trkpt lat="21.674442" lon="105.038506">
<ele>78.9</ele>
<time>2011-04-29T05:46:05Z</time>
<desc>lat.=21.674442, lon.=105.038506, Alt.=59.581573m. Speed=33.695999m/h.</desc>
<speed>9.360000</speed>
</trkpt>
<trkpt lat="21.674191" lon="105.039238">
<ele>81.1</ele>
<time>2011-04-29T05:46:15Z</time>
<desc>lat.=21.674191, lon.=105.039238, Alt.=58.300323m. Speed=28.403999m/h.</desc>
<speed>7.890000</speed>
</trkpt>
<trkpt lat="21.673952" lon="105.039497">
<ele>80.5</ele>
<time>2011-04-29T05:46:20Z</time>
<desc>lat.=21.673952, lon.=105.039497, Alt.=58.671417m. Speed=28.872000m/h.</desc>
<speed>8.020000</speed>
</trkpt>
<trkpt lat="21.673969" lon="105.039841">
<ele>85.7</ele>
<time>2011-04-29T05:46:25Z</time>
<desc>lat.=21.673969, lon.=105.039841, Alt.=59.126495m. Speed=29.124001m/h.</desc>
<speed>8.090000</speed>
</trkpt>
<trkpt lat="21.675869" lon="105.042366">
<ele>83.2</ele>
<time>2011-04-29T05:47:05Z</time>
<desc>lat.=21.675869, lon.=105.042366, Alt.=51.586456m. Speed=36.756001m/h.</desc>
<speed>10.210000</speed>
</trkpt>
<trkpt lat="21.676418" lon="105.043564">
<ele>67.5</ele>
<time>2011-04-29T05:47:20Z</time>
<desc>lat.=21.676418, lon.=105.043564, Alt.=47.112823m. Speed=25.920000m/h.</desc>
<speed>7.200000</speed>
</trkpt>
<trkpt lat="21.676283" lon="105.043877">
<ele>61.7</ele>
<time>2011-04-29T05:47:25Z</time>
<desc>lat.=21.676283, lon.=105.043877, Alt.=46.107941m. Speed=27.827999m/h.</desc>
<speed>7.730000</speed>
</trkpt>
<trkpt lat="21.675529" lon="105.044235">
<ele>66.1</ele>
<time>2011-04-29T05:47:35Z</time>
<desc>lat.=21.675529, lon.=105.044235, Alt.=44.035675m. Speed=35.028000m/h.</desc>
<speed>9.730000</speed>
</trkpt>
<trkpt lat="21.675129" lon="105.044762">
<ele>63.2</ele>
<time>2011-04-29T05:47:45Z</time>
<desc>lat.=21.675129, lon.=105.044762, Alt.=43.440948m. Speed=26.316000m/h.</desc>
<speed>7.310000</speed>
</trkpt>
<trkpt lat="21.675119" lon="105.045128">
<ele>62.0</ele>
<time>2011-04-29T05:47:50Z</time>
<desc>lat.=21.675119, lon.=105.045128, Alt.=42.479034m. Speed=27.323999m/h.</desc>
<speed>7.590000</speed>
</trkpt>
<trkpt lat="21.675419" lon="105.045418">
<ele>58.8</ele>
<time>2011-04-29T05:47:55Z</time>
<desc>lat.=21.675419, lon.=105.045418, Alt.=41.590363m. Speed=35.532001m/h.</desc>
<speed>9.870000</speed>
</trkpt>
<trkpt lat="21.675550" lon="105.045815">
<ele>58.0</ele>
<time>2011-04-29T05:48:00Z</time>
<desc>lat.=21.675550, lon.=105.045815, Alt.=40.606964m. Speed=22.968000m/h.</desc>
<speed>6.380000</speed>
</trkpt>
<trkpt lat="21.675386" lon="105.046333">
<ele>54.0</ele>
<time>2011-04-29T05:48:10Z</time>
<desc>lat.=21.675386, lon.=105.046333, Alt.=38.774933m. Speed=25.848000m/h.</desc>
<speed>7.180000</speed>
</trkpt>
<trkpt lat="21.675453" lon="105.047150">
<ele>51.8</ele>
<time>2011-04-29T05:48:20Z</time>
<desc>lat.=21.675453, lon.=105.047150, Alt.=37.345245m. Speed=27.216000m/h.</desc>
<speed>7.560000</speed>
</trkpt>
<trkpt lat="21.674776" lon="105.048286">
<ele>48.6</ele>
<time>2011-04-29T05:48:35Z</time>
<desc>lat.=21.674776, lon.=105.048286, Alt.=34.502472m. Speed=34.596001m/h.</desc>
<speed>9.610000</speed>
</trkpt>
<trkpt lat="21.674671" lon="105.048759">
<ele>48.1</ele>
<time>2011-04-29T05:48:40Z</time>
<desc>lat.=21.674671, lon.=105.048759, Alt.=33.621613m. Speed=38.160000m/h.</desc>
<speed>10.600000</speed>
</trkpt>
<trkpt lat="21.674679" lon="105.049316">
<ele>45.6</ele>
<time>2011-04-29T05:48:45Z</time>
<desc>lat.=21.674679, lon.=105.049316, Alt.=33.151886m. Speed=42.695999m/h.</desc>
<speed>11.860000</speed>
</trkpt>
<trkpt lat="21.675035" lon="105.050316">
<ele>46.9</ele>
<time>2011-04-29T05:48:55Z</time>
<desc>lat.=21.675035, lon.=105.050316, Alt.=32.620636m. Speed=36.647999m/h.</desc>
<speed>10.180000</speed>
</trkpt>
<trkpt lat="21.674725" lon="105.051811">
<ele>46.0</ele>
<time>2011-04-29T05:49:10Z</time>
<desc>lat.=21.674725, lon.=105.051811, Alt.=35.364777m. Speed=42.408001m/h.</desc>
<speed>11.780000</speed>
</trkpt>
<trkpt lat="21.674799" lon="105.054176">
<ele>41.9</ele>
<time>2011-04-29T05:49:30Z</time>
<desc>lat.=21.674799, lon.=105.054176, Alt.=38.463409m. Speed=53.316002m/h.</desc>
<speed>14.810001</speed>
</trkpt>
<trkpt lat="21.674932" lon="105.054832">
<ele>42.8</ele>
<time>2011-04-29T05:49:35Z</time>
<desc>lat.=21.674932, lon.=105.054832, Alt.=36.499542m. Speed=51.048000m/h.</desc>
<speed>14.180000</speed>
</trkpt>
<trkpt lat="21.675259" lon="105.055412">
<ele>39.5</ele>
<time>2011-04-29T05:49:40Z</time>
<desc>lat.=21.675259, lon.=105.055412, Alt.=35.648956m. Speed=53.028000m/h.</desc>
<speed>14.730000</speed>
</trkpt>
<trkpt lat="21.675745" lon="105.055923">
<ele>36.4</ele>
<time>2011-04-29T05:49:45Z</time>
<desc>lat.=21.675745, lon.=105.055923, Alt.=32.534698m. Speed=53.028000m/h.</desc>
<speed>14.730000</speed>
</trkpt>
<trkpt lat="21.676380" lon="105.056206">
<ele>34.1</ele>
<time>2011-04-29T05:49:50Z</time>
<desc>lat.=21.676380, lon.=105.056206, Alt.=30.189713m. Speed=54.900002m/h.</desc>
<speed>15.250000</speed>
</trkpt>
<trkpt lat="21.677206" lon="105.057259">
<ele>32.8</ele>
<time>2011-04-29T05:50:00Z</time>
<desc>lat.=21.677206, lon.=105.057259, Alt.=25.838638m. Speed=53.388000m/h.</desc>
<speed>14.830000</speed>
</trkpt>
<trkpt lat="21.677776" lon="105.057686">
<ele>30.5</ele>
<time>2011-04-29T05:50:05Z</time>
<desc>lat.=21.677776, lon.=105.057686, Alt.=23.804947m. Speed=50.939999m/h.</desc>
<speed>14.150000</speed>
</trkpt>
<trkpt lat="21.677935" lon="105.058273">
<ele>29.3</ele>
<time>2011-04-29T05:50:10Z</time>
<desc>lat.=21.677935, lon.=105.058273, Alt.=22.941666m. Speed=46.512001m/h.</desc>
<speed>12.920000</speed>
</trkpt>
<trkpt lat="21.677135" lon="105.060143">
<ele>32.7</ele>
<time>2011-04-29T05:50:25Z</time>
<desc>lat.=21.677135, lon.=105.060143, Alt.=21.261978m. Speed=51.155998m/h.</desc>
<speed>14.210000</speed>
</trkpt>
<trkpt lat="21.676979" lon="105.061584">
<ele>34.0</ele>
<time>2011-04-29T05:50:35Z</time>
<desc>lat.=21.676979, lon.=105.061584, Alt.=17.971451m. Speed=57.096001m/h.</desc>
<speed>15.860000</speed>
</trkpt>
<trkpt lat="21.677826" lon="105.068115">
<ele>37.7</ele>
<time>2011-04-29T05:51:30Z</time>
<desc>lat.=21.677826, lon.=105.068115, Alt.=23.315689m. Speed=50.147999m/h.</desc>
<speed>13.930000</speed>
</trkpt>
<trkpt lat="21.678066" lon="105.069283">
<ele>32.8</ele>
<time>2011-04-29T05:51:40Z</time>
<desc>lat.=21.678066, lon.=105.069283, Alt.=22.498795m. Speed=36.431999m/h.</desc>
<speed>10.120000</speed>
</trkpt>
<trkpt lat="21.678318" lon="105.069778">
<ele>28.5</ele>
<time>2011-04-29T05:51:45Z</time>
<desc>lat.=21.678318, lon.=105.069778, Alt.=19.469009m. Speed=47.664001m/h.</desc>
<speed>13.240000</speed>
</trkpt>
<trkpt lat="21.679974" lon="105.071861">
<ele>30.9</ele>
<time>2011-04-29T05:52:05Z</time>
<desc>lat.=21.679974, lon.=105.071861, Alt.=15.522102m. Speed=46.799999m/h.</desc>
<speed>13.000000</speed>
</trkpt>
<trkpt lat="21.679916" lon="105.072395">
<ele>31.3</ele>
<time>2011-04-29T05:52:10Z</time>
<desc>lat.=21.679916, lon.=105.072395, Alt.=16.528580m. Speed=43.020000m/h.</desc>
<speed>11.950000</speed>
</trkpt>
<trkpt lat="21.679377" lon="105.073402">
<ele>34.9</ele>
<time>2011-04-29T05:52:20Z</time>
<desc>lat.=21.679377, lon.=105.073402, Alt.=18.676529m. Speed=41.220001m/h.</desc>
<speed>11.450000</speed>
</trkpt>
<trkpt lat="21.679346" lon="105.074654">
<ele>34.2</ele>
<time>2011-04-29T05:52:30Z</time>
<desc>lat.=21.679346, lon.=105.074654, Alt.=19.525650m. Speed=49.500000m/h.</desc>
<speed>13.750000</speed>
</trkpt>
<trkpt lat="21.680462" lon="105.076431">
<ele>33.7</ele>
<time>2011-04-29T05:52:45Z</time>
<desc>lat.=21.680462, lon.=105.076431, Alt.=11.974983m. Speed=52.632000m/h.</desc>
<speed>14.620000</speed>
</trkpt>
<trkpt lat="21.680645" lon="105.077133">
<ele>35.5</ele>
<time>2011-04-29T05:52:55Z</time>
<desc>lat.=21.680645, lon.=105.077133, Alt.=11.062874m. Speed=2.124000m/h.</desc>
<speed>0.590000</speed>
</trkpt>
<trkpt lat="21.680202" lon="105.077698">
<ele>36.5</ele>
<time>2011-04-29T05:53:25Z</time>
<desc>lat.=21.680202, lon.=105.077698, Alt.=15.100471m. Speed=29.268000m/h.</desc>
<speed>8.130000</speed>
</trkpt>
<trkpt lat="21.678665" lon="105.078148">
<ele>32.3</ele>
<time>2011-04-29T05:53:40Z</time>
<desc>lat.=21.678665, lon.=105.078148, Alt.=14.163948m. Speed=48.060001m/h.</desc>
<speed>13.350000</speed>
</trkpt>
<trkpt lat="21.677492" lon="105.078857">
<ele>32.0</ele>
<time>2011-04-29T05:53:50Z</time>
<desc>lat.=21.677492, lon.=105.078857, Alt.=15.530403m. Speed=56.664001m/h.</desc>
<speed>15.740000</speed>
</trkpt>
<trkpt lat="21.674028" lon="105.082451">
<ele>30.6</ele>
<time>2011-04-29T05:54:20Z</time>
<desc>lat.=21.674028, lon.=105.082451, Alt.=20.569595m. Speed=63.792000m/h.</desc>
<speed>17.720000</speed>
</trkpt>
<trkpt lat="21.672670" lon="105.084473">
<ele>30.3</ele>
<time>2011-04-29T05:54:35Z</time>
<desc>lat.=21.672670, lon.=105.084473, Alt.=22.222916m. Speed=53.208000m/h.</desc>
<speed>14.780000</speed>
</trkpt>
<trkpt lat="21.672096" lon="105.084763">
<ele>28.9</ele>
<time>2011-04-29T05:54:40Z</time>
<desc>lat.=21.672096, lon.=105.084763, Alt.=20.758560m. Speed=54.504002m/h.</desc>
<speed>15.140000</speed>
</trkpt>
<trkpt lat="21.671402" lon="105.084694">
<ele>35.6</ele>
<time>2011-04-29T05:54:45Z</time>
<desc>lat.=21.671402, lon.=105.084694, Alt.=20.623795m. Speed=56.375999m/h.</desc>
<speed>15.660000</speed>
</trkpt>
<trkpt lat="21.669989" lon="105.083420">
<ele>54.5</ele>
<time>2011-04-29T05:55:00Z</time>
<desc>lat.=21.669989, lon.=105.083420, Alt.=26.193130m. Speed=42.875999m/h.</desc>
<speed>11.910000</speed>
</trkpt>
<trkpt lat="21.669418" lon="105.083496">
<ele>45.6</ele>
<time>2011-04-29T05:55:05Z</time>
<desc>lat.=21.669418, lon.=105.083496, Alt.=27.538834m. Speed=47.952000m/h.</desc>
<speed>13.320000</speed>
</trkpt>
<trkpt lat="21.668850" lon="105.083748">
<ele>34.6</ele>
<time>2011-04-29T05:55:10Z</time>
<desc>lat.=21.668850, lon.=105.083748, Alt.=27.696548m. Speed=49.860001m/h.</desc>
<speed>13.850000</speed>
</trkpt>
<trkpt lat="21.667469" lon="105.085052">
<ele>36.6</ele>
<time>2011-04-29T05:55:25Z</time>
<desc>lat.=21.667469, lon.=105.085052, Alt.=31.939713m. Speed=50.327999m/h.</desc>
<speed>13.980000</speed>
</trkpt>
<trkpt lat="21.666847" lon="105.085342">
<ele>31.8</ele>
<time>2011-04-29T05:55:30Z</time>
<desc>lat.=21.666847, lon.=105.085342, Alt.=29.079361m. Speed=59.616001m/h.</desc>
<speed>16.560000</speed>
</trkpt>
<trkpt lat="21.664461" lon="105.085747">
<ele>30.9</ele>
<time>2011-04-29T05:55:45Z</time>
<desc>lat.=21.664461, lon.=105.085747, Alt.=24.203873m. Speed=60.660000m/h.</desc>
<speed>16.850000</speed>
</trkpt>
<trkpt lat="21.663769" lon="105.086037">
<ele>31.4</ele>
<time>2011-04-29T05:55:50Z</time>
<desc>lat.=21.663769, lon.=105.086037, Alt.=21.076920m. Speed=60.768002m/h.</desc>
<speed>16.880000</speed>
</trkpt>
<trkpt lat="21.662357" lon="105.087631">
<ele>32.3</ele>
<time>2011-04-29T05:56:15Z</time>
<desc>lat.=21.662357, lon.=105.087631, Alt.=12.612434m. Speed=36.071999m/h.</desc>
<speed>10.020000</speed>
</trkpt>
<trkpt lat="21.661442" lon="105.088013">
<ele>44.3</ele>
<time>2011-04-29T05:56:35Z</time>
<desc>lat.=21.661442, lon.=105.088013, Alt.=8.967659m. Speed=24.875999m/h.</desc>
<speed>6.910000</speed>
</trkpt>
<trkpt lat="21.660549" lon="105.088150">
<ele>37.1</ele>
<time>2011-04-29T05:56:45Z</time>
<desc>lat.=21.660549, lon.=105.088150, Alt.=8.348030m. Speed=38.807999m/h.</desc>
<speed>10.780000</speed>
</trkpt>
<trkpt lat="21.658895" lon="105.087646">
<ele>46.0</ele>
<time>2011-04-29T05:57:00Z</time>
<desc>lat.=21.658895, lon.=105.087646, Alt.=7.121647m. Speed=43.487999m/h.</desc>
<speed>12.080000</speed>
</trkpt>
<trkpt lat="21.658325" lon="105.087700">
<ele>41.8</ele>
<time>2011-04-29T05:57:05Z</time>
<desc>lat.=21.658325, lon.=105.087700, Alt.=7.521671m. Speed=44.352001m/h.</desc>
<speed>12.320000</speed>
</trkpt>
<trkpt lat="21.657137" lon="105.088394">
<ele>34.3</ele>
<time>2011-04-29T05:57:15Z</time>
<desc>lat.=21.657137, lon.=105.088394, Alt.=8.088264m. Speed=55.332001m/h.</desc>
<speed>15.370000</speed>
</trkpt>
<trkpt lat="21.656443" lon="105.088493">
<ele>43.2</ele>
<time>2011-04-29T05:57:20Z</time>
<desc>lat.=21.656443, lon.=105.088493, Alt.=10.895149m. Speed=54.108002m/h.</desc>
<speed>15.030000</speed>
</trkpt>
<trkpt lat="21.653698" lon="105.087967">
<ele>44.4</ele>
<time>2011-04-29T05:57:40Z</time>
<desc>lat.=21.653698, lon.=105.087967, Alt.=21.750748m. Speed=57.023998m/h.</desc>
<speed>15.840000</speed>
</trkpt>
<trkpt lat="21.652966" lon="105.088036">
<ele>45.6</ele>
<time>2011-04-29T05:57:45Z</time>
<desc>lat.=21.652966, lon.=105.088036, Alt.=23.204361m. Speed=55.944000m/h.</desc>
<speed>15.540000</speed>
</trkpt>
<trkpt lat="21.652277" lon="105.088371">
<ele>40.3</ele>
<time>2011-04-29T05:57:50Z</time>
<desc>lat.=21.652277, lon.=105.088371, Alt.=24.805435m. Speed=62.208000m/h.</desc>
<speed>17.280000</speed>
</trkpt>
<trkpt lat="21.650661" lon="105.090057">
<ele>51.2</ele>
<time>2011-04-29T05:58:05Z</time>
<desc>lat.=21.650661, lon.=105.090057, Alt.=25.607681m. Speed=60.084000m/h.</desc>
<speed>16.690000</speed>
</trkpt>
<trkpt lat="21.649544" lon="105.092125">
<ele>39.7</ele>
<time>2011-04-29T05:58:20Z</time>
<desc>lat.=21.649544, lon.=105.092125, Alt.=24.501236m. Speed=57.888000m/h.</desc>
<speed>16.080000</speed>
</trkpt>
<trkpt lat="21.648523" lon="105.093048">
<ele>37.3</ele>
<time>2011-04-29T05:58:30Z</time>
<desc>lat.=21.648523, lon.=105.093048, Alt.=18.984146m. Speed=51.768002m/h.</desc>
<speed>14.380000</speed>
</trkpt>
<trkpt lat="21.647909" lon="105.094025">
<ele>35.8</ele>
<time>2011-04-29T05:58:40Z</time>
<desc>lat.=21.647909, lon.=105.094025, Alt.=21.261490m. Speed=23.292000m/h.</desc>
<speed>6.470000</speed>
</trkpt>
<trkpt lat="21.647495" lon="105.094383">
<ele>36.2</ele>
<time>2011-04-29T05:58:55Z</time>
<desc>lat.=21.647495, lon.=105.094383, Alt.=20.250259m. Speed=24.084000m/h.</desc>
<speed>6.690000</speed>
</trkpt>
<trkpt lat="21.646620" lon="105.094666">
<ele>36.5</ele>
<time>2011-04-29T05:59:05Z</time>
<desc>lat.=21.646620, lon.=105.094666, Alt.=21.876236m. Speed=41.868000m/h.</desc>
<speed>11.630000</speed>
</trkpt>
<trkpt lat="21.646172" lon="105.095024">
<ele>35.6</ele>
<time>2011-04-29T05:59:10Z</time>
<desc>lat.=21.646172, lon.=105.095024, Alt.=20.769302m. Speed=43.740002m/h.</desc>
<speed>12.150000</speed>
</trkpt>
<trkpt lat="21.645903" lon="105.095551">
<ele>34.4</ele>
<time>2011-04-29T05:59:15Z</time>
<desc>lat.=21.645903, lon.=105.095551, Alt.=21.083267m. Speed=45.683998m/h.</desc>
<speed>12.689999</speed>
</trkpt>
<trkpt lat="21.645823" lon="105.096161">
<ele>39.0</ele>
<time>2011-04-29T05:59:20Z</time>
<desc>lat.=21.645823, lon.=105.096161, Alt.=22.689713m. Speed=47.520000m/h.</desc>
<speed>13.200000</speed>
</trkpt>
<trkpt lat="21.646385" lon="105.098099">
<ele>40.7</ele>
<time>2011-04-29T05:59:35Z</time>
<desc>lat.=21.646385, lon.=105.098099, Alt.=22.738541m. Speed=43.596001m/h.</desc>
<speed>12.110000</speed>
</trkpt>
<trkpt lat="21.645561" lon="105.098938">
<ele>40.3</ele>
<time>2011-04-29T05:59:45Z</time>
<desc>lat.=21.645561, lon.=105.098938, Alt.=23.074478m. Speed=50.723999m/h.</desc>
<speed>14.090000</speed>
</trkpt>
<trkpt lat="21.645325" lon="105.099556">
<ele>40.1</ele>
<time>2011-04-29T05:59:50Z</time>
<desc>lat.=21.645325, lon.=105.099556, Alt.=24.000259m. Speed=51.480000m/h.</desc>
<speed>14.300000</speed>
</trkpt>
<trkpt lat="21.645130" lon="105.104309">
<ele>29.2</ele>
<time>2011-04-29T06:00:20Z</time>
<desc>lat.=21.645130, lon.=105.104309, Alt.=22.423599m. Speed=62.424000m/h.</desc>
<speed>17.340000</speed>
</trkpt>
<trkpt lat="21.644979" lon="105.105095">
<ele>27.8</ele>
<time>2011-04-29T06:00:25Z</time>
<desc>lat.=21.644979, lon.=105.105095, Alt.=21.302017m. Speed=57.276001m/h.</desc>
<speed>15.910000</speed>
</trkpt>
<trkpt lat="21.644264" lon="105.106483">
<ele>30.7</ele>
<time>2011-04-29T06:00:35Z</time>
<desc>lat.=21.644264, lon.=105.106483, Alt.=17.966568m. Speed=57.708000m/h.</desc>
<speed>16.030000</speed>
</trkpt>
<trkpt lat="21.642529" lon="105.107681">
<ele>33.2</ele>
<time>2011-04-29T06:00:50Z</time>
<desc>lat.=21.642529, lon.=105.107681, Alt.=16.357681m. Speed=52.523998m/h.</desc>
<speed>14.590000</speed>
</trkpt>
<trkpt lat="21.641979" lon="105.109062">
<ele>35.0</ele>
<time>2011-04-29T06:01:00Z</time>
<desc>lat.=21.641979, lon.=105.109062, Alt.=19.605240m. Speed=58.248001m/h.</desc>
<speed>16.180000</speed>
</trkpt>
<trkpt lat="21.640991" lon="105.110313">
<ele>36.9</ele>
<time>2011-04-29T06:01:10Z</time>
<desc>lat.=21.640991, lon.=105.110313, Alt.=18.654068m. Speed=61.848000m/h.</desc>
<speed>17.180000</speed>
</trkpt>
<trkpt lat="21.639795" lon="105.112328">
<ele>35.0</ele>
<time>2011-04-29T06:01:25Z</time>
<desc>lat.=21.639795, lon.=105.112328, Alt.=18.909439m. Speed=55.835999m/h.</desc>
<speed>15.510000</speed>
</trkpt>
<trkpt lat="21.639244" lon="105.112694">
<ele>33.9</ele>
<time>2011-04-29T06:01:30Z</time>
<desc>lat.=21.639244, lon.=105.112694, Alt.=20.018814m. Speed=51.299999m/h.</desc>
<speed>14.250000</speed>
</trkpt>
<trkpt lat="21.637104" lon="105.112259">
<ele>37.7</ele>
<time>2011-04-29T06:01:45Z</time>
<desc>lat.=21.637104, lon.=105.112259, Alt.=15.351448m. Speed=59.688000m/h.</desc>
<speed>16.580000</speed>
</trkpt>
<trkpt lat="21.636389" lon="105.112381">
<ele>44.6</ele>
<time>2011-04-29T06:01:50Z</time>
<desc>lat.=21.636389, lon.=105.112381, Alt.=17.156021m. Speed=57.492001m/h.</desc>
<speed>15.970000</speed>
</trkpt>
<trkpt lat="21.635279" lon="105.113083">
<ele>49.6</ele>
<time>2011-04-29T06:02:00Z</time>
<desc>lat.=21.635279, lon.=105.113083, Alt.=22.369888m. Speed=45.972000m/h.</desc>
<speed>12.770000</speed>
</trkpt>
<trkpt lat="21.634092" lon="105.113327">
<ele>39.8</ele>
<time>2011-04-29T06:02:10Z</time>
<desc>lat.=21.634092, lon.=105.113327, Alt.=19.210220m. Speed=47.807999m/h.</desc>
<speed>13.280000</speed>
</trkpt>
<trkpt lat="21.633749" lon="105.113792">
<ele>36.9</ele>
<time>2011-04-29T06:02:15Z</time>
<desc>lat.=21.633749, lon.=105.113792, Alt.=16.546646m. Speed=37.728001m/h.</desc>
<speed>10.480000</speed>
</trkpt>
<trkpt lat="21.633686" lon="105.114250">
<ele>42.3</ele>
<time>2011-04-29T06:02:20Z</time>
<desc>lat.=21.633686, lon.=105.114250, Alt.=14.944954m. Speed=36.396000m/h.</desc>
<speed>10.110000</speed>
</trkpt>
<trkpt lat="21.634241" lon="105.115295">
<ele>39.4</ele>
<time>2011-04-29T06:02:30Z</time>
<desc>lat.=21.634241, lon.=105.115295, Alt.=11.824104m. Speed=48.743999m/h.</desc>
<speed>13.540000</speed>
</trkpt>
<trkpt lat="21.634304" lon="105.115898">
<ele>33.6</ele>
<time>2011-04-29T06:02:35Z</time>
<desc>lat.=21.634304, lon.=105.115898, Alt.=10.946175m. Speed=42.588001m/h.</desc>
<speed>11.830000</speed>
</trkpt>
<trkpt lat="21.633999" lon="105.116447">
<ele>38.1</ele>
<time>2011-04-29T06:02:40Z</time>
<desc>lat.=21.633999, lon.=105.116447, Alt.=9.992317m. Speed=45.360001m/h.</desc>
<speed>12.600000</speed>
</trkpt>
<trkpt lat="21.632624" lon="105.117233">
<ele>36.3</ele>
<time>2011-04-29T06:02:55Z</time>
<desc>lat.=21.632624, lon.=105.117233, Alt.=12.850960m. Speed=33.372002m/h.</desc>
<speed>9.270000</speed>
</trkpt>
<trkpt lat="21.632277" lon="105.118134">
<ele>41.2</ele>
<time>2011-04-29T06:03:05Z</time>
<desc>lat.=21.632277, lon.=105.118134, Alt.=15.167366m. Speed=41.616001m/h.</desc>
<speed>11.560000</speed>
</trkpt>
<trkpt lat="21.632195" lon="105.118690">
<ele>41.2</ele>
<time>2011-04-29T06:03:10Z</time>
<desc>lat.=21.632195, lon.=105.118690, Alt.=17.435318m. Speed=42.012001m/h.</desc>
<speed>11.670000</speed>
</trkpt>
<trkpt lat="21.632767" lon="105.120506">
<ele>38.3</ele>
<time>2011-04-29T06:03:25Z</time>
<desc>lat.=21.632767, lon.=105.120506, Alt.=18.385025m. Speed=51.588001m/h.</desc>
<speed>14.330000</speed>
</trkpt>
<trkpt lat="21.632910" lon="105.122169">
<ele>35.0</ele>
<time>2011-04-29T06:03:40Z</time>
<desc>lat.=21.632910, lon.=105.122169, Alt.=17.675064m. Speed=42.012001m/h.</desc>
<speed>11.670000</speed>
</trkpt>
<trkpt lat="21.632849" lon="105.124504">
<ele>33.8</ele>
<time>2011-04-29T06:04:00Z</time>
<desc>lat.=21.632849, lon.=105.124504, Alt.=20.132095m. Speed=40.428001m/h.</desc>
<speed>11.230000</speed>
</trkpt>
<trkpt lat="21.632620" lon="105.125572">
<ele>31.6</ele>
<time>2011-04-29T06:04:10Z</time>
<desc>lat.=21.632620, lon.=105.125572, Alt.=16.774673m. Speed=39.852001m/h.</desc>
<speed>11.070000</speed>
</trkpt>
<trkpt lat="21.631744" lon="105.126945">
<ele>33.4</ele>
<time>2011-04-29T06:04:25Z</time>
<desc>lat.=21.631744, lon.=105.126945, Alt.=17.073013m. Speed=36.035999m/h.</desc>
<speed>10.010000</speed>
</trkpt>
<trkpt lat="21.631483" lon="105.127953">
<ele>31.8</ele>
<time>2011-04-29T06:04:35Z</time>
<desc>lat.=21.631483, lon.=105.127953, Alt.=17.346939m. Speed=39.959999m/h.</desc>
<speed>11.100000</speed>
</trkpt>
<trkpt lat="21.632286" lon="105.132423">
<ele>31.0</ele>
<time>2011-04-29T06:05:15Z</time>
<desc>lat.=21.632286, lon.=105.132423, Alt.=16.500259m. Speed=38.591999m/h.</desc>
<speed>10.720000</speed>
</trkpt>
<trkpt lat="21.632277" lon="105.133568">
<ele>29.7</ele>
<time>2011-04-29T06:05:25Z</time>
<desc>lat.=21.632277, lon.=105.133568, Alt.=16.372330m. Speed=45.863998m/h.</desc>
<speed>12.740000</speed>
</trkpt>
<trkpt lat="21.631790" lon="105.134682">
<ele>30.9</ele>
<time>2011-04-29T06:05:35Z</time>
<desc>lat.=21.631790, lon.=105.134682, Alt.=17.815201m. Speed=42.480000m/h.</desc>
<speed>11.800000</speed>
</trkpt>
<trkpt lat="21.628910" lon="105.139320">
<ele>34.3</ele>
<time>2011-04-29T06:06:15Z</time>
<desc>lat.=21.628910, lon.=105.139320, Alt.=14.121468m. Speed=57.132000m/h.</desc>
<speed>15.870000</speed>
</trkpt>
<trkpt lat="21.623623" lon="105.146545">
<ele>29.0</ele>
<time>2011-04-29T06:07:30Z</time>
<desc>lat.=21.623623, lon.=105.146545, Alt.=12.019173m. Speed=51.119999m/h.</desc>
<speed>14.200000</speed>
</trkpt>
<trkpt lat="21.623077" lon="105.147820">
<ele>31.2</ele>
<time>2011-04-29T06:07:40Z</time>
<desc>lat.=21.623077, lon.=105.147820, Alt.=10.976448m. Speed=50.076000m/h.</desc>
<speed>13.910000</speed>
</trkpt>
<trkpt lat="21.622858" lon="105.149010">
<ele>30.3</ele>
<time>2011-04-29T06:07:50Z</time>
<desc>lat.=21.622858, lon.=105.149010, Alt.=7.739079m. Speed=43.632000m/h.</desc>
<speed>12.120000</speed>
</trkpt>
<trkpt lat="21.622789" lon="105.150146">
<ele>29.7</ele>
<time>2011-04-29T06:08:00Z</time>
<desc>lat.=21.622789, lon.=105.150146, Alt.=8.881233m. Speed=42.264000m/h.</desc>
<speed>11.740000</speed>
</trkpt>
<trkpt lat="21.622997" lon="105.151283">
<ele>36.8</ele>
<time>2011-04-29T06:08:10Z</time>
<desc>lat.=21.622997, lon.=105.151283, Alt.=11.717171m. Speed=37.872002m/h.</desc>
<speed>10.520000</speed>
</trkpt>
<trkpt lat="21.623278" lon="105.151695">
<ele>36.3</ele>
<time>2011-04-29T06:08:15Z</time>
<desc>lat.=21.623278, lon.=105.151695, Alt.=11.712532m. Speed=39.743999m/h.</desc>
<speed>11.040000</speed>
</trkpt>
<trkpt lat="21.626150" lon="105.153557">
<ele>38.6</ele>
<time>2011-04-29T06:08:50Z</time>
<desc>lat.=21.626150, lon.=105.153557, Alt.=17.655533m. Speed=35.352001m/h.</desc>
<speed>9.820000</speed>
</trkpt>
<trkpt lat="21.626398" lon="105.154015">
<ele>36.0</ele>
<time>2011-04-29T06:08:55Z</time>
<desc>lat.=21.626398, lon.=105.154015, Alt.=18.949966m. Speed=41.688000m/h.</desc>
<speed>11.580000</speed>
</trkpt>
<trkpt lat="21.626484" lon="105.154594">
<ele>35.3</ele>
<time>2011-04-29T06:09:00Z</time>
<desc>lat.=21.626484, lon.=105.154594, Alt.=20.114029m. Speed=45.108002m/h.</desc>
<speed>12.530000</speed>
</trkpt>
<trkpt lat="21.626425" lon="105.155792">
<ele>32.5</ele>
<time>2011-04-29T06:09:10Z</time>
<desc>lat.=21.626425, lon.=105.155792, Alt.=15.207893m. Speed=45.936001m/h.</desc>
<speed>12.760000</speed>
</trkpt>
<trkpt lat="21.626129" lon="105.157082">
<ele>29.7</ele>
<time>2011-04-29T06:09:20Z</time>
<desc>lat.=21.626129, lon.=105.157082, Alt.=14.917366m. Speed=44.712002m/h.</desc>
<speed>12.420001</speed>
</trkpt>
<trkpt lat="21.623693" lon="105.162331">
<ele>35.0</ele>
<time>2011-04-29T06:10:15Z</time>
<desc>lat.=21.623693, lon.=105.162331, Alt.=14.038948m. Speed=38.807999m/h.</desc>
<speed>10.780000</speed>
</trkpt>
<trkpt lat="21.623640" lon="105.163406">
<ele>29.8</ele>
<time>2011-04-29T06:10:25Z</time>
<desc>lat.=21.623640, lon.=105.163406, Alt.=12.167122m. Speed=43.271999m/h.</desc>
<speed>12.020000</speed>
</trkpt>
<trkpt lat="21.624287" lon="105.165489">
<ele>33.3</ele>
<time>2011-04-29T06:10:45Z</time>
<desc>lat.=21.624287, lon.=105.165489, Alt.=15.484993m. Speed=39.132000m/h.</desc>
<speed>10.870000</speed>
</trkpt>
<trkpt lat="21.624279" lon="105.166008">
<ele>33.5</ele>
<time>2011-04-29T06:10:50Z</time>
<desc>lat.=21.624279, lon.=105.166008, Alt.=16.349380m. Speed=39.636002m/h.</desc>
<speed>11.010000</speed>
</trkpt>
<trkpt lat="21.624096" lon="105.166534">
<ele>34.8</ele>
<time>2011-04-29T06:10:55Z</time>
<desc>lat.=21.624096, lon.=105.166534, Alt.=15.209114m. Speed=41.832001m/h.</desc>
<speed>11.620000</speed>
</trkpt>
<trkpt lat="21.623072" lon="105.167976">
<ele>29.4</ele>
<time>2011-04-29T06:11:10Z</time>
<desc>lat.=21.623072, lon.=105.167976, Alt.=11.888802m. Speed=46.259998m/h.</desc>
<speed>12.850000</speed>
</trkpt>
<trkpt lat="21.621719" lon="105.168854">
<ele>32.8</ele>
<time>2011-04-29T06:11:25Z</time>
<desc>lat.=21.621719, lon.=105.168854, Alt.=13.857063m. Speed=39.959999m/h.</desc>
<speed>11.100000</speed>
</trkpt>
<trkpt lat="21.621502" lon="105.169304">
<ele>30.9</ele>
<time>2011-04-29T06:11:30Z</time>
<desc>lat.=21.621502, lon.=105.169304, Alt.=13.216682m. Speed=36.467999m/h.</desc>
<speed>10.130000</speed>
</trkpt>
<trkpt lat="21.621464" lon="105.169853">
<ele>31.4</ele>
<time>2011-04-29T06:11:35Z</time>
<desc>lat.=21.621464, lon.=105.169853, Alt.=14.511116m. Speed=43.307999m/h.</desc>
<speed>12.030000</speed>
</trkpt>
<trkpt lat="21.622190" lon="105.171234">
<ele>34.7</ele>
<time>2011-04-29T06:11:50Z</time>
<desc>lat.=21.622190, lon.=105.171234, Alt.=11.765266m. Speed=39.959999m/h.</desc>
<speed>11.100000</speed>
</trkpt>
<trkpt lat="21.622169" lon="105.171768">
<ele>36.4</ele>
<time>2011-04-29T06:11:55Z</time>
<desc>lat.=21.622169, lon.=105.171768, Alt.=12.318733m. Speed=38.771999m/h.</desc>
<speed>10.770000</speed>
</trkpt>
<trkpt lat="21.622322" lon="105.172180">
<ele>37.4</ele>
<time>2011-04-29T06:12:00Z</time>
<desc>lat.=21.622322, lon.=105.172180, Alt.=13.405159m. Speed=36.431999m/h.</desc>
<speed>10.120000</speed>
</trkpt>
<trkpt lat="21.622993" lon="105.172867">
<ele>43.1</ele>
<time>2011-04-29T06:12:10Z</time>
<desc>lat.=21.622993, lon.=105.172867, Alt.=15.321175m. Speed=35.891998m/h.</desc>
<speed>9.970000</speed>
</trkpt>
<trkpt lat="21.623873" lon="105.175095">
<ele>49.0</ele>
<time>2011-04-29T06:14:25Z</time>
<desc>lat.=21.623873, lon.=105.175095, Alt.=23.390396m. Speed=30.240000m/h.</desc>
<speed>8.400000</speed>
</trkpt>
<trkpt lat="21.623981" lon="105.176819">
<ele>48.1</ele>
<time>2011-04-29T06:14:45Z</time>
<desc>lat.=21.623981, lon.=105.176819, Alt.=35.090363m. Speed=32.327999m/h.</desc>
<speed>8.980000</speed>
</trkpt>
<trkpt lat="21.623894" lon="105.177277">
<ele>47.0</ele>
<time>2011-04-29T06:14:50Z</time>
<desc>lat.=21.623894, lon.=105.177277, Alt.=37.057159m. Speed=36.180000m/h.</desc>
<speed>10.050000</speed>
</trkpt>
<trkpt lat="21.623350" lon="105.178200">
<ele>38.8</ele>
<time>2011-04-29T06:15:00Z</time>
<desc>lat.=21.623350, lon.=105.178200, Alt.=40.035675m. Speed=34.740002m/h.</desc>
<speed>9.650000</speed>
</trkpt>
<trkpt lat="21.623442" lon="105.178696">
<ele>34.8</ele>
<time>2011-04-29T06:15:05Z</time>
<desc>lat.=21.623442, lon.=105.178696, Alt.=40.549347m. Speed=39.348000m/h.</desc>
<speed>10.930000</speed>
</trkpt>
<trkpt lat="21.624279" lon="105.180099">
<ele>30.8</ele>
<time>2011-04-29T06:15:20Z</time>
<desc>lat.=21.624279, lon.=105.180099, Alt.=23.000748m. Speed=33.695999m/h.</desc>
<speed>9.360000</speed>
</trkpt>
<trkpt lat="21.625149" lon="105.180511">
<ele>27.7</ele>
<time>2011-04-29T06:15:30Z</time>
<desc>lat.=21.625149, lon.=105.180511, Alt.=13.309212m. Speed=37.188000m/h.</desc>
<speed>10.330000</speed>
</trkpt>
<trkpt lat="21.625399" lon="105.180901">
<ele>27.9</ele>
<time>2011-04-29T06:15:35Z</time>
<desc>lat.=21.625399, lon.=105.180901, Alt.=10.748665m. Speed=35.532001m/h.</desc>
<speed>9.870000</speed>
</trkpt>
<trkpt lat="21.625166" lon="105.182327">
<ele>26.9</ele>
<time>2011-04-29T06:15:50Z</time>
<desc>lat.=21.625166, lon.=105.182327, Alt.=3.945894m. Speed=37.007999m/h.</desc>
<speed>10.280000</speed>
</trkpt>
<trkpt lat="21.625973" lon="105.183578">
<ele>27.7</ele>
<time>2011-04-29T06:16:10Z</time>
<desc>lat.=21.625973, lon.=105.183578, Alt.=5.092228m. Speed=16.524000m/h.</desc>
<speed>4.590000</speed>
</trkpt>
<trkpt lat="21.625694" lon="105.184036">
<ele>25.7</ele>
<time>2011-04-29T06:16:45Z</time>
<desc>lat.=21.625694, lon.=105.184036, Alt.=9.392708m. Speed=23.327999m/h.</desc>
<speed>6.480000</speed>
</trkpt>
<trkpt lat="21.624184" lon="105.185280">
<ele>26.6</ele>
<time>2011-04-29T06:17:10Z</time>
<desc>lat.=21.624184, lon.=105.185280, Alt.=13.589241m. Speed=32.723999m/h.</desc>
<speed>9.090000</speed>
</trkpt>
<trkpt lat="21.622379" lon="105.186378">
<ele>27.8</ele>
<time>2011-04-29T06:17:35Z</time>
<desc>lat.=21.622379, lon.=105.186378, Alt.=13.243538m. Speed=24.516001m/h.</desc>
<speed>6.810000</speed>
</trkpt>
<trkpt lat="21.620707" lon="105.188225">
<ele>26.7</ele>
<time>2011-04-29T06:18:05Z</time>
<desc>lat.=21.620707, lon.=105.188225, Alt.=4.116398m. Speed=29.375999m/h.</desc>
<speed>8.160000</speed>
</trkpt>
<trkpt lat="21.620386" lon="105.188339">
<ele>25.6</ele>
<time>2011-04-29T06:18:10Z</time>
<desc>lat.=21.620386, lon.=105.188339, Alt.=5.783878m. Speed=26.784000m/h.</desc>
<speed>7.440000</speed>
</trkpt>
<trkpt lat="21.620049" lon="105.188187">
<ele>27.3</ele>
<time>2011-04-29T06:18:15Z</time>
<desc>lat.=21.620049, lon.=105.188187, Alt.=5.464664m. Speed=30.132000m/h.</desc>
<speed>8.370000</speed>
</trkpt>
<trkpt lat="21.617912" lon="105.186317">
<ele>24.0</ele>
<time>2011-04-29T06:18:45Z</time>
<desc>lat.=21.617912, lon.=105.186317, Alt.=10.259895m. Speed=35.172001m/h.</desc>
<speed>9.770000</speed>
</trkpt>
<trkpt lat="21.616629" lon="105.185844">
<ele>23.5</ele>
<time>2011-04-29T06:19:00Z</time>
<desc>lat.=21.616629, lon.=105.185844, Alt.=11.270882m. Speed=35.424000m/h.</desc>
<speed>9.840000</speed>
</trkpt>
<trkpt lat="21.614189" lon="105.184319">
<ele>26.6</ele>
<time>2011-04-29T06:19:35Z</time>
<desc>lat.=21.614189, lon.=105.184319, Alt.=7.039738m. Speed=27.468000m/h.</desc>
<speed>7.630000</speed>
</trkpt>
<trkpt lat="21.606970" lon="105.178841">
<ele>25.9</ele>
<time>2011-04-29T06:21:00Z</time>
<desc>lat.=21.606970, lon.=105.178841, Alt.=2.609041m. Speed=41.723999m/h.</desc>
<speed>11.590000</speed>
</trkpt>
<trkpt lat="21.606070" lon="105.178802">
<ele>24.7</ele>
<time>2011-04-29T06:21:10Z</time>
<desc>lat.=21.606070, lon.=105.178802, Alt.=1.497148m. Speed=36.504002m/h.</desc>
<speed>10.140000</speed>
</trkpt>
<trkpt lat="21.604031" lon="105.179405">
<ele>25.2</ele>
<time>2011-04-29T06:21:30Z</time>
<desc>lat.=21.604031, lon.=105.179405, Alt.=2.868563m. Speed=44.352001m/h.</desc>
<speed>12.320000</speed>
</trkpt>
<trkpt lat="21.602541" lon="105.180290">
<ele>25.2</ele>
<time>2011-04-29T06:21:45Z</time>
<desc>lat.=21.602541, lon.=105.180290, Alt.=-0.107656m. Speed=31.823999m/h.</desc>
<speed>8.840000</speed>
</trkpt>
<trkpt lat="21.600235" lon="105.182785">
<ele>26.3</ele>
<time>2011-04-29T06:22:20Z</time>
<desc>lat.=21.600235, lon.=105.182785, Alt.=-1.128251m. Speed=45.467999m/h.</desc>
<speed>12.630000</speed>
</trkpt>
<trkpt lat="21.596918" lon="105.185059">
<ele>25.7</ele>
<time>2011-04-29T06:22:55Z</time>
<desc>lat.=21.596918, lon.=105.185059, Alt.=1.865129m. Speed=42.731998m/h.</desc>
<speed>11.870000</speed>
</trkpt>
<trkpt lat="21.595776" lon="105.186478">
<ele>24.2</ele>
<time>2011-04-29T06:23:10Z</time>
<desc>lat.=21.595776, lon.=105.186478, Alt.=0.985833m. Speed=47.340000m/h.</desc>
<speed>13.150000</speed>
</trkpt>
<trkpt lat="21.593016" lon="105.189362">
<ele>23.2</ele>
<time>2011-04-29T06:23:45Z</time>
<desc>lat.=21.593016, lon.=105.189362, Alt.=-3.612337m. Speed=44.712002m/h.</desc>
<speed>12.420001</speed>
</trkpt>
<trkpt lat="21.592545" lon="105.189667">
<ele>21.9</ele>
<time>2011-04-29T06:23:50Z</time>
<desc>lat.=21.592545, lon.=105.189667, Alt.=-4.008610m. Speed=41.472000m/h.</desc>
<speed>11.520000</speed>
</trkpt>
<trkpt lat="21.591505" lon="105.189857">
<ele>24.1</ele>
<time>2011-04-29T06:24:00Z</time>
<desc>lat.=21.591505, lon.=105.189857, Alt.=-2.757479m. Speed=41.652000m/h.</desc>
<speed>11.570000</speed>
</trkpt>
<trkpt lat="21.590456" lon="105.189735">
<ele>24.9</ele>
<time>2011-04-29T06:24:10Z</time>
<desc>lat.=21.590456, lon.=105.189735, Alt.=-0.190111m. Speed=39.599998m/h.</desc>
<speed>11.000000</speed>
</trkpt>
<trkpt lat="21.589211" lon="105.188751">
<ele>20.0</ele>
<time>2011-04-29T06:24:25Z</time>
<desc>lat.=21.589211, lon.=105.188751, Alt.=0.864266m. Speed=44.532001m/h.</desc>
<speed>12.370000</speed>
</trkpt>
<trkpt lat="21.588646" lon="105.188606">
<ele>23.3</ele>
<time>2011-04-29T06:24:30Z</time>
<desc>lat.=21.588646, lon.=105.188606, Alt.=-0.370709m. Speed=46.764000m/h.</desc>
<speed>12.990000</speed>
</trkpt>
<trkpt lat="21.587053" lon="105.189415">
<ele>24.9</ele>
<time>2011-04-29T06:24:45Z</time>
<desc>lat.=21.587053, lon.=105.189415, Alt.=3.051668m. Speed=44.784000m/h.</desc>
<speed>12.440000</speed>
</trkpt>
<trkpt lat="21.584425" lon="105.190102">
<ele>20.2</ele>
<time>2011-04-29T06:25:10Z</time>
<desc>lat.=21.584425, lon.=105.190102, Alt.=1.089982m. Speed=47.916000m/h.</desc>
<speed>13.310000</speed>
</trkpt>
<trkpt lat="21.581932" lon="105.189705">
<ele>28.5</ele>
<time>2011-04-29T06:25:35Z</time>
<desc>lat.=21.581932, lon.=105.189705, Alt.=11.506233m. Speed=36.936001m/h.</desc>
<speed>10.260000</speed>
</trkpt>
<trkpt lat="21.581505" lon="105.189453">
<ele>30.3</ele>
<time>2011-04-29T06:25:40Z</time>
<desc>lat.=21.581505, lon.=105.189453, Alt.=14.677132m. Speed=40.535999m/h.</desc>
<speed>11.260000</speed>
</trkpt>
<trkpt lat="21.579838" lon="105.187508">
<ele>28.5</ele>
<time>2011-04-29T06:26:20Z</time>
<desc>lat.=21.579838, lon.=105.187508, Alt.=24.149673m. Speed=39.708000m/h.</desc>
<speed>11.030000</speed>
</trkpt>
<trkpt lat="21.578337" lon="105.186905">
<ele>23.9</ele>
<time>2011-04-29T06:26:35Z</time>
<desc>lat.=21.578337, lon.=105.186905, Alt.=21.172623m. Speed=47.736000m/h.</desc>
<speed>13.260000</speed>
</trkpt>
<trkpt lat="21.575830" lon="105.186935">
<ele>24.4</ele>
<time>2011-04-29T06:26:55Z</time>
<desc>lat.=21.575830, lon.=105.186935, Alt.=2.973604m. Speed=50.796001m/h.</desc>
<speed>14.110000</speed>
</trkpt>
<trkpt lat="21.575226" lon="105.187035">
<ele>25.4</ele>
<time>2011-04-29T06:27:00Z</time>
<desc>lat.=21.575226, lon.=105.187035, Alt.=2.052462m. Speed=48.348000m/h.</desc>
<speed>13.430000</speed>
</trkpt>
<trkpt lat="21.574144" lon="105.187538">
<ele>27.8</ele>
<time>2011-04-29T06:27:10Z</time>
<desc>lat.=21.574144, lon.=105.187538, Alt.=2.051363m. Speed=44.568001m/h.</desc>
<speed>12.380000</speed>
</trkpt>
<trkpt lat="21.572512" lon="105.187836">
<ele>27.8</ele>
<time>2011-04-29T06:27:25Z</time>
<desc>lat.=21.572512, lon.=105.187836, Alt.=1.974198m. Speed=46.116001m/h.</desc>
<speed>12.810000</speed>
</trkpt>
<trkpt lat="21.571386" lon="105.187744">
<ele>27.3</ele>
<time>2011-04-29T06:27:35Z</time>
<desc>lat.=21.571386, lon.=105.187744, Alt.=2.839510m. Speed=42.624001m/h.</desc>
<speed>11.840000</speed>
</trkpt>
<trkpt lat="21.566696" lon="105.186821">
<ele>31.2</ele>
<time>2011-04-29T06:29:20Z</time>
<desc>lat.=21.566696, lon.=105.186821, Alt.=15.656380m. Speed=44.172001m/h.</desc>
<speed>12.270000</speed>
</trkpt>
<trkpt lat="21.564426" lon="105.187225">
<ele>34.4</ele>
<time>2011-04-29T06:29:40Z</time>
<desc>lat.=21.564426, lon.=105.187225, Alt.=8.805061m. Speed=50.832001m/h.</desc>
<speed>14.120000</speed>
</trkpt>
<trkpt lat="21.562597" lon="105.187820">
<ele>36.5</ele>
<time>2011-04-29T06:29:55Z</time>
<desc>lat.=21.562597, lon.=105.187820, Alt.=7.490788m. Speed=51.911999m/h.</desc>
<speed>14.420000</speed>
</trkpt>
<trkpt lat="21.561232" lon="105.187828">
<ele>41.9</ele>
<time>2011-04-29T06:30:05Z</time>
<desc>lat.=21.561232, lon.=105.187828, Alt.=10.994514m. Speed=50.939999m/h.</desc>
<speed>14.150000</speed>
</trkpt>
<trkpt lat="21.560701" lon="105.188087">
<ele>47.3</ele>
<time>2011-04-29T06:30:10Z</time>
<desc>lat.=21.560701, lon.=105.188087, Alt.=13.561165m. Speed=44.136002m/h.</desc>
<speed>12.260000</speed>
</trkpt>
<trkpt lat="21.559410" lon="105.189415">
<ele>47.8</ele>
<time>2011-04-29T06:30:25Z</time>
<desc>lat.=21.559410, lon.=105.189415, Alt.=22.767838m. Speed=51.515999m/h.</desc>
<speed>14.310000</speed>
</trkpt>
<trkpt lat="21.558207" lon="105.190216">
<ele>41.2</ele>
<time>2011-04-29T06:30:35Z</time>
<desc>lat.=21.558207, lon.=105.190216, Alt.=21.018326m. Speed=55.908001m/h.</desc>
<speed>15.530000</speed>
</trkpt>
<trkpt lat="21.556240" lon="105.192841">
<ele>45.4</ele>
<time>2011-04-29T06:30:55Z</time>
<desc>lat.=21.556240, lon.=105.192841, Alt.=18.039810m. Speed=47.700001m/h.</desc>
<speed>13.250000</speed>
</trkpt>
<trkpt lat="21.555643" lon="105.193031">
<ele>44.7</ele>
<time>2011-04-29T06:31:00Z</time>
<desc>lat.=21.555643, lon.=105.193031, Alt.=17.674576m. Speed=53.784000m/h.</desc>
<speed>14.940000</speed>
</trkpt>
<trkpt lat="21.552864" lon="105.193169">
<ele>46.3</ele>
<time>2011-04-29T06:31:20Z</time>
<desc>lat.=21.552864, lon.=105.193169, Alt.=20.055435m. Speed=55.655998m/h.</desc>
<speed>15.460000</speed>
</trkpt>
<trkpt lat="21.551489" lon="105.193710">
<ele>36.6</ele>
<time>2011-04-29T06:31:30Z</time>
<desc>lat.=21.551489, lon.=105.193710, Alt.=20.127213m. Speed=54.827999m/h.</desc>
<speed>15.230000</speed>
</trkpt>
<trkpt lat="21.550814" lon="105.193794">
<ele>37.7</ele>
<time>2011-04-29T06:31:35Z</time>
<desc>lat.=21.550814, lon.=105.193794, Alt.=20.281998m. Speed=54.936001m/h.</desc>
<speed>15.260000</speed>
</trkpt>
<trkpt lat="21.548147" lon="105.193245">
<ele>59.1</ele>
<time>2011-04-29T06:31:55Z</time>
<desc>lat.=21.548147, lon.=105.193245, Alt.=20.573990m. Speed=50.976002m/h.</desc>
<speed>14.160000</speed>
</trkpt>
<trkpt lat="21.547031" lon="105.192451">
<ele>61.3</ele>
<time>2011-04-29T06:32:05Z</time>
<desc>lat.=21.547031, lon.=105.192451, Alt.=25.701920m. Speed=53.279999m/h.</desc>
<speed>14.800000</speed>
</trkpt>
<trkpt lat="21.546425" lon="105.192207">
<ele>64.6</ele>
<time>2011-04-29T06:32:10Z</time>
<desc>lat.=21.546425, lon.=105.192207, Alt.=28.059830m. Speed=49.535999m/h.</desc>
<speed>13.760000</speed>
</trkpt>
<trkpt lat="21.545084" lon="105.192474">
<ele>48.9</ele>
<time>2011-04-29T06:32:20Z</time>
<desc>lat.=21.545084, lon.=105.192474, Alt.=30.782486m. Speed=58.860001m/h.</desc>
<speed>16.350000</speed>
</trkpt>
<trkpt lat="21.543060" lon="105.193451">
<ele>42.9</ele>
<time>2011-04-29T06:32:35Z</time>
<desc>lat.=21.543060, lon.=105.193451, Alt.=30.120377m. Speed=55.259998m/h.</desc>
<speed>15.350000</speed>
</trkpt>
<trkpt lat="21.540943" lon="105.194153">
<ele>44.1</ele>
<time>2011-04-29T06:32:50Z</time>
<desc>lat.=21.540943, lon.=105.194153, Alt.=27.638931m. Speed=52.883999m/h.</desc>
<speed>14.690000</speed>
</trkpt>
<trkpt lat="21.540529" lon="105.194649">
<ele>40.7</ele>
<time>2011-04-29T06:32:55Z</time>
<desc>lat.=21.540529, lon.=105.194649, Alt.=27.960709m. Speed=49.680000m/h.</desc>
<speed>13.800000</speed>
</trkpt>
<trkpt lat="21.539595" lon="105.198006">
<ele>38.5</ele>
<time>2011-04-29T06:33:30Z</time>
<desc>lat.=21.539595, lon.=105.198006, Alt.=36.691925m. Speed=39.995998m/h.</desc>
<speed>11.110000</speed>
</trkpt>
<trkpt lat="21.539118" lon="105.199005">
<ele>39.0</ele>
<time>2011-04-29T06:33:40Z</time>
<desc>lat.=21.539118, lon.=105.199005, Alt.=34.052277m. Speed=46.799999m/h.</desc>
<speed>13.000000</speed>
</trkpt>
<trkpt lat="21.537542" lon="105.200272">
<ele>35.2</ele>
<time>2011-04-29T06:33:55Z</time>
<desc>lat.=21.537542, lon.=105.200272, Alt.=19.796646m. Speed=54.216000m/h.</desc>
<speed>15.060000</speed>
</trkpt>
<trkpt lat="21.535851" lon="105.201134">
<ele>41.8</ele>
<time>2011-04-29T06:34:10Z</time>
<desc>lat.=21.535851, lon.=105.201134, Alt.=18.119400m. Speed=45.071999m/h.</desc>
<speed>12.520000</speed>
</trkpt>
<trkpt lat="21.533545" lon="105.203979">
<ele>33.3</ele>
<time>2011-04-29T06:34:40Z</time>
<desc>lat.=21.533545, lon.=105.203979, Alt.=12.220345m. Speed=48.852001m/h.</desc>
<speed>13.570000</speed>
</trkpt>
<trkpt lat="21.531485" lon="105.205513">
<ele>31.4</ele>
<time>2011-04-29T06:35:00Z</time>
<desc>lat.=21.531485, lon.=105.205513, Alt.=12.700325m. Speed=44.459999m/h.</desc>
<speed>12.350000</speed>
</trkpt>
<trkpt lat="21.530136" lon="105.206734">
<ele>31.3</ele>
<time>2011-04-29T06:35:15Z</time>
<desc>lat.=21.530136, lon.=105.206734, Alt.=15.110237m. Speed=48.383999m/h.</desc>
<speed>13.440000</speed>
</trkpt>
<trkpt lat="21.529615" lon="105.207024">
<ele>30.6</ele>
<time>2011-04-29T06:35:20Z</time>
<desc>lat.=21.529615, lon.=105.207024, Alt.=15.376106m. Speed=46.799999m/h.</desc>
<speed>13.000000</speed>
</trkpt>
<trkpt lat="21.529070" lon="105.207077">
<ele>31.1</ele>
<time>2011-04-29T06:35:25Z</time>
<desc>lat.=21.529070, lon.=105.207077, Alt.=12.764778m. Speed=43.271999m/h.</desc>
<speed>12.020000</speed>
</trkpt>
<trkpt lat="21.528534" lon="105.206879">
<ele>34.9</ele>
<time>2011-04-29T06:35:30Z</time>
<desc>lat.=21.528534, lon.=105.206879, Alt.=11.596565m. Speed=45.360001m/h.</desc>
<speed>12.600000</speed>
</trkpt>
<trkpt lat="21.525604" lon="105.203651">
<ele>43.9</ele>
<time>2011-04-29T06:36:05Z</time>
<desc>lat.=21.525604, lon.=105.203651, Alt.=20.688736m. Speed=46.368000m/h.</desc>
<speed>12.880000</speed>
</trkpt>
<trkpt lat="21.523855" lon="105.203224">
<ele>41.0</ele>
<time>2011-04-29T06:36:20Z</time>
<desc>lat.=21.523855, lon.=105.203224, Alt.=23.744400m. Speed=44.495998m/h.</desc>
<speed>12.360000</speed>
</trkpt>
<trkpt lat="21.522526" lon="105.202301">
<ele>41.3</ele>
<time>2011-04-29T06:36:35Z</time>
<desc>lat.=21.522526, lon.=105.202301, Alt.=27.488541m. Speed=41.363998m/h.</desc>
<speed>11.490000</speed>
</trkpt>
<trkpt lat="21.522032" lon="105.202248">
<ele>40.5</ele>
<time>2011-04-29T06:36:40Z</time>
<desc>lat.=21.522032, lon.=105.202248, Alt.=21.452896m. Speed=41.580002m/h.</desc>
<speed>11.550001</speed>
</trkpt>
<trkpt lat="21.521503" lon="105.202431">
<ele>39.5</ele>
<time>2011-04-29T06:36:45Z</time>
<desc>lat.=21.521503, lon.=105.202431, Alt.=19.219498m. Speed=45.972000m/h.</desc>
<speed>12.770000</speed>
</trkpt>
<trkpt lat="21.520544" lon="105.203285">
<ele>36.3</ele>
<time>2011-04-29T06:36:55Z</time>
<desc>lat.=21.520544, lon.=105.203285, Alt.=16.999283m. Speed=49.751999m/h.</desc>
<speed>13.820000</speed>
</trkpt>
<trkpt lat="21.519981" lon="105.203590">
<ele>37.2</ele>
<time>2011-04-29T06:37:00Z</time>
<desc>lat.=21.519981, lon.=105.203590, Alt.=16.388931m. Speed=51.660000m/h.</desc>
<speed>14.350000</speed>
</trkpt>
<trkpt lat="21.519352" lon="105.203514">
<ele>34.5</ele>
<time>2011-04-29T06:37:05Z</time>
<desc>lat.=21.519352, lon.=105.203514, Alt.=16.198990m. Speed=49.860001m/h.</desc>
<speed>13.850000</speed>
</trkpt>
<trkpt lat="21.518150" lon="105.203003">
<ele>42.3</ele>
<time>2011-04-29T06:37:15Z</time>
<desc>lat.=21.518150, lon.=105.203003, Alt.=16.411880m. Speed=52.200001m/h.</desc>
<speed>14.500000</speed>
</trkpt>
<trkpt lat="21.517527" lon="105.202972">
<ele>42.4</ele>
<time>2011-04-29T06:37:20Z</time>
<desc>lat.=21.517527, lon.=105.202972, Alt.=14.483284m. Speed=45.936001m/h.</desc>
<speed>12.760000</speed>
</trkpt>
<trkpt lat="21.517017" lon="105.203194">
<ele>39.0</ele>
<time>2011-04-29T06:37:25Z</time>
<desc>lat.=21.517017, lon.=105.203194, Alt.=17.495377m. Speed=43.487999m/h.</desc>
<speed>12.080000</speed>
</trkpt>
<trkpt lat="21.514946" lon="105.204735">
<ele>42.4</ele>
<time>2011-04-29T06:37:45Z</time>
<desc>lat.=21.514946, lon.=105.204735, Alt.=29.693619m. Speed=51.084000m/h.</desc>
<speed>14.190000</speed>
</trkpt>
<trkpt lat="21.513531" lon="105.207657">
<ele>47.2</ele>
<time>2011-04-29T06:38:10Z</time>
<desc>lat.=21.513531, lon.=105.207657, Alt.=35.398956m. Speed=48.959999m/h.</desc>
<speed>13.600000</speed>
</trkpt>
<trkpt lat="21.513046" lon="105.209473">
<ele>55.9</ele>
<time>2011-04-29T06:38:25Z</time>
<desc>lat.=21.513046, lon.=105.209473, Alt.=37.532745m. Speed=45.576000m/h.</desc>
<speed>12.660000</speed>
</trkpt>
<trkpt lat="21.512320" lon="105.210480">
<ele>55.3</ele>
<time>2011-04-29T06:38:35Z</time>
<desc>lat.=21.512320, lon.=105.210480, Alt.=40.162628m. Speed=42.515999m/h.</desc>
<speed>11.810000</speed>
</trkpt>
<trkpt lat="21.511824" lon="105.211494">
<ele>52.4</ele>
<time>2011-04-29T06:38:45Z</time>
<desc>lat.=21.511824, lon.=105.211494, Alt.=42.842316m. Speed=38.088001m/h.</desc>
<speed>10.580000</speed>
</trkpt>
<trkpt lat="21.510973" lon="105.212120">
<ele>57.1</ele>
<time>2011-04-29T06:38:55Z</time>
<desc>lat.=21.510973, lon.=105.212120, Alt.=45.916534m. Speed=42.875999m/h.</desc>
<speed>11.910000</speed>
</trkpt>
<trkpt lat="21.508093" lon="105.213448">
<ele>53.9</ele>
<time>2011-04-29T06:39:20Z</time>
<desc>lat.=21.508093, lon.=105.213448, Alt.=55.468292m. Speed=62.495998m/h.</desc>
<speed>17.360000</speed>
</trkpt>
<trkpt lat="21.505762" lon="105.213692">
<ele>52.3</ele>
<time>2011-04-29T06:39:35Z</time>
<desc>lat.=21.505762, lon.=105.213692, Alt.=43.475128m. Speed=59.472000m/h.</desc>
<speed>16.520000</speed>
</trkpt>
<trkpt lat="21.504339" lon="105.213684">
<ele>46.5</ele>
<time>2011-04-29T06:39:45Z</time>
<desc>lat.=21.504339, lon.=105.213684, Alt.=37.914581m. Speed=56.304001m/h.</desc>
<speed>15.640000</speed>
</trkpt>
<trkpt lat="21.503668" lon="105.213982">
<ele>48.3</ele>
<time>2011-04-29T06:39:50Z</time>
<desc>lat.=21.503668, lon.=105.213982, Alt.=36.200714m. Speed=57.348000m/h.</desc>
<speed>15.930000</speed>
</trkpt>
<trkpt lat="21.503149" lon="105.214508">
<ele>50.2</ele>
<time>2011-04-29T06:39:55Z</time>
<desc>lat.=21.503149, lon.=105.214508, Alt.=34.396027m. Speed=57.708000m/h.</desc>
<speed>16.030000</speed>
</trkpt>
<trkpt lat="21.502504" lon="105.215706">
<ele>46.2</ele>
<time>2011-04-29T06:40:05Z</time>
<desc>lat.=21.502504, lon.=105.215706, Alt.=30.983658m. Speed=35.891998m/h.</desc>
<speed>9.970000</speed>
</trkpt>
<trkpt lat="21.502220" lon="105.216545">
<ele>44.4</ele>
<time>2011-04-29T06:40:15Z</time>
<desc>lat.=21.502220, lon.=105.216545, Alt.=22.581802m. Speed=36.612000m/h.</desc>
<speed>10.170000</speed>
</trkpt>
<trkpt lat="21.502138" lon="105.217712">
<ele>41.7</ele>
<time>2011-04-29T06:40:25Z</time>
<desc>lat.=21.502138, lon.=105.217712, Alt.=24.353775m. Speed=46.476002m/h.</desc>
<speed>12.910000</speed>
</trkpt>
<trkpt lat="21.501930" lon="105.218330">
<ele>39.6</ele>
<time>2011-04-29T06:40:30Z</time>
<desc>lat.=21.501930, lon.=105.218330, Alt.=23.679947m. Speed=51.012001m/h.</desc>
<speed>14.170000</speed>
</trkpt>
<trkpt lat="21.501457" lon="105.218819">
<ele>42.0</ele>
<time>2011-04-29T06:40:35Z</time>
<desc>lat.=21.501457, lon.=105.218819, Alt.=22.911880m. Speed=51.695999m/h.</desc>
<speed>14.360000</speed>
</trkpt>
<trkpt lat="21.498507" lon="105.220482">
<ele>37.4</ele>
<time>2011-04-29T06:41:00Z</time>
<desc>lat.=21.498507, lon.=105.220482, Alt.=22.759537m. Speed=55.619999m/h.</desc>
<speed>15.450000</speed>
</trkpt>
<trkpt lat="21.496540" lon="105.222290">
<ele>46.7</ele>
<time>2011-04-29T06:41:20Z</time>
<desc>lat.=21.496540, lon.=105.222290, Alt.=17.459732m. Speed=44.964001m/h.</desc>
<speed>12.490000</speed>
</trkpt>
<trkpt lat="21.494823" lon="105.222397">
<ele>48.9</ele>
<time>2011-04-29T06:41:35Z</time>
<desc>lat.=21.494823, lon.=105.222397, Alt.=23.311783m. Speed=48.528000m/h.</desc>
<speed>13.480000</speed>
</trkpt>
<trkpt lat="21.494305" lon="105.222694">
<ele>43.3</ele>
<time>2011-04-29T06:41:40Z</time>
<desc>lat.=21.494305, lon.=105.222694, Alt.=23.422623m. Speed=45.216000m/h.</desc>
<speed>12.560000</speed>
</trkpt>
<trkpt lat="21.493067" lon="105.224609">
<ele>43.1</ele>
<time>2011-04-29T06:42:00Z</time>
<desc>lat.=21.493067, lon.=105.224609, Alt.=28.160416m. Speed=38.664001m/h.</desc>
<speed>10.740000</speed>
</trkpt>
<trkpt lat="21.492645" lon="105.224937">
<ele>41.1</ele>
<time>2011-04-29T06:42:05Z</time>
<desc>lat.=21.492645, lon.=105.224937, Alt.=27.345963m. Speed=43.703999m/h.</desc>
<speed>12.140000</speed>
</trkpt>
<trkpt lat="21.490580" lon="105.225761">
<ele>46.5</ele>
<time>2011-04-29T06:42:25Z</time>
<desc>lat.=21.490580, lon.=105.225761, Alt.=24.689713m. Speed=43.812000m/h.</desc>
<speed>12.170000</speed>
</trkpt>
<trkpt lat="21.489178" lon="105.225624">
<ele>53.4</ele>
<time>2011-04-29T06:42:40Z</time>
<desc>lat.=21.489178, lon.=105.225624, Alt.=23.817154m. Speed=37.835999m/h.</desc>
<speed>10.510000</speed>
</trkpt>
<trkpt lat="21.487099" lon="105.227089">
<ele>55.9</ele>
<time>2011-04-29T06:43:05Z</time>
<desc>lat.=21.487099, lon.=105.227089, Alt.=30.901627m. Speed=39.456001m/h.</desc>
<speed>10.960000</speed>
</trkpt>
<trkpt lat="21.486605" lon="105.227219">
<ele>59.1</ele>
<time>2011-04-29T06:43:10Z</time>
<desc>lat.=21.486605, lon.=105.227219, Alt.=36.705597m. Speed=41.939999m/h.</desc>
<speed>11.650000</speed>
</trkpt>
<trkpt lat="21.484919" lon="105.226913">
<ele>55.2</ele>
<time>2011-04-29T06:43:25Z</time>
<desc>lat.=21.484919, lon.=105.226913, Alt.=38.498566m. Speed=48.240002m/h.</desc>
<speed>13.400000</speed>
</trkpt>
<trkpt lat="21.481333" lon="105.228020">
<ele>57.9</ele>
<time>2011-04-29T06:43:55Z</time>
<desc>lat.=21.481333, lon.=105.228020, Alt.=33.955597m. Speed=48.888000m/h.</desc>
<speed>13.580000</speed>
</trkpt>
<trkpt lat="21.480234" lon="105.228653">
<ele>53.8</ele>
<time>2011-04-29T06:44:05Z</time>
<desc>lat.=21.480234, lon.=105.228653, Alt.=33.187042m. Speed=49.967999m/h.</desc>
<speed>13.880000</speed>
</trkpt>
<trkpt lat="21.479021" lon="105.230179">
<ele>56.3</ele>
<time>2011-04-29T06:44:20Z</time>
<desc>lat.=21.479021, lon.=105.230179, Alt.=32.836456m. Speed=49.284000m/h.</desc>
<speed>13.690000</speed>
</trkpt>
<trkpt lat="21.478521" lon="105.230560">
<ele>50.6</ele>
<time>2011-04-29T06:44:25Z</time>
<desc>lat.=21.478521, lon.=105.230560, Alt.=27.756119m. Speed=49.860001m/h.</desc>
<speed>13.850000</speed>
</trkpt>
<trkpt lat="21.477398" lon="105.230927">
<ele>52.3</ele>
<time>2011-04-29T06:44:35Z</time>
<desc>lat.=21.477398, lon.=105.230927, Alt.=25.300064m. Speed=40.860001m/h.</desc>
<speed>11.350000</speed>
</trkpt>
<trkpt lat="21.476336" lon="105.231232">
<ele>48.9</ele>
<time>2011-04-29T06:44:45Z</time>
<desc>lat.=21.476336, lon.=105.231232, Alt.=24.779556m. Speed=46.799999m/h.</desc>
<speed>13.000000</speed>
</trkpt>
<trkpt lat="21.472408" lon="105.231483">
<ele>55.0</ele>
<time>2011-04-29T06:45:15Z</time>
<desc>lat.=21.472408, lon.=105.231483, Alt.=27.300064m. Speed=46.403999m/h.</desc>
<speed>12.890000</speed>
</trkpt>
<trkpt lat="21.471916" lon="105.231812">
<ele>54.3</ele>
<time>2011-04-29T06:45:20Z</time>
<desc>lat.=21.471916, lon.=105.231812, Alt.=29.314713m. Speed=42.804001m/h.</desc>
<speed>11.890000</speed>
</trkpt>
<trkpt lat="21.471621" lon="105.232300">
<ele>56.4</ele>
<time>2011-04-29T06:45:25Z</time>
<desc>lat.=21.471621, lon.=105.232300, Alt.=30.710220m. Speed=44.855999m/h.</desc>
<speed>12.460000</speed>
</trkpt>
<trkpt lat="21.471411" lon="105.234314">
<ele>53.8</ele>
<time>2011-04-29T06:45:40Z</time>
<desc>lat.=21.471411, lon.=105.234314, Alt.=28.245865m. Speed=51.299999m/h.</desc>
<speed>14.250000</speed>
</trkpt>
<trkpt lat="21.471121" lon="105.234833">
<ele>49.7</ele>
<time>2011-04-29T06:45:45Z</time>
<desc>lat.=21.471121, lon.=105.234833, Alt.=27.967545m. Speed=41.076000m/h.</desc>
<speed>11.410000</speed>
</trkpt>
<trkpt lat="21.466312" lon="105.240051">
<ele>42.2</ele>
<time>2011-04-29T06:47:10Z</time>
<desc>lat.=21.466312, lon.=105.240051, Alt.=28.068130m. Speed=46.655998m/h.</desc>
<speed>12.960000</speed>
</trkpt>
<trkpt lat="21.462666" lon="105.240181">
<ele>38.5</ele>
<time>2011-04-29T06:47:35Z</time>
<desc>lat.=21.462666, lon.=105.240181, Alt.=24.658463m. Speed=59.147999m/h.</desc>
<speed>16.430000</speed>
</trkpt>
<trkpt lat="21.456156" lon="105.241814">
<ele>37.3</ele>
<time>2011-04-29T06:48:25Z</time>
<desc>lat.=21.456156, lon.=105.241814, Alt.=20.308853m. Speed=48.672001m/h.</desc>
<speed>13.520000</speed>
</trkpt>
<trkpt lat="21.455118" lon="105.242828">
<ele>35.7</ele>
<time>2011-04-29T06:48:40Z</time>
<desc>lat.=21.455118, lon.=105.242828, Alt.=13.834602m. Speed=31.427999m/h.</desc>
<speed>8.730000</speed>
</trkpt>
<trkpt lat="21.453014" lon="105.244423">
<ele>38.3</ele>
<time>2011-04-29T06:49:05Z</time>
<desc>lat.=21.453014, lon.=105.244423, Alt.=10.519417m. Speed=41.472000m/h.</desc>
<speed>11.520000</speed>
</trkpt>
<trkpt lat="21.447687" lon="105.246765">
<ele>32.0</ele>
<time>2011-04-29T06:50:15Z</time>
<desc>lat.=21.447687, lon.=105.246765, Alt.=22.393814m. Speed=45.504002m/h.</desc>
<speed>12.640000</speed>
</trkpt>
<trkpt lat="21.446280" lon="105.248192">
<ele>35.5</ele>
<time>2011-04-29T06:50:30Z</time>
<desc>lat.=21.446280, lon.=105.248192, Alt.=19.281021m. Speed=47.231998m/h.</desc>
<speed>13.120000</speed>
</trkpt>
<trkpt lat="21.444948" lon="105.250549">
<ele>36.6</ele>
<time>2011-04-29T06:50:50Z</time>
<desc>lat.=21.444948, lon.=105.250549, Alt.=21.056412m. Speed=48.995998m/h.</desc>
<speed>13.610000</speed>
</trkpt>
<trkpt lat="21.443165" lon="105.252563">
<ele>38.8</ele>
<time>2011-04-29T06:51:10Z</time>
<desc>lat.=21.443165, lon.=105.252563, Alt.=18.115494m. Speed=51.695999m/h.</desc>
<speed>14.360000</speed>
</trkpt>
<trkpt lat="21.440004" lon="105.254753">
<ele>42.2</ele>
<time>2011-04-29T06:51:40Z</time>
<desc>lat.=21.440004, lon.=105.254753, Alt.=24.866959m. Speed=48.203999m/h.</desc>
<speed>13.390000</speed>
</trkpt>
<trkpt lat="21.436346" lon="105.256073">
<ele>39.9</ele>
<time>2011-04-29T06:52:15Z</time>
<desc>lat.=21.436346, lon.=105.256073, Alt.=32.374542m. Speed=43.919998m/h.</desc>
<speed>12.199999</speed>
</trkpt>
<trkpt lat="21.434227" lon="105.257698">
<ele>35.1</ele>
<time>2011-04-29T06:52:45Z</time>
<desc>lat.=21.434227, lon.=105.257698, Alt.=25.434341m. Speed=31.500000m/h.</desc>
<speed>8.750000</speed>
</trkpt>
<trkpt lat="21.433949" lon="105.258064">
<ele>33.6</ele>
<time>2011-04-29T06:52:50Z</time>
<desc>lat.=21.433949, lon.=105.258064, Alt.=20.808853m. Speed=37.080002m/h.</desc>
<speed>10.300001</speed>
</trkpt>
<trkpt lat="21.433826" lon="105.258568">
<ele>33.2</ele>
<time>2011-04-29T06:52:55Z</time>
<desc>lat.=21.433826, lon.=105.258568, Alt.=18.046646m. Speed=40.355999m/h.</desc>
<speed>11.210000</speed>
</trkpt>
<trkpt lat="21.434010" lon="105.259567">
<ele>28.8</ele>
<time>2011-04-29T06:53:05Z</time>
<desc>lat.=21.434010, lon.=105.259567, Alt.=19.365005m. Speed=31.068001m/h.</desc>
<speed>8.630000</speed>
</trkpt>
<trkpt lat="21.433975" lon="105.260231">
<ele>29.9</ele>
<time>2011-04-29T06:53:15Z</time>
<desc>lat.=21.433975, lon.=105.260231, Alt.=24.493423m. Speed=30.996000m/h.</desc>
<speed>8.610000</speed>
</trkpt>
<trkpt lat="21.433167" lon="105.262344">
<ele>33.5</ele>
<time>2011-04-29T06:53:40Z</time>
<desc>lat.=21.433167, lon.=105.262344, Alt.=32.521027m. Speed=29.232000m/h.</desc>
<speed>8.120000</speed>
</trkpt>
<trkpt lat="21.433327" lon="105.263123">
<ele>34.5</ele>
<time>2011-04-29T06:53:50Z</time>
<desc>lat.=21.433327, lon.=105.263123, Alt.=32.660675m. Speed=35.352001m/h.</desc>
<speed>9.820000</speed>
</trkpt>
<trkpt lat="21.435303" lon="105.265045">
<ele>37.1</ele>
<time>2011-04-29T06:54:20Z</time>
<desc>lat.=21.435303, lon.=105.265045, Alt.=32.462433m. Speed=35.459999m/h.</desc>
<speed>9.850000</speed>
</trkpt>
<trkpt lat="21.435814" lon="105.265785">
<ele>35.7</ele>
<time>2011-04-29T06:54:30Z</time>
<desc>lat.=21.435814, lon.=105.265785, Alt.=31.878677m. Speed=34.812000m/h.</desc>
<speed>9.670000</speed>
</trkpt>
<trkpt lat="21.436924" lon="105.268013">
<ele>35.6</ele>
<time>2011-04-29T06:54:55Z</time>
<desc>lat.=21.436924, lon.=105.268013, Alt.=41.785675m. Speed=36.612000m/h.</desc>
<speed>10.170000</speed>
</trkpt>
<trkpt lat="21.437429" lon="105.270592">
<ele>42.2</ele>
<time>2011-04-29T06:55:20Z</time>
<desc>lat.=21.437429, lon.=105.270592, Alt.=41.355011m. Speed=45.071999m/h.</desc>
<speed>12.520000</speed>
</trkpt>
<trkpt lat="21.437820" lon="105.271049">
<ele>43.3</ele>
<time>2011-04-29T06:55:25Z</time>
<desc>lat.=21.437820, lon.=105.271049, Alt.=42.106964m. Speed=46.368000m/h.</desc>
<speed>12.880000</speed>
</trkpt>
<trkpt lat="21.439047" lon="105.271820">
<ele>48.5</ele>
<time>2011-04-29T06:55:40Z</time>
<desc>lat.=21.439047, lon.=105.271820, Alt.=43.701691m. Speed=37.116001m/h.</desc>
<speed>10.310000</speed>
</trkpt>
<trkpt lat="21.439751" lon="105.272621">
<ele>47.8</ele>
<time>2011-04-29T06:55:50Z</time>
<desc>lat.=21.439751, lon.=105.272621, Alt.=40.703644m. Speed=47.844002m/h.</desc>
<speed>13.290000</speed>
</trkpt>
<trkpt lat="21.441448" lon="105.273796">
<ele>47.3</ele>
<time>2011-04-29T06:56:05Z</time>
<desc>lat.=21.441448, lon.=105.273796, Alt.=36.063995m. Speed=56.771999m/h.</desc>
<speed>15.770000</speed>
</trkpt>
<trkpt lat="21.442198" lon="105.275177">
<ele>43.9</ele>
<time>2011-04-29T06:56:15Z</time>
<desc>lat.=21.442198, lon.=105.275177, Alt.=36.447784m. Speed=61.487999m/h.</desc>
<speed>17.080000</speed>
</trkpt>
<trkpt lat="21.442427" lon="105.275986">
<ele>38.5</ele>
<time>2011-04-29T06:56:20Z</time>
<desc>lat.=21.442427, lon.=105.275986, Alt.=31.389908m. Speed=61.812000m/h.</desc>
<speed>17.170000</speed>
</trkpt>
<trkpt lat="21.441710" lon="105.279022">
<ele>36.8</ele>
<time>2011-04-29T06:56:40Z</time>
<desc>lat.=21.441710, lon.=105.279022, Alt.=28.619888m. Speed=54.000000m/h.</desc>
<speed>15.000000</speed>
</trkpt>
<trkpt lat="21.442049" lon="105.279648">
<ele>38.2</ele>
<time>2011-04-29T06:56:45Z</time>
<desc>lat.=21.442049, lon.=105.279648, Alt.=29.215103m. Speed=54.720001m/h.</desc>
<speed>15.200000</speed>
</trkpt>
<trkpt lat="21.443144" lon="105.280754">
<ele>35.6</ele>
<time>2011-04-29T06:56:55Z</time>
<desc>lat.=21.443144, lon.=105.280754, Alt.=32.062042m. Speed=62.604000m/h.</desc>
<speed>17.390000</speed>
</trkpt>
<trkpt lat="21.443424" lon="105.282448">
<ele>42.3</ele>
<time>2011-04-29T06:57:05Z</time>
<desc>lat.=21.443424, lon.=105.282448, Alt.=32.599152m. Speed=64.800003m/h.</desc>
<speed>18.000001</speed>
</trkpt>
<trkpt lat="21.443289" lon="105.283264">
<ele>47.9</ele>
<time>2011-04-29T06:57:10Z</time>
<desc>lat.=21.443289, lon.=105.283264, Alt.=35.080597m. Speed=61.271999m/h.</desc>
<speed>17.020000</speed>
</trkpt>
<trkpt lat="21.441906" lon="105.285027">
<ele>47.9</ele>
<time>2011-04-29T06:57:25Z</time>
<desc>lat.=21.441906, lon.=105.285027, Alt.=40.152863m. Speed=52.127998m/h.</desc>
<speed>14.480000</speed>
</trkpt>
<trkpt lat="21.440985" lon="105.285767">
<ele>49.0</ele>
<time>2011-04-29T06:57:35Z</time>
<desc>lat.=21.440985, lon.=105.285767, Alt.=42.741730m. Speed=41.363998m/h.</desc>
<speed>11.490000</speed>
</trkpt>
<trkpt lat="21.439034" lon="105.286491">
<ele>46.0</ele>
<time>2011-04-29T06:57:55Z</time>
<desc>lat.=21.439034, lon.=105.286491, Alt.=50.709503m. Speed=37.908001m/h.</desc>
<speed>10.530000</speed>
</trkpt>
<trkpt lat="21.438700" lon="105.286835">
<ele>46.2</ele>
<time>2011-04-29T06:58:00Z</time>
<desc>lat.=21.438700, lon.=105.286835, Alt.=49.189972m. Speed=39.563999m/h.</desc>
<speed>10.990000</speed>
</trkpt>
<trkpt lat="21.436739" lon="105.290306">
<ele>48.2</ele>
<time>2011-04-29T06:58:40Z</time>
<desc>lat.=21.436739, lon.=105.290306, Alt.=45.905792m. Speed=37.116001m/h.</desc>
<speed>10.310000</speed>
</trkpt>
<trkpt lat="21.436241" lon="105.291023">
<ele>49.8</ele>
<time>2011-04-29T06:58:50Z</time>
<desc>lat.=21.436241, lon.=105.291023, Alt.=45.180206m. Speed=33.299999m/h.</desc>
<speed>9.250000</speed>
</trkpt>
<trkpt lat="21.435881" lon="105.291283">
<ele>51.2</ele>
<time>2011-04-29T06:58:55Z</time>
<desc>lat.=21.435881, lon.=105.291283, Alt.=45.211456m. Speed=35.279999m/h.</desc>
<speed>9.800000</speed>
</trkpt>
<trkpt lat="21.435421" lon="105.291267">
<ele>47.9</ele>
<time>2011-04-29T06:59:00Z</time>
<desc>lat.=21.435421, lon.=105.291267, Alt.=44.957550m. Speed=36.900002m/h.</desc>
<speed>10.250000</speed>
</trkpt>
<trkpt lat="21.433533" lon="105.290665">
<ele>48.3</ele>
<time>2011-04-29T06:59:20Z</time>
<desc>lat.=21.433533, lon.=105.290665, Alt.=43.383331m. Speed=35.784000m/h.</desc>
<speed>9.940000</speed>
</trkpt>
<trkpt lat="21.433105" lon="105.290741">
<ele>47.1</ele>
<time>2011-04-29T06:59:25Z</time>
<desc>lat.=21.433105, lon.=105.290741, Alt.=41.964386m. Speed=35.675999m/h.</desc>
<speed>9.910000</speed>
</trkpt>
<trkpt lat="21.431213" lon="105.292427">
<ele>47.6</ele>
<time>2011-04-29T06:59:55Z</time>
<desc>lat.=21.431213, lon.=105.292427, Alt.=41.481964m. Speed=36.827999m/h.</desc>
<speed>10.230000</speed>
</trkpt>
<trkpt lat="21.428442" lon="105.293350">
<ele>51.0</ele>
<time>2011-04-29T07:00:25Z</time>
<desc>lat.=21.428442, lon.=105.293350, Alt.=41.908722m. Speed=33.875999m/h.</desc>
<speed>9.410000</speed>
</trkpt>
<trkpt lat="21.427647" lon="105.294418">
<ele>48.2</ele>
<time>2011-04-29T07:00:40Z</time>
<desc>lat.=21.427647, lon.=105.294418, Alt.=41.544464m. Speed=34.560001m/h.</desc>
<speed>9.600000</speed>
</trkpt>
<trkpt lat="21.427240" lon="105.294640">
<ele>50.6</ele>
<time>2011-04-29T07:00:45Z</time>
<desc>lat.=21.427240, lon.=105.294640, Alt.=38.000519m. Speed=36.863998m/h.</desc>
<speed>10.240000</speed>
</trkpt>
<trkpt lat="21.426769" lon="105.294563">
<ele>49.0</ele>
<time>2011-04-29T07:00:50Z</time>
<desc>lat.=21.426769, lon.=105.294563, Alt.=37.515167m. Speed=39.672001m/h.</desc>
<speed>11.020000</speed>
</trkpt>
<trkpt lat="21.425407" lon="105.293938">
<ele>49.6</ele>
<time>2011-04-29T07:01:05Z</time>
<desc>lat.=21.425407, lon.=105.293938, Alt.=40.471222m. Speed=33.624001m/h.</desc>
<speed>9.340000</speed>
</trkpt>
<trkpt lat="21.424976" lon="105.293900">
<ele>49.7</ele>
<time>2011-04-29T07:01:10Z</time>
<desc>lat.=21.424976, lon.=105.293900, Alt.=41.783722m. Speed=32.868000m/h.</desc>
<speed>9.130000</speed>
</trkpt>
<trkpt lat="21.421993" lon="105.295189">
<ele>38.9</ele>
<time>2011-04-29T07:01:40Z</time>
<desc>lat.=21.421993, lon.=105.295189, Alt.=36.221222m. Speed=44.099998m/h.</desc>
<speed>12.250000</speed>
</trkpt>
<trkpt lat="21.420544" lon="105.295662">
<ele>44.6</ele>
<time>2011-04-29T07:01:55Z</time>
<desc>lat.=21.420544, lon.=105.295662, Alt.=35.162628m. Speed=37.080002m/h.</desc>
<speed>10.300001</speed>
</trkpt>
<trkpt lat="21.419336" lon="105.297211">
<ele>46.1</ele>
<time>2011-04-29T07:24:55Z</time>
<desc>lat.=21.419336, lon.=105.297211, Alt.=41.125519m. Speed=34.307999m/h.</desc>
<speed>9.530000</speed>
</trkpt>
<trkpt lat="21.417732" lon="105.298088">
<ele>51.4</ele>
<time>2011-04-29T07:25:15Z</time>
<desc>lat.=21.417732, lon.=105.298088, Alt.=36.407745m. Speed=27.756001m/h.</desc>
<speed>7.710000</speed>
</trkpt>
<trkpt lat="21.415247" lon="105.300385">
<ele>50.5</ele>
<time>2011-04-29T07:25:55Z</time>
<desc>lat.=21.415247, lon.=105.300385, Alt.=33.752472m. Speed=34.523998m/h.</desc>
<speed>9.590000</speed>
</trkpt>
<trkpt lat="21.415045" lon="105.300819">
<ele>49.4</ele>
<time>2011-04-29T07:26:00Z</time>
<desc>lat.=21.415045, lon.=105.300819, Alt.=34.536652m. Speed=35.136002m/h.</desc>
<speed>9.760000</speed>
</trkpt>
<trkpt lat="21.414879" lon="105.302269">
<ele>44.7</ele>
<time>2011-04-29T07:26:15Z</time>
<desc>lat.=21.414879, lon.=105.302269, Alt.=39.770050m. Speed=32.796001m/h.</desc>
<speed>9.110000</speed>
</trkpt>
<trkpt lat="21.414736" lon="105.302689">
<ele>46.4</ele>
<time>2011-04-29T07:26:20Z</time>
<desc>lat.=21.414736, lon.=105.302689, Alt.=40.586456m. Speed=31.247999m/h.</desc>
<speed>8.680000</speed>
</trkpt>
<trkpt lat="21.414413" lon="105.303047">
<ele>48.8</ele>
<time>2011-04-29T07:26:25Z</time>
<desc>lat.=21.414413, lon.=105.303047, Alt.=42.365753m. Speed=38.556000m/h.</desc>
<speed>10.710000</speed>
</trkpt>
<trkpt lat="21.413580" lon="105.303627">
<ele>48.2</ele>
<time>2011-04-29T07:26:35Z</time>
<desc>lat.=21.413580, lon.=105.303627, Alt.=41.413605m. Speed=37.332001m/h.</desc>
<speed>10.370000</speed>
</trkpt>
<trkpt lat="21.410576" lon="105.305031">
<ele>52.9</ele>
<time>2011-04-29T07:27:10Z</time>
<desc>lat.=21.410576, lon.=105.305031, Alt.=47.087433m. Speed=27.864000m/h.</desc>
<speed>7.740000</speed>
</trkpt>
<trkpt lat="21.408520" lon="105.305557">
<ele>48.4</ele>
<time>2011-04-29T07:27:35Z</time>
<desc>lat.=21.408520, lon.=105.305557, Alt.=47.982941m. Speed=25.667999m/h.</desc>
<speed>7.130000</speed>
</trkpt>
<trkpt lat="21.408442" lon="105.306343">
<ele>48.3</ele>
<time>2011-04-29T07:27:45Z</time>
<desc>lat.=21.408442, lon.=105.306343, Alt.=39.636261m. Speed=39.924000m/h.</desc>
<speed>11.090000</speed>
</trkpt>
<trkpt lat="21.408625" lon="105.306831">
<ele>43.9</ele>
<time>2011-04-29T07:27:50Z</time>
<desc>lat.=21.408625, lon.=105.306831, Alt.=35.340363m. Speed=40.716000m/h.</desc>
<speed>11.310000</speed>
</trkpt>
<trkpt lat="21.409353" lon="105.307610">
<ele>45.2</ele>
<time>2011-04-29T07:28:00Z</time>
<desc>lat.=21.409353, lon.=105.307610, Alt.=31.167740m. Speed=39.312000m/h.</desc>
<speed>10.920000</speed>
</trkpt>
<trkpt lat="21.409433" lon="105.308098">
<ele>44.8</ele>
<time>2011-04-29T07:28:05Z</time>
<desc>lat.=21.409433, lon.=105.308098, Alt.=31.103287m. Speed=38.664001m/h.</desc>
<speed>10.740000</speed>
</trkpt>
<trkpt lat="21.408524" lon="105.311905">
<ele>31.5</ele>
<time>2011-04-29T07:28:40Z</time>
<desc>lat.=21.408524, lon.=105.311905, Alt.=23.014908m. Speed=39.240002m/h.</desc>
<speed>10.900000</speed>
</trkpt>
<trkpt lat="21.408287" lon="105.312340">
<ele>35.3</ele>
<time>2011-04-29T07:28:45Z</time>
<desc>lat.=21.408287, lon.=105.312340, Alt.=23.707779m. Speed=39.636002m/h.</desc>
<speed>11.010000</speed>
</trkpt>
<trkpt lat="21.406767" lon="105.313042">
<ele>37.1</ele>
<time>2011-04-29T07:29:05Z</time>
<desc>lat.=21.406767, lon.=105.313042, Alt.=24.685318m. Speed=32.759998m/h.</desc>
<speed>9.100000</speed>
</trkpt>
<trkpt lat="21.405443" lon="105.313019">
<ele>38.5</ele>
<time>2011-04-29T07:29:20Z</time>
<desc>lat.=21.405443, lon.=105.313019, Alt.=24.823013m. Speed=29.087999m/h.</desc>
<speed>8.080000</speed>
</trkpt>
<trkpt lat="21.404018" lon="105.314919">
<ele>32.8</ele>
<time>2011-04-29T07:29:45Z</time>
<desc>lat.=21.404018, lon.=105.314919, Alt.=28.525162m. Speed=43.703999m/h.</desc>
<speed>12.140000</speed>
</trkpt>
<trkpt lat="21.403795" lon="105.315468">
<ele>30.7</ele>
<time>2011-04-29T07:29:50Z</time>
<desc>lat.=21.403795, lon.=105.315468, Alt.=27.630142m. Speed=43.776001m/h.</desc>
<speed>12.160000</speed>
</trkpt>
<trkpt lat="21.403635" lon="105.317635">
<ele>29.7</ele>
<time>2011-04-29T07:30:10Z</time>
<desc>lat.=21.403635, lon.=105.317635, Alt.=29.693619m. Speed=34.919998m/h.</desc>
<speed>9.699999</speed>
</trkpt>
<trkpt lat="21.403450" lon="105.318054">
<ele>33.6</ele>
<time>2011-04-29T07:30:15Z</time>
<desc>lat.=21.403450, lon.=105.318054, Alt.=31.037369m. Speed=38.088001m/h.</desc>
<speed>10.580000</speed>
</trkpt>
<trkpt lat="21.402214" lon="105.319038">
<ele>32.1</ele>
<time>2011-04-29T07:30:30Z</time>
<desc>lat.=21.402214, lon.=105.319038, Alt.=23.724869m. Speed=39.492001m/h.</desc>
<speed>10.970000</speed>
</trkpt>
<trkpt lat="21.401283" lon="105.320419">
<ele>23.0</ele>
<time>2011-04-29T07:30:45Z</time>
<desc>lat.=21.401283, lon.=105.320419, Alt.=14.501839m. Speed=40.571999m/h.</desc>
<speed>11.270000</speed>
</trkpt>
<trkpt lat="21.400288" lon="105.320976">
<ele>24.8</ele>
<time>2011-04-29T07:30:55Z</time>
<desc>lat.=21.400288, lon.=105.320976, Alt.=14.121956m. Speed=48.456001m/h.</desc>
<speed>13.460000</speed>
</trkpt>
<trkpt lat="21.398819" lon="105.321404">
<ele>34.3</ele>
<time>2011-04-29T07:31:10Z</time>
<desc>lat.=21.398819, lon.=105.321404, Alt.=17.685318m. Speed=32.112000m/h.</desc>
<speed>8.920000</speed>
</trkpt>
<trkpt lat="21.398548" lon="105.321732">
<ele>35.6</ele>
<time>2011-04-29T07:31:15Z</time>
<desc>lat.=21.398548, lon.=105.321732, Alt.=16.624771m. Speed=34.487999m/h.</desc>
<speed>9.580000</speed>
</trkpt>
<trkpt lat="21.397835" lon="105.323891">
<ele>36.0</ele>
<time>2011-04-29T07:31:35Z</time>
<desc>lat.=21.397835, lon.=105.323891, Alt.=31.229263m. Speed=45.144001m/h.</desc>
<speed>12.540000</speed>
</trkpt>
<trkpt lat="21.396914" lon="105.325439">
<ele>33.0</ele>
<time>2011-04-29T07:31:50Z</time>
<desc>lat.=21.396914, lon.=105.325439, Alt.=31.861099m. Speed=41.688000m/h.</desc>
<speed>11.580000</speed>
</trkpt>
<trkpt lat="21.396366" lon="105.325745">
<ele>29.0</ele>
<time>2011-04-29T07:31:55Z</time>
<desc>lat.=21.396366, lon.=105.325745, Alt.=28.908951m. Speed=51.624001m/h.</desc>
<speed>14.340000</speed>
</trkpt>
<trkpt lat="21.391987" lon="105.327011">
<ele>32.8</ele>
<time>2011-04-29T07:32:30Z</time>
<desc>lat.=21.391987, lon.=105.327011, Alt.=25.664322m. Speed=44.099998m/h.</desc>
<speed>12.250000</speed>
</trkpt>
<trkpt lat="21.388210" lon="105.329964">
<ele>26.5</ele>
<time>2011-04-29T07:33:10Z</time>
<desc>lat.=21.388210, lon.=105.329964, Alt.=17.312271m. Speed=45.863998m/h.</desc>
<speed>12.740000</speed>
</trkpt>
<trkpt lat="21.387699" lon="105.331535">
<ele>32.4</ele>
<time>2011-04-29T07:33:25Z</time>
<desc>lat.=21.387699, lon.=105.331535, Alt.=19.552994m. Speed=41.436001m/h.</desc>
<speed>11.510000</speed>
</trkpt>
<trkpt lat="21.387411" lon="105.331993">
<ele>32.8</ele>
<time>2011-04-29T07:33:30Z</time>
<desc>lat.=21.387411, lon.=105.331993, Alt.=20.926529m. Speed=41.076000m/h.</desc>
<speed>11.410000</speed>
</trkpt>
<trkpt lat="21.386930" lon="105.332253">
<ele>30.0</ele>
<time>2011-04-29T07:33:35Z</time>
<desc>lat.=21.386930, lon.=105.332253, Alt.=22.401138m. Speed=45.431999m/h.</desc>
<speed>12.620000</speed>
</trkpt>
<trkpt lat="21.386366" lon="105.332283">
<ele>30.0</ele>
<time>2011-04-29T07:33:40Z</time>
<desc>lat.=21.386366, lon.=105.332283, Alt.=21.215103m. Speed=45.396000m/h.</desc>
<speed>12.610000</speed>
</trkpt>
<trkpt lat="21.385090" lon="105.331993">
<ele>24.3</ele>
<time>2011-04-29T07:33:50Z</time>
<desc>lat.=21.385090, lon.=105.331993, Alt.=20.286880m. Speed=50.004002m/h.</desc>
<speed>13.890000</speed>
</trkpt>
<trkpt lat="21.384491" lon="105.332169">
<ele>24.1</ele>
<time>2011-04-29T07:33:55Z</time>
<desc>lat.=21.384491, lon.=105.332169, Alt.=20.603287m. Speed=49.896000m/h.</desc>
<speed>13.860000</speed>
</trkpt>
<trkpt lat="21.382746" lon="105.333191">
<ele>28.8</ele>
<time>2011-04-29T07:34:10Z</time>
<desc>lat.=21.382746, lon.=105.333191, Alt.=21.288345m. Speed=42.840000m/h.</desc>
<speed>11.900000</speed>
</trkpt>
<trkpt lat="21.381277" lon="105.333656">
<ele>21.6</ele>
<time>2011-04-29T07:34:25Z</time>
<desc>lat.=21.381277, lon.=105.333656, Alt.=19.655533m. Speed=46.188000m/h.</desc>
<speed>12.830000</speed>
</trkpt>
<trkpt lat="21.379803" lon="105.334633">
<ele>27.2</ele>
<time>2011-04-29T07:34:40Z</time>
<desc>lat.=21.379803, lon.=105.334633, Alt.=16.977310m. Speed=45.647999m/h.</desc>
<speed>12.680000</speed>
</trkpt>
<trkpt lat="21.378689" lon="105.334946">
<ele>31.8</ele>
<time>2011-04-29T07:34:50Z</time>
<desc>lat.=21.378689, lon.=105.334946, Alt.=19.635025m. Speed=42.695999m/h.</desc>
<speed>11.860000</speed>
</trkpt>
<trkpt lat="21.377291" lon="105.335052">
<ele>32.7</ele>
<time>2011-04-29T07:35:05Z</time>
<desc>lat.=21.377291, lon.=105.335052, Alt.=32.158722m. Speed=32.868000m/h.</desc>
<speed>9.130000</speed>
</trkpt>
<trkpt lat="21.375666" lon="105.336708">
<ele>25.3</ele>
<time>2011-04-29T07:35:25Z</time>
<desc>lat.=21.375666, lon.=105.336708, Alt.=21.677505m. Speed=49.212002m/h.</desc>
<speed>13.670001</speed>
</trkpt>
<trkpt lat="21.374924" lon="105.338684">
<ele>21.5</ele>
<time>2011-04-29T07:35:40Z</time>
<desc>lat.=21.374924, lon.=105.338684, Alt.=14.977913m. Speed=43.776001m/h.</desc>
<speed>12.160000</speed>
</trkpt>
<trkpt lat="21.374626" lon="105.339104">
<ele>24.4</ele>
<time>2011-04-29T07:35:45Z</time>
<desc>lat.=21.374626, lon.=105.339104, Alt.=12.755989m. Speed=36.863998m/h.</desc>
<speed>10.240000</speed>
</trkpt>
<trkpt lat="21.368265" lon="105.343956">
<ele>42.5</ele>
<time>2011-04-29T07:36:55Z</time>
<desc>lat.=21.368265, lon.=105.343956, Alt.=30.716080m. Speed=50.903999m/h.</desc>
<speed>14.140000</speed>
</trkpt>
<trkpt lat="21.367258" lon="105.345985">
<ele>46.5</ele>
<time>2011-04-29T07:37:15Z</time>
<desc>lat.=21.367258, lon.=105.345985, Alt.=31.708755m. Speed=41.616001m/h.</desc>
<speed>11.560000</speed>
</trkpt>
<trkpt lat="21.355759" lon="105.353516">
<ele>34.4</ele>
<time>2011-04-29T07:39:25Z</time>
<desc>lat.=21.355759, lon.=105.353516, Alt.=33.320831m. Speed=38.627998m/h.</desc>
<speed>10.730000</speed>
</trkpt>
<trkpt lat="21.355143" lon="105.354271">
<ele>36.4</ele>
<time>2011-04-29T07:39:35Z</time>
<desc>lat.=21.355143, lon.=105.354271, Alt.=28.193130m. Speed=36.900002m/h.</desc>
<speed>10.250000</speed>
</trkpt>
<trkpt lat="21.354132" lon="105.356155">
<ele>32.1</ele>
<time>2011-04-29T07:39:55Z</time>
<desc>lat.=21.354132, lon.=105.356155, Alt.=24.187759m. Speed=39.959999m/h.</desc>
<speed>11.100000</speed>
</trkpt>
<trkpt lat="21.353718" lon="105.356438">
<ele>31.0</ele>
<time>2011-04-29T07:40:00Z</time>
<desc>lat.=21.353718, lon.=105.356438, Alt.=23.039810m. Speed=41.004002m/h.</desc>
<speed>11.390000</speed>
</trkpt>
<trkpt lat="21.348982" lon="105.357971">
<ele>26.8</ele>
<time>2011-04-29T07:40:45Z</time>
<desc>lat.=21.348982, lon.=105.357971, Alt.=22.958755m. Speed=42.840000m/h.</desc>
<speed>11.900000</speed>
</trkpt>
<trkpt lat="21.348473" lon="105.358200">
<ele>26.5</ele>
<time>2011-04-29T07:40:50Z</time>
<desc>lat.=21.348473, lon.=105.358200, Alt.=22.790298m. Speed=44.279999m/h.</desc>
<speed>12.300000</speed>
</trkpt>
<trkpt lat="21.346933" lon="105.359489">
<ele>24.5</ele>
<time>2011-04-29T07:41:10Z</time>
<desc>lat.=21.346933, lon.=105.359489, Alt.=13.996223m. Speed=37.512001m/h.</desc>
<speed>10.420000</speed>
</trkpt>
<trkpt lat="21.345453" lon="105.360092">
<ele>22.1</ele>
<time>2011-04-29T07:41:25Z</time>
<desc>lat.=21.345453, lon.=105.360092, Alt.=15.152718m. Speed=40.428001m/h.</desc>
<speed>11.230000</speed>
</trkpt>
<trkpt lat="21.343416" lon="105.360603">
<ele>27.6</ele>
<time>2011-04-29T07:41:45Z</time>
<desc>lat.=21.343416, lon.=105.360603, Alt.=15.022591m. Speed=40.931999m/h.</desc>
<speed>11.370000</speed>
</trkpt>
<trkpt lat="21.342987" lon="105.360893">
<ele>30.6</ele>
<time>2011-04-29T07:41:50Z</time>
<desc>lat.=21.342987, lon.=105.360893, Alt.=17.007584m. Speed=37.655998m/h.</desc>
<speed>10.460000</speed>
</trkpt>
<trkpt lat="21.341919" lon="105.363045">
<ele>31.0</ele>
<time>2011-04-29T07:42:15Z</time>
<desc>lat.=21.341919, lon.=105.363045, Alt.=17.967056m. Speed=38.556000m/h.</desc>
<speed>10.710000</speed>
</trkpt>
<trkpt lat="21.337959" lon="105.368019">
<ele>25.2</ele>
<time>2011-04-29T07:43:15Z</time>
<desc>lat.=21.337959, lon.=105.368019, Alt.=9.922005m. Speed=38.375999m/h.</desc>
<speed>10.660000</speed>
</trkpt>
<trkpt lat="21.337091" lon="105.370995">
<ele>30.2</ele>
<time>2011-04-29T07:43:50Z</time>
<desc>lat.=21.337091, lon.=105.370995, Alt.=11.983284m. Speed=30.708000m/h.</desc>
<speed>8.530000</speed>
</trkpt>
<trkpt lat="21.335960" lon="105.372704">
<ele>28.7</ele>
<time>2011-04-29T07:44:10Z</time>
<desc>lat.=21.335960, lon.=105.372704, Alt.=16.346939m. Speed=40.896000m/h.</desc>
<speed>11.360000</speed>
</trkpt>
<trkpt lat="21.334740" lon="105.373795">
<ele>23.0</ele>
<time>2011-04-29T07:44:25Z</time>
<desc>lat.=21.334740, lon.=105.373795, Alt.=16.817642m. Speed=39.203999m/h.</desc>
<speed>10.890000</speed>
</trkpt>
<trkpt lat="21.331381" lon="105.376167">
<ele>25.1</ele>
<time>2011-04-29T07:45:30Z</time>
<desc>lat.=21.331381, lon.=105.376167, Alt.=9.419319m. Speed=35.459999m/h.</desc>
<speed>9.850000</speed>
</trkpt>
<trkpt lat="21.324694" lon="105.382706">
<ele>30.7</ele>
<time>2011-04-29T07:48:00Z</time>
<desc>lat.=21.324694, lon.=105.382706, Alt.=7.704899m. Speed=14.328000m/h.</desc>
<speed>3.980000</speed>
</trkpt>
<trkpt lat="21.316877" lon="105.389259">
<ele>24.9</ele>
<time>2011-04-29T07:49:55Z</time>
<desc>lat.=21.316877, lon.=105.389259, Alt.=14.391243m. Speed=34.703999m/h.</desc>
<speed>9.640000</speed>
</trkpt>
<trkpt lat="21.315638" lon="105.390633">
<ele>22.2</ele>
<time>2011-04-29T07:50:15Z</time>
<desc>lat.=21.315638, lon.=105.390633, Alt.=5.849796m. Speed=40.535999m/h.</desc>
<speed>11.260000</speed>
</trkpt>
<trkpt lat="21.314377" lon="105.392883">
<ele>25.5</ele>
<time>2011-04-29T07:50:40Z</time>
<desc>lat.=21.314377, lon.=105.392883, Alt.=6.712589m. Speed=39.852001m/h.</desc>
<speed>11.070000</speed>
</trkpt>
<trkpt lat="21.310755" lon="105.400215">
<ele>26.0</ele>
<time>2011-04-29T07:52:45Z</time>
<desc>lat.=21.310755, lon.=105.400215, Alt.=10.371712m. Speed=40.535999m/h.</desc>
<speed>11.260000</speed>
</trkpt>
<trkpt lat="21.307177" lon="105.405159">
<ele>26.3</ele>
<time>2011-04-29T07:54:15Z</time>
<desc>lat.=21.307177, lon.=105.405159, Alt.=28.941177m. Speed=10.476000m/h.</desc>
<speed>2.910000</speed>
</trkpt>
<trkpt lat="21.305410" lon="105.408844">
<ele>23.0</ele>
<time>2011-04-29T07:55:25Z</time>
<desc>lat.=21.305410, lon.=105.408844, Alt.=13.556282m. Speed=33.731998m/h.</desc>
<speed>9.370000</speed>
</trkpt>
<trkpt lat="21.304634" lon="105.411179">
<ele>19.0</ele>
<time>2011-04-29T07:55:50Z</time>
<desc>lat.=21.304634, lon.=105.411179, Alt.=6.651676m. Speed=38.160000m/h.</desc>
<speed>10.600000</speed>
</trkpt>
<trkpt lat="21.304331" lon="105.413605">
<ele>22.8</ele>
<time>2011-04-29T07:56:15Z</time>
<desc>lat.=21.304331, lon.=105.413605, Alt.=8.965218m. Speed=33.012001m/h.</desc>
<speed>9.170000</speed>
</trkpt>
<trkpt lat="21.304178" lon="105.423729">
<ele>21.5</ele>
<time>2011-04-29T07:59:05Z</time>
<desc>lat.=21.304178, lon.=105.423729, Alt.=8.665413m. Speed=35.712002m/h.</desc>
<speed>9.920001</speed>
</trkpt>
<trkpt lat="21.303694" lon="105.427643">
<ele>16.8</ele>
<time>2011-04-29T07:59:45Z</time>
<desc>lat.=21.303694, lon.=105.427643, Alt.=7.512760m. Speed=33.192001m/h.</desc>
<speed>9.220000</speed>
</trkpt>
<trkpt lat="21.303894" lon="105.428558">
<ele>17.7</ele>
<time>2011-04-29T07:59:55Z</time>
<desc>lat.=21.303894, lon.=105.428558, Alt.=6.750065m. Speed=36.000000m/h.</desc>
<speed>10.000000</speed>
</trkpt>
<trkpt lat="21.305292" lon="105.430717">
<ele>16.6</ele>
<time>2011-04-29T08:00:20Z</time>
<desc>lat.=21.305292, lon.=105.430717, Alt.=6.497990m. Speed=37.692001m/h.</desc>
<speed>10.470000</speed>
</trkpt>
<trkpt lat="21.305771" lon="105.433525">
<ele>14.4</ele>
<time>2011-04-29T08:00:45Z</time>
<desc>lat.=21.305771, lon.=105.433525, Alt.=7.304630m. Speed=55.548000m/h.</desc>
<speed>15.430000</speed>
</trkpt>
<trkpt lat="21.305731" lon="105.434303">
<ele>14.6</ele>
<time>2011-04-29T08:00:50Z</time>
<desc>lat.=21.305731, lon.=105.434303, Alt.=9.497200m. Speed=61.452000m/h.</desc>
<speed>17.070000</speed>
</trkpt>
<trkpt lat="21.304214" lon="105.440842">
<ele>18.7</ele>
<time>2011-04-29T08:01:35Z</time>
<desc>lat.=21.304214, lon.=105.440842, Alt.=13.116096m. Speed=58.608002m/h.</desc>
<speed>16.280000</speed>
</trkpt>
<trkpt lat="21.303627" lon="105.442192">
<ele>19.6</ele>
<time>2011-04-29T08:01:45Z</time>
<desc>lat.=21.303627, lon.=105.442192, Alt.=13.682747m. Speed=51.768002m/h.</desc>
<speed>14.380000</speed>
</trkpt>
<trkpt lat="21.303240" lon="105.442711">
<ele>20.9</ele>
<time>2011-04-29T08:01:50Z</time>
<desc>lat.=21.303240, lon.=105.442711, Alt.=14.750618m. Speed=46.728001m/h.</desc>
<speed>12.980000</speed>
</trkpt>
<trkpt lat="21.302343" lon="105.443344">
<ele>22.4</ele>
<time>2011-04-29T08:02:00Z</time>
<desc>lat.=21.302343, lon.=105.443344, Alt.=16.621841m. Speed=39.852001m/h.</desc>
<speed>11.070000</speed>
</trkpt>
<trkpt lat="21.297558" lon="105.444435">
<ele>20.7</ele>
<time>2011-04-29T08:02:55Z</time>
<desc>lat.=21.297558, lon.=105.444435, Alt.=15.402229m. Speed=34.307999m/h.</desc>
<speed>9.530000</speed>
</trkpt>
<trkpt lat="21.297487" lon="105.444862">
<ele>17.8</ele>
<time>2011-04-29T08:03:00Z</time>
<desc>lat.=21.297487, lon.=105.444862, Alt.=15.701790m. Speed=36.900002m/h.</desc>
<speed>10.250000</speed>
</trkpt>
<trkpt lat="21.297812" lon="105.445221">
<ele>20.8</ele>
<time>2011-04-29T08:03:05Z</time>
<desc>lat.=21.297812, lon.=105.445221, Alt.=15.095100m. Speed=36.144001m/h.</desc>
<speed>10.040000</speed>
</trkpt>
<trkpt lat="21.298233" lon="105.445091">
<ele>19.3</ele>
<time>2011-04-29T08:03:10Z</time>
<desc>lat.=21.298233, lon.=105.445091, Alt.=12.228401m. Speed=35.639999m/h.</desc>
<speed>9.900000</speed>
</trkpt>
<trkpt lat="21.298351" lon="105.444672">
<ele>18.9</ele>
<time>2011-04-29T08:03:15Z</time>
<desc>lat.=21.298351, lon.=105.444672, Alt.=12.281624m. Speed=34.380001m/h.</desc>
<speed>9.550000</speed>
</trkpt>
<trkpt lat="21.298216" lon="105.444244">
<ele>21.9</ele>
<time>2011-04-29T08:03:20Z</time>
<desc>lat.=21.298216, lon.=105.444244, Alt.=12.559700m. Speed=35.820000m/h.</desc>
<speed>9.950000</speed>
</trkpt>
<trkpt lat="21.298067" lon="105.443871">
<ele>22.9</ele>
<time>2011-04-29T08:03:25Z</time>
<desc>lat.=21.298067, lon.=105.443871, Alt.=11.047981m. Speed=27.216000m/h.</desc>
<speed>7.560000</speed>
</trkpt>
<trkpt lat="21.297750" lon="105.443672">
<ele>21.1</ele>
<time>2011-04-29T08:03:30Z</time>
<desc>lat.=21.297750, lon.=105.443672, Alt.=8.889534m. Speed=29.591999m/h.</desc>
<speed>8.220000</speed>
</trkpt>
<trkpt lat="21.294712" lon="105.444946">
<ele>20.6</ele>
<time>2011-04-29T08:04:10Z</time>
<desc>lat.=21.294712, lon.=105.444946, Alt.=2.917879m. Speed=39.419998m/h.</desc>
<speed>10.949999</speed>
</trkpt>
<trkpt lat="21.293833" lon="105.445572">
<ele>19.7</ele>
<time>2011-04-29T08:04:20Z</time>
<desc>lat.=21.293833, lon.=105.445572, Alt.=1.964494m. Speed=44.136002m/h.</desc>
<speed>12.260000</speed>
</trkpt>
<trkpt lat="21.293026" lon="105.446472">
<ele>19.0</ele>
<time>2011-04-29T08:04:30Z</time>
<desc>lat.=21.293026, lon.=105.446472, Alt.=5.642887m. Speed=51.480000m/h.</desc>
<speed>14.300000</speed>
</trkpt>
<trkpt lat="21.292261" lon="105.447807">
<ele>18.1</ele>
<time>2011-04-29T08:04:40Z</time>
<desc>lat.=21.292261, lon.=105.447807, Alt.=5.728336m. Speed=62.568001m/h.</desc>
<speed>17.380000</speed>
</trkpt>
<trkpt lat="21.291822" lon="105.449326">
<ele>17.1</ele>
<time>2011-04-29T08:04:50Z</time>
<desc>lat.=21.291822, lon.=105.449326, Alt.=4.867252m. Speed=53.964001m/h.</desc>
<speed>14.990000</speed>
</trkpt>
<trkpt lat="21.291401" lon="105.452278">
<ele>19.2</ele>
<time>2011-04-29T08:05:10Z</time>
<desc>lat.=21.291401, lon.=105.452278, Alt.=8.682259m. Speed=50.543999m/h.</desc>
<speed>14.040000</speed>
</trkpt>
<trkpt lat="21.291039" lon="105.452812">
<ele>18.3</ele>
<time>2011-04-29T08:05:15Z</time>
<desc>lat.=21.291039, lon.=105.452812, Alt.=10.099983m. Speed=44.820000m/h.</desc>
<speed>12.450000</speed>
</trkpt>
<trkpt lat="21.290634" lon="105.453094">
<ele>19.6</ele>
<time>2011-04-29T08:05:20Z</time>
<desc>lat.=21.290634, lon.=105.453094, Alt.=9.194954m. Speed=34.740002m/h.</desc>
<speed>9.650000</speed>
</trkpt>
<trkpt lat="21.290239" lon="105.453262">
<ele>18.6</ele>
<time>2011-04-29T08:05:25Z</time>
<desc>lat.=21.290239, lon.=105.453262, Alt.=9.453987m. Speed=32.004002m/h.</desc>
<speed>8.890000</speed>
</trkpt>
<trkpt lat="21.289536" lon="105.453262">
<ele>17.4</ele>
<time>2011-04-29T08:05:35Z</time>
<desc>lat.=21.289536, lon.=105.453262, Alt.=5.558903m. Speed=27.648001m/h.</desc>
<speed>7.680000</speed>
</trkpt>
<trkpt lat="21.285528" lon="105.452278">
<ele>20.1</ele>
<time>2011-04-29T08:06:25Z</time>
<desc>lat.=21.285528, lon.=105.452278, Alt.=12.588020m. Speed=29.520000m/h.</desc>
<speed>8.200000</speed>
</trkpt>
<trkpt lat="21.284723" lon="105.452248">
<ele>19.9</ele>
<time>2011-04-29T08:06:35Z</time>
<desc>lat.=21.284723, lon.=105.452248, Alt.=11.138557m. Speed=34.127998m/h.</desc>
<speed>9.480000</speed>
</trkpt>
<trkpt lat="21.283115" lon="105.453033">
<ele>15.7</ele>
<time>2011-04-29T08:07:00Z</time>
<desc>lat.=21.283115, lon.=105.453033, Alt.=0.561287m. Speed=23.076000m/h.</desc>
<speed>6.410000</speed>
</trkpt>
<trkpt lat="21.282478" lon="105.453568">
<ele>16.2</ele>
<time>2011-04-29T08:07:15Z</time>
<desc>lat.=21.282478, lon.=105.453568, Alt.=4.889347m. Speed=27.035999m/h.</desc>
<speed>7.510000</speed>
</trkpt>
<trkpt lat="21.281120" lon="105.454292">
<ele>18.4</ele>
<time>2011-04-29T08:07:35Z</time>
<desc>lat.=21.281120, lon.=105.454292, Alt.=6.575748m. Speed=26.712000m/h.</desc>
<speed>7.420000</speed>
</trkpt>
<trkpt lat="21.279499" lon="105.455368">
<ele>15.0</ele>
<time>2011-04-29T08:08:00Z</time>
<desc>lat.=21.279499, lon.=105.455368, Alt.=-0.543587m. Speed=35.639999m/h.</desc>
<speed>9.900000</speed>
</trkpt>
<trkpt lat="21.278690" lon="105.456100">
<ele>14.5</ele>
<time>2011-04-29T08:08:10Z</time>
<desc>lat.=21.278690, lon.=105.456100, Alt.=-0.638268m. Speed=41.076000m/h.</desc>
<speed>11.410000</speed>
</trkpt>
<trkpt lat="21.278532" lon="105.456657">
<ele>17.0</ele>
<time>2011-04-29T08:08:15Z</time>
<desc>lat.=21.278532, lon.=105.456657, Alt.=-1.147508m. Speed=43.344002m/h.</desc>
<speed>12.040000</speed>
</trkpt>
<trkpt lat="21.278202" lon="105.462357">
<ele>17.8</ele>
<time>2011-04-29T08:09:05Z</time>
<desc>lat.=21.278202, lon.=105.462357, Alt.=4.691349m. Speed=38.231998m/h.</desc>
<speed>10.620000</speed>
</trkpt>
<trkpt lat="21.279125" lon="105.464005">
<ele>17.8</ele>
<time>2011-04-29T08:09:25Z</time>
<desc>lat.=21.279125, lon.=105.464005, Alt.=7.477482m. Speed=33.480000m/h.</desc>
<speed>9.300000</speed>
</trkpt>
<trkpt lat="21.279173" lon="105.467369">
<ele>14.9</ele>
<time>2011-04-29T08:10:00Z</time>
<desc>lat.=21.279173, lon.=105.467369, Alt.=11.787483m. Speed=36.108002m/h.</desc>
<speed>10.030000</speed>
</trkpt>
<trkpt lat="21.280497" lon="105.472450">
<ele>19.5</ele>
<time>2011-04-29T08:10:55Z</time>
<desc>lat.=21.280497, lon.=105.472450, Alt.=15.671028m. Speed=42.048000m/h.</desc>
<speed>11.680000</speed>
</trkpt>
<trkpt lat="21.277390" lon="105.493484">
<ele>15.9</ele>
<time>2011-04-29T08:13:50Z</time>
<desc>lat.=21.277390, lon.=105.493484, Alt.=5.557316m. Speed=41.004002m/h.</desc>
<speed>11.390000</speed>
</trkpt>
<trkpt lat="21.278833" lon="105.519348">
<ele>19.5</ele>
<time>2011-04-29T08:17:30Z</time>
<desc>lat.=21.278833, lon.=105.519348, Alt.=-6.948673m. Speed=34.487999m/h.</desc>
<speed>9.580000</speed>
</trkpt>
<trkpt lat="21.279127" lon="105.520882">
<ele>18.8</ele>
<time>2011-04-29T08:17:45Z</time>
<desc>lat.=21.279127, lon.=105.520882, Alt.=7.466984m. Speed=32.976002m/h.</desc>
<speed>9.160000</speed>
</trkpt>
<trkpt lat="21.284698" lon="105.536972">
<ele>11.7</ele>
<time>2011-04-29T08:19:55Z</time>
<desc>lat.=21.284698, lon.=105.536972, Alt.=4.175358m. Speed=45.863998m/h.</desc>
<speed>12.740000</speed>
</trkpt>
<trkpt lat="21.288464" lon="105.547356">
<ele>16.3</ele>
<time>2011-04-29T08:21:40Z</time>
<desc>lat.=21.288464, lon.=105.547356, Alt.=7.759953m. Speed=38.268002m/h.</desc>
<speed>10.630000</speed>
</trkpt>
<trkpt lat="21.288744" lon="105.547852">
<ele>16.7</ele>
<time>2011-04-29T08:21:45Z</time>
<desc>lat.=21.288744, lon.=105.547852, Alt.=12.581917m. Speed=40.860001m/h.</desc>
<speed>11.350000</speed>
</trkpt>
<trkpt lat="21.292660" lon="105.551964">
<ele>14.3</ele>
<time>2011-04-29T08:22:30Z</time>
<desc>lat.=21.292660, lon.=105.551964, Alt.=-0.192213m. Speed=46.980000m/h.</desc>
<speed>13.050000</speed>
</trkpt>
<trkpt lat="21.299046" lon="105.559288">
<ele>17.3</ele>
<time>2011-04-29T08:24:10Z</time>
<desc>lat.=21.299046, lon.=105.559288, Alt.=11.890755m. Speed=8.820000m/h.</desc>
<speed>2.450000</speed>
</trkpt>
<trkpt lat="21.302374" lon="105.563469">
<ele>19.3</ele>
<time>2011-04-29T08:25:35Z</time>
<desc>lat.=21.302374, lon.=105.563469, Alt.=11.858528m. Speed=41.147999m/h.</desc>
<speed>11.430000</speed>
</trkpt>
<trkpt lat="21.304390" lon="105.566292">
<ele>19.5</ele>
<time>2011-04-29T08:26:10Z</time>
<desc>lat.=21.304390, lon.=105.566292, Alt.=9.843391m. Speed=42.840000m/h.</desc>
<speed>11.900000</speed>
</trkpt>
<trkpt lat="21.305145" lon="105.567719">
<ele>18.4</ele>
<time>2011-04-29T08:26:25Z</time>
<desc>lat.=21.305145, lon.=105.567719, Alt.=5.906559m. Speed=41.436001m/h.</desc>
<speed>11.510000</speed>
</trkpt>
<trkpt lat="21.306042" lon="105.570473">
<ele>17.0</ele>
<time>2011-04-29T08:26:50Z</time>
<desc>lat.=21.306042, lon.=105.570473, Alt.=10.668343m. Speed=40.391998m/h.</desc>
<speed>11.220000</speed>
</trkpt>
<trkpt lat="21.306171" lon="105.574768">
<ele>16.8</ele>
<time>2011-04-29T08:27:35Z</time>
<desc>lat.=21.306171, lon.=105.574768, Alt.=15.860237m. Speed=37.296001m/h.</desc>
<speed>10.360000</speed>
</trkpt>
<trkpt lat="21.307907" lon="105.585785">
<ele>18.0</ele>
<time>2011-04-29T08:29:50Z</time>
<desc>lat.=21.307907, lon.=105.585785, Alt.=29.613052m. Speed=32.723999m/h.</desc>
<speed>9.090000</speed>
</trkpt>
<trkpt lat="21.308044" lon="105.586227">
<ele>18.6</ele>
<time>2011-04-29T08:29:55Z</time>
<desc>lat.=21.308044, lon.=105.586227, Alt.=31.504654m. Speed=33.515999m/h.</desc>
<speed>9.310000</speed>
</trkpt>
<trkpt lat="21.308777" lon="105.587105">
<ele>20.0</ele>
<time>2011-04-29T08:30:10Z</time>
<desc>lat.=21.308777, lon.=105.587105, Alt.=23.051529m. Speed=35.172001m/h.</desc>
<speed>9.770000</speed>
</trkpt>
<trkpt lat="21.308849" lon="105.587563">
<ele>17.4</ele>
<time>2011-04-29T08:30:15Z</time>
<desc>lat.=21.308849, lon.=105.587563, Alt.=24.508072m. Speed=34.200001m/h.</desc>
<speed>9.500000</speed>
</trkpt>
<trkpt lat="21.308954" lon="105.588829">
<ele>17.3</ele>
<time>2011-04-29T08:30:30Z</time>
<desc>lat.=21.308954, lon.=105.588829, Alt.=24.239517m. Speed=29.087999m/h.</desc>
<speed>8.080000</speed>
</trkpt>
<trkpt lat="21.308710" lon="105.591988">
<ele>12.2</ele>
<time>2011-04-29T08:31:05Z</time>
<desc>lat.=21.308710, lon.=105.591988, Alt.=2.001070m. Speed=26.136000m/h.</desc>
<speed>7.260000</speed>
</trkpt>
<trkpt lat="21.308174" lon="105.593582">
<ele>15.8</ele>
<time>2011-04-29T08:31:30Z</time>
<desc>lat.=21.308174, lon.=105.593582, Alt.=3.108553m. Speed=22.608000m/h.</desc>
<speed>6.280000</speed>
</trkpt>
<trkpt lat="21.311102" lon="105.595184">
<ele>18.2</ele>
<time>2011-04-29T08:32:20Z</time>
<desc>lat.=21.311102, lon.=105.595184, Alt.=-1.336686m. Speed=24.948000m/h.</desc>
<speed>6.930000</speed>
</trkpt>
<trkpt lat="21.312943" lon="105.596390">
<ele>13.9</ele>
<time>2011-04-29T08:33:05Z</time>
<desc>lat.=21.312943, lon.=105.596390, Alt.=2.953463m. Speed=18.612000m/h.</desc>
<speed>5.170000</speed>
</trkpt>
<trkpt lat="21.313255" lon="105.596817">
<ele>19.0</ele>
<time>2011-04-29T08:33:15Z</time>
<desc>lat.=21.313255, lon.=105.596817, Alt.=3.187960m. Speed=20.124001m/h.</desc>
<speed>5.590000</speed>
</trkpt>
<trkpt lat="21.314646" lon="105.606552">
<ele>14.7</ele>
<time>2011-04-29T08:36:15Z</time>
<desc>lat.=21.314646, lon.=105.606552, Alt.=10.961555m. Speed=35.675999m/h.</desc>
<speed>9.910000</speed>
</trkpt>
<trkpt lat="21.314671" lon="105.607033">
<ele>17.8</ele>
<time>2011-04-29T08:36:20Z</time>
<desc>lat.=21.314671, lon.=105.607033, Alt.=11.671516m. Speed=36.360001m/h.</desc>
<speed>10.100000</speed>
</trkpt>
<trkpt lat="21.314119" lon="105.609383">
<ele>20.0</ele>
<time>2011-04-29T08:36:45Z</time>
<desc>lat.=21.314119, lon.=105.609383, Alt.=19.650650m. Speed=37.116001m/h.</desc>
<speed>10.310000</speed>
</trkpt>
<trkpt lat="21.312613" lon="105.612984">
<ele>11.9</ele>
<time>2011-04-29T08:37:30Z</time>
<desc>lat.=21.312613, lon.=105.612984, Alt.=19.282486m. Speed=33.335999m/h.</desc>
<speed>9.260000</speed>
</trkpt>
<trkpt lat="21.311930" lon="105.614059">
<ele>14.6</ele>
<time>2011-04-29T08:37:45Z</time>
<desc>lat.=21.311930, lon.=105.614059, Alt.=7.145695m. Speed=34.919998m/h.</desc>
<speed>9.699999</speed>
</trkpt>
<trkpt lat="21.311575" lon="105.614334">
<ele>14.5</ele>
<time>2011-04-29T08:37:50Z</time>
<desc>lat.=21.311575, lon.=105.614334, Alt.=6.460636m. Speed=33.335999m/h.</desc>
<speed>9.260000</speed>
</trkpt>
<trkpt lat="21.309914" lon="105.614799">
<ele>15.6</ele>
<time>2011-04-29T08:38:10Z</time>
<desc>lat.=21.309914, lon.=105.614799, Alt.=4.475040m. Speed=36.144001m/h.</desc>
<speed>10.040000</speed>
</trkpt>
<trkpt lat="21.306986" lon="105.616348">
<ele>11.4</ele>
<time>2011-04-29T08:38:45Z</time>
<desc>lat.=21.306986, lon.=105.616348, Alt.=2.521639m. Speed=24.983999m/h.</desc>
<speed>6.940000</speed>
</trkpt>
<trkpt lat="21.306843" lon="105.617134">
<ele>12.2</ele>
<time>2011-04-29T08:38:55Z</time>
<desc>lat.=21.306843, lon.=105.617134, Alt.=2.231783m. Speed=30.708000m/h.</desc>
<speed>8.530000</speed>
</trkpt>
<trkpt lat="21.306494" lon="105.617966">
<ele>15.2</ele>
<time>2011-04-29T08:39:05Z</time>
<desc>lat.=21.306494, lon.=105.617966, Alt.=6.101505m. Speed=37.908001m/h.</desc>
<speed>10.530000</speed>
</trkpt>
<trkpt lat="21.305904" lon="105.618813">
<ele>15.4</ele>
<time>2011-04-29T08:39:15Z</time>
<desc>lat.=21.305904, lon.=105.618813, Alt.=4.834293m. Speed=40.967999m/h.</desc>
<speed>11.380000</speed>
</trkpt>
<trkpt lat="21.304844" lon="105.619881">
<ele>15.6</ele>
<time>2011-04-29T08:39:30Z</time>
<desc>lat.=21.304844, lon.=105.619881, Alt.=1.896806m. Speed=32.759998m/h.</desc>
<speed>9.100000</speed>
</trkpt>
<trkpt lat="21.303852" lon="105.621750">
<ele>18.2</ele>
<time>2011-04-29T08:39:50Z</time>
<desc>lat.=21.303852, lon.=105.621750, Alt.=7.914494m. Speed=41.112000m/h.</desc>
<speed>11.420000</speed>
</trkpt>
<trkpt lat="21.303207" lon="105.625900">
<ele>18.8</ele>
<time>2011-04-29T08:40:45Z</time>
<desc>lat.=21.303207, lon.=105.625900, Alt.=5.796452m. Speed=33.444000m/h.</desc>
<speed>9.290000</speed>
</trkpt>
<trkpt lat="21.302893" lon="105.626816">
<ele>19.4</ele>
<time>2011-04-29T08:40:55Z</time>
<desc>lat.=21.302893, lon.=105.626816, Alt.=9.133919m. Speed=35.604000m/h.</desc>
<speed>9.890000</speed>
</trkpt>
<trkpt lat="21.300554" lon="105.629395">
<ele>20.5</ele>
<time>2011-04-29T08:41:30Z</time>
<desc>lat.=21.300554, lon.=105.629395, Alt.=5.512516m. Speed=36.360001m/h.</desc>
<speed>10.100000</speed>
</trkpt>
<trkpt lat="21.300177" lon="105.629692">
<ele>19.3</ele>
<time>2011-04-29T08:41:35Z</time>
<desc>lat.=21.300177, lon.=105.629692, Alt.=8.352180m. Speed=37.764000m/h.</desc>
<speed>10.490000</speed>
</trkpt>
<trkpt lat="21.299322" lon="105.629997">
<ele>17.8</ele>
<time>2011-04-29T08:41:45Z</time>
<desc>lat.=21.299322, lon.=105.629997, Alt.=11.273079m. Speed=33.875999m/h.</desc>
<speed>9.410000</speed>
</trkpt>
<trkpt lat="21.295679" lon="105.630211">
<ele>12.7</ele>
<time>2011-04-29T08:42:20Z</time>
<desc>lat.=21.295679, lon.=105.630211, Alt.=-0.639031m. Speed=41.939999m/h.</desc>
<speed>11.650000</speed>
</trkpt>
<trkpt lat="21.287249" lon="105.632317">
<ele>14.8</ele>
<time>2011-04-29T08:43:40Z</time>
<desc>lat.=21.287249, lon.=105.632317, Alt.=2.164644m. Speed=46.188000m/h.</desc>
<speed>12.830000</speed>
</trkpt>
<trkpt lat="21.285286" lon="105.632706">
<ele>13.7</ele>
<time>2011-04-29T08:44:00Z</time>
<desc>lat.=21.285286, lon.=105.632706, Alt.=3.133333m. Speed=24.983999m/h.</desc>
<speed>6.940000</speed>
</trkpt>
<trkpt lat="21.284557" lon="105.632637">
<ele>14.0</ele>
<time>2011-04-29T08:44:15Z</time>
<desc>lat.=21.284557, lon.=105.632637, Alt.=2.698946m. Speed=18.900000m/h.</desc>
<speed>5.250000</speed>
</trkpt>
<trkpt lat="21.284262" lon="105.633362">
<ele>12.7</ele>
<time>2011-04-29T08:44:30Z</time>
<desc>lat.=21.284262, lon.=105.633362, Alt.=2.624544m. Speed=17.459999m/h.</desc>
<speed>4.850000</speed>
</trkpt>
<trkpt lat="21.282322" lon="105.636513">
<ele>12.9</ele>
<time>2011-04-29T08:49:20Z</time>
<desc>lat.=21.282322, lon.=105.636513, Alt.=4.071110m. Speed=32.472000m/h.</desc>
<speed>9.020000</speed>
</trkpt>
<trkpt lat="21.281540" lon="105.637115">
<ele>11.7</ele>
<time>2011-04-29T08:49:30Z</time>
<desc>lat.=21.281540, lon.=105.637115, Alt.=3.047152m. Speed=43.703999m/h.</desc>
<speed>12.140000</speed>
</trkpt>
<trkpt lat="21.275537" lon="105.640602">
<ele>10.8</ele>
<time>2011-04-29T08:50:15Z</time>
<desc>lat.=21.275537, lon.=105.640602, Alt.=5.325871m. Speed=56.591999m/h.</desc>
<speed>15.720000</speed>
</trkpt>
<trkpt lat="21.274302" lon="105.641457">
<ele>10.3</ele>
<time>2011-04-29T08:50:25Z</time>
<desc>lat.=21.274302, lon.=105.641457, Alt.=2.494417m. Speed=62.243999m/h.</desc>
<speed>17.290000</speed>
</trkpt>
<trkpt lat="21.269625" lon="105.646629">
<ele>11.0</ele>
<time>2011-04-29T08:51:00Z</time>
<desc>lat.=21.269625, lon.=105.646629, Alt.=-3.758821m. Speed=84.491997m/h.</desc>
<speed>23.469999</speed>
</trkpt>
<trkpt lat="21.264782" lon="105.650711">
<ele>10.9</ele>
<time>2011-04-29T08:51:30Z</time>
<desc>lat.=21.264782, lon.=105.650711, Alt.=-4.279972m. Speed=77.363998m/h.</desc>
<speed>21.490000</speed>
</trkpt>
<trkpt lat="21.262018" lon="105.654083">
<ele>12.1</ele>
<time>2011-04-29T08:51:55Z</time>
<desc>lat.=21.262018, lon.=105.654083, Alt.=-6.117985m. Speed=57.995998m/h.</desc>
<speed>16.110000</speed>
</trkpt>
<trkpt lat="21.258240" lon="105.659416">
<ele>12.9</ele>
<time>2011-04-29T08:52:40Z</time>
<desc>lat.=21.258240, lon.=105.659416, Alt.=4.467472m. Speed=55.512001m/h.</desc>
<speed>15.420000</speed>
</trkpt>
<trkpt lat="21.257637" lon="105.660698">
<ele>14.2</ele>
<time>2011-04-29T08:52:50Z</time>
<desc>lat.=21.257637, lon.=105.660698, Alt.=4.781315m. Speed=52.703999m/h.</desc>
<speed>14.640000</speed>
</trkpt>
<trkpt lat="21.256073" lon="105.665810">
<ele>13.4</ele>
<time>2011-04-29T08:53:30Z</time>
<desc>lat.=21.256073, lon.=105.665810, Alt.=9.603401m. Speed=44.279999m/h.</desc>
<speed>12.300000</speed>
</trkpt>
<trkpt lat="21.255098" lon="105.667320">
<ele>14.1</ele>
<time>2011-04-29T08:53:55Z</time>
<desc>lat.=21.255098, lon.=105.667320, Alt.=6.177311m. Speed=31.284000m/h.</desc>
<speed>8.690000</speed>
</trkpt>
<trkpt lat="21.251234" lon="105.669678">
<ele>11.6</ele>
<time>2011-04-29T08:54:40Z</time>
<desc>lat.=21.251234, lon.=105.669678, Alt.=-1.035661m. Speed=37.188000m/h.</desc>
<speed>10.330000</speed>
</trkpt>
<trkpt lat="21.247234" lon="105.674316">
<ele>11.5</ele>
<time>2011-04-29T08:55:35Z</time>
<desc>lat.=21.247234, lon.=105.674316, Alt.=-3.592196m. Speed=46.619999m/h.</desc>
<speed>12.950000</speed>
</trkpt>
<trkpt lat="21.240953" lon="105.680107">
<ele>11.0</ele>
<time>2011-04-29T08:56:55Z</time>
<desc>lat.=21.240953, lon.=105.680107, Alt.=-6.531559m. Speed=62.352001m/h.</desc>
<speed>17.320000</speed>
</trkpt>
<trkpt lat="21.239971" lon="105.681374">
<ele>11.3</ele>
<time>2011-04-29T08:57:05Z</time>
<desc>lat.=21.239971, lon.=105.681374, Alt.=-5.029362m. Speed=56.627998m/h.</desc>
<speed>15.730000</speed>
</trkpt>
<trkpt lat="21.238651" lon="105.684563">
<ele>12.3</ele>
<time>2011-04-29T08:57:30Z</time>
<desc>lat.=21.238651, lon.=105.684563, Alt.=4.631535m. Speed=50.723999m/h.</desc>
<speed>14.090000</speed>
</trkpt>
<trkpt lat="21.237722" lon="105.686195">
<ele>12.1</ele>
<time>2011-04-29T08:57:45Z</time>
<desc>lat.=21.237722, lon.=105.686195, Alt.=4.275944m. Speed=48.563999m/h.</desc>
<speed>13.490000</speed>
</trkpt>
<trkpt lat="21.236891" lon="105.687172">
<ele>14.2</ele>
<time>2011-04-29T08:57:55Z</time>
<desc>lat.=21.236891, lon.=105.687172, Alt.=0.603264m. Speed=51.551998m/h.</desc>
<speed>14.319999</speed>
</trkpt>
<trkpt lat="21.235874" lon="105.687981">
<ele>13.8</ele>
<time>2011-04-29T08:58:05Z</time>
<desc>lat.=21.235874, lon.=105.687981, Alt.=-1.168168m. Speed=53.820000m/h.</desc>
<speed>14.950000</speed>
</trkpt>
<trkpt lat="21.232845" lon="105.689949">
<ele>14.4</ele>
<time>2011-04-29T08:58:35Z</time>
<desc>lat.=21.232845, lon.=105.689949, Alt.=2.461763m. Speed=40.500000m/h.</desc>
<speed>11.250000</speed>
</trkpt>
<trkpt lat="21.231926" lon="105.691193">
<ele>16.8</ele>
<time>2011-04-29T08:58:50Z</time>
<desc>lat.=21.231926, lon.=105.691193, Alt.=1.954362m. Speed=41.076000m/h.</desc>
<speed>11.410000</speed>
</trkpt>
<trkpt lat="21.231047" lon="105.692810">
<ele>13.3</ele>
<time>2011-04-29T08:59:30Z</time>
<desc>lat.=21.231047, lon.=105.692810, Alt.=18.346451m. Speed=1.296000m/h.</desc>
<speed>0.360000</speed>
</trkpt>
<trkpt lat="21.230850" lon="105.694084">
<ele>11.5</ele>
<time>2011-04-29T09:00:00Z</time>
<desc>lat.=21.230850, lon.=105.694084, Alt.=20.284927m. Speed=37.512001m/h.</desc>
<speed>10.420000</speed>
</trkpt>
<trkpt lat="21.231327" lon="105.706360">
<ele>18.1</ele>
<time>2011-04-29T09:02:35Z</time>
<desc>lat.=21.231327, lon.=105.706360, Alt.=13.878548m. Speed=12.636000m/h.</desc>
<speed>3.510000</speed>
</trkpt>
<trkpt lat="21.231358" lon="105.710991">
<ele>17.5</ele>
<time>2011-04-29T09:03:30Z</time>
<desc>lat.=21.231358, lon.=105.710991, Alt.=24.653091m. Speed=30.312000m/h.</desc>
<speed>8.420000</speed>
</trkpt>
<trkpt lat="21.234083" lon="105.717545">
<ele>15.3</ele>
<time>2011-04-29T09:04:35Z</time>
<desc>lat.=21.234083, lon.=105.717545, Alt.=-7.379459m. Speed=40.860001m/h.</desc>
<speed>11.350000</speed>
</trkpt>
<trkpt lat="21.236671" lon="105.721695">
<ele>13.9</ele>
<time>2011-04-29T09:05:20Z</time>
<desc>lat.=21.236671, lon.=105.721695, Alt.=-4.379581m. Speed=35.279999m/h.</desc>
<speed>9.800000</speed>
</trkpt>
<trkpt lat="21.238049" lon="105.724350">
<ele>16.0</ele>
<time>2011-04-29T09:05:55Z</time>
<desc>lat.=21.238049, lon.=105.724350, Alt.=-2.139986m. Speed=35.855999m/h.</desc>
<speed>9.960000</speed>
</trkpt>
<trkpt lat="21.239740" lon="105.728783">
<ele>14.1</ele>
<time>2011-04-29T09:06:45Z</time>
<desc>lat.=21.239740, lon.=105.728783, Alt.=-3.152987m. Speed=33.048000m/h.</desc>
<speed>9.180000</speed>
</trkpt>
<trkpt lat="21.240004" lon="105.729919">
<ele>12.2</ele>
<time>2011-04-29T09:07:00Z</time>
<desc>lat.=21.240004, lon.=105.729919, Alt.=-3.469271m. Speed=35.028000m/h.</desc>
<speed>9.730000</speed>
</trkpt>
<trkpt lat="21.240219" lon="105.737839">
<ele>11.1</ele>
<time>2011-04-29T09:08:20Z</time>
<desc>lat.=21.240219, lon.=105.737839, Alt.=7.839909m. Speed=34.271999m/h.</desc>
<speed>9.520000</speed>
</trkpt>
<trkpt lat="21.240150" lon="105.739326">
<ele>11.7</ele>
<time>2011-04-29T09:08:50Z</time>
<desc>lat.=21.240150, lon.=105.739326, Alt.=3.751802m. Speed=28.115999m/h.</desc>
<speed>7.810000</speed>
</trkpt>
<trkpt lat="21.239613" lon="105.740593">
<ele>11.4</ele>
<time>2011-04-29T09:09:05Z</time>
<desc>lat.=21.239613, lon.=105.740593, Alt.=-1.343034m. Speed=32.616001m/h.</desc>
<speed>9.060000</speed>
</trkpt>
<trkpt lat="21.237225" lon="105.743896">
<ele>13.0</ele>
<time>2011-04-29T09:09:50Z</time>
<desc>lat.=21.237225, lon.=105.743896, Alt.=3.169466m. Speed=51.588001m/h.</desc>
<speed>14.330000</speed>
</trkpt>
<trkpt lat="21.235590" lon="105.746758">
<ele>10.6</ele>
<time>2011-04-29T09:10:15Z</time>
<desc>lat.=21.235590, lon.=105.746758, Alt.=4.091984m. Speed=54.000000m/h.</desc>
<speed>15.000000</speed>
</trkpt>
<trkpt lat="21.233360" lon="105.750214">
<ele>11.4</ele>
<time>2011-04-29T09:10:50Z</time>
<desc>lat.=21.233360, lon.=105.750214, Alt.=1.360490m. Speed=45.576000m/h.</desc>
<speed>12.660000</speed>
</trkpt>
<trkpt lat="21.230997" lon="105.756355">
<ele>15.2</ele>
<time>2011-04-29T09:11:40Z</time>
<desc>lat.=21.230997, lon.=105.756355, Alt.=3.054903m. Speed=50.652000m/h.</desc>
<speed>14.070000</speed>
</trkpt>
<trkpt lat="21.221506" lon="105.769814">
<ele>16.3</ele>
<time>2011-04-29T09:14:45Z</time>
<desc>lat.=21.221506, lon.=105.769814, Alt.=5.680607m. Speed=7.308000m/h.</desc>
<speed>2.030000</speed>
</trkpt>
<trkpt lat="21.219694" lon="105.772804">
<ele>13.5</ele>
<time>2011-04-29T09:16:10Z</time>
<desc>lat.=21.219694, lon.=105.772804, Alt.=7.224552m. Speed=22.931999m/h.</desc>
<speed>6.370000</speed>
</trkpt>
<trkpt lat="21.218708" lon="105.773315">
<ele>9.8</ele>
<time>2011-04-29T09:16:30Z</time>
<desc>lat.=21.218708, lon.=105.773315, Alt.=6.110661m. Speed=7.272000m/h.</desc>
<speed>2.020000</speed>
</trkpt>
<trkpt lat="21.218712" lon="105.774399">
<ele>12.6</ele>
<time>2011-04-29T09:17:00Z</time>
<desc>lat.=21.218712, lon.=105.774399, Alt.=3.805819m. Speed=21.096001m/h.</desc>
<speed>5.860000</speed>
</trkpt>
<trkpt lat="21.216518" lon="105.778114">
<ele>11.8</ele>
<time>2011-04-29T09:18:05Z</time>
<desc>lat.=21.216518, lon.=105.778114, Alt.=4.087101m. Speed=24.875999m/h.</desc>
<speed>6.910000</speed>
</trkpt>
<trkpt lat="21.215960" lon="105.778412">
<ele>12.8</ele>
<time>2011-04-29T09:18:15Z</time>
<desc>lat.=21.215960, lon.=105.778412, Alt.=3.814669m. Speed=24.840000m/h.</desc>
<speed>6.900000</speed>
</trkpt>
<trkpt lat="21.213243" lon="105.778793">
<ele>11.0</ele>
<time>2011-04-29T09:18:45Z</time>
<desc>lat.=21.213243, lon.=105.778793, Alt.=11.453499m. Speed=43.056000m/h.</desc>
<speed>11.960000</speed>
</trkpt>
<trkpt lat="21.206059" lon="105.779572">
<ele>11.8</ele>
<time>2011-04-29T09:19:50Z</time>
<desc>lat.=21.206059, lon.=105.779572, Alt.=9.286751m. Speed=37.080002m/h.</desc>
<speed>10.300001</speed>
</trkpt>
<trkpt lat="21.202642" lon="105.779762">
<ele>13.1</ele>
<time>2011-04-29T09:22:00Z</time>
<desc>lat.=21.202642, lon.=105.779762, Alt.=8.841438m. Speed=5.652000m/h.</desc>
<speed>1.570000</speed>
</trkpt>
<trkpt lat="21.201639" lon="105.780006">
<ele>11.7</ele>
<time>2011-04-29T09:24:10Z</time>
<desc>lat.=21.201639, lon.=105.780006, Alt.=9.772591m. Speed=29.232000m/h.</desc>
<speed>8.120000</speed>
</trkpt>
<trkpt lat="21.196781" lon="105.780540">
<ele>16.3</ele>
<time>2011-04-29T09:25:00Z</time>
<desc>lat.=21.196781, lon.=105.780540, Alt.=8.061653m. Speed=42.480000m/h.</desc>
<speed>11.800000</speed>
</trkpt>
<trkpt lat="21.194149" lon="105.780693">
<ele>15.8</ele>
<time>2011-04-29T09:25:30Z</time>
<desc>lat.=21.194149, lon.=105.780693, Alt.=-5.746403m. Speed=32.436001m/h.</desc>
<speed>9.010000</speed>
</trkpt>
<trkpt lat="21.135405" lon="105.778313">
<ele>11.4</ele>
<time>2011-04-29T09:34:40Z</time>
<desc>lat.=21.135405, lon.=105.778313, Alt.=-13.078743m. Speed=75.564003m/h.</desc>
<speed>20.990001</speed>
</trkpt>
<trkpt lat="21.132648" lon="105.778854">
<ele>12.8</ele>
<time>2011-04-29T09:34:55Z</time>
<desc>lat.=21.132648, lon.=105.778854, Alt.=-9.370491m. Speed=71.891998m/h.</desc>
<speed>19.970000</speed>
</trkpt>
<trkpt lat="21.108051" lon="105.787025">
<ele>13.1</ele>
<time>2011-04-29T09:40:15Z</time>
<desc>lat.=21.108051, lon.=105.787025, Alt.=8.025520m. Speed=48.708000m/h.</desc>
<speed>13.530000</speed>
</trkpt>
<trkpt lat="21.105156" lon="105.786980">
<ele>18.5</ele>
<time>2011-04-29T09:40:35Z</time>
<desc>lat.=21.105156, lon.=105.786980, Alt.=13.969612m. Speed=66.276001m/h.</desc>
<speed>18.410000</speed>
</trkpt>
<trkpt lat="21.089733" lon="105.785835">
<ele>14.3</ele>
<time>2011-04-29T09:42:00Z</time>
<desc>lat.=21.089733, lon.=105.785835, Alt.=17.411392m. Speed=58.464001m/h.</desc>
<speed>16.240000</speed>
</trkpt>
<trkpt lat="21.082455" lon="105.788216">
<ele>10.9</ele>
<time>2011-04-29T09:42:55Z</time>
<desc>lat.=21.082455, lon.=105.788216, Alt.=-12.630989m. Speed=49.860001m/h.</desc>
<speed>13.850000</speed>
</trkpt>
<trkpt lat="21.081184" lon="105.788391">
<ele>11.2</ele>
<time>2011-04-29T09:43:05Z</time>
<desc>lat.=21.081184, lon.=105.788391, Alt.=-13.524788m. Speed=52.020000m/h.</desc>
<speed>14.450000</speed>
</trkpt>
<trkpt lat="21.080526" lon="105.788338">
<ele>11.0</ele>
<time>2011-04-29T09:43:10Z</time>
<desc>lat.=21.080526, lon.=105.788338, Alt.=-13.693977m. Speed=49.680000m/h.</desc>
<speed>13.800000</speed>
</trkpt>
<trkpt lat="21.079365" lon="105.787971">
<ele>13.5</ele>
<time>2011-04-29T09:43:20Z</time>
<desc>lat.=21.079365, lon.=105.787971, Alt.=-5.691227m. Speed=42.768002m/h.</desc>
<speed>11.880000</speed>
</trkpt>
<trkpt lat="21.076830" lon="105.786446">
<ele>13.5</ele>
<time>2011-04-29T09:44:05Z</time>
<desc>lat.=21.076830, lon.=105.786446, Alt.=-0.254246m. Speed=35.855999m/h.</desc>
<speed>9.960000</speed>
</trkpt>
<trkpt lat="21.075802" lon="105.785995">
<ele>13.8</ele>
<time>2011-04-29T09:44:15Z</time>
<desc>lat.=21.075802, lon.=105.785995, Alt.=2.445101m. Speed=49.320000m/h.</desc>
<speed>13.700000</speed>
</trkpt>
<trkpt lat="21.069166" lon="105.785416">
<ele>12.7</ele>
<time>2011-04-29T09:45:20Z</time>
<desc>lat.=21.069166, lon.=105.785416, Alt.=-3.077303m. Speed=31.643999m/h.</desc>
<speed>8.790000</speed>
</trkpt>
<trkpt lat="21.067223" lon="105.785088">
<ele>11.7</ele>
<time>2011-04-29T09:45:45Z</time>
<desc>lat.=21.067223, lon.=105.785088, Alt.=-6.368839m. Speed=38.088001m/h.</desc>
<speed>10.580000</speed>
</trkpt>
<trkpt lat="21.059681" lon="105.783257">
<ele>12.7</ele>
<time>2011-04-29T09:47:40Z</time>
<desc>lat.=21.059681, lon.=105.783257, Alt.=10.144661m. Speed=5.616000m/h.</desc>
<speed>1.560000</speed>
</trkpt>
<trkpt lat="21.056845" lon="105.782402">
<ele>14.8</ele>
<time>2011-04-29T09:49:05Z</time>
<desc>lat.=21.056845, lon.=105.782402, Alt.=-1.645921m. Speed=7.416000m/h.</desc>
<speed>2.060000</speed>
</trkpt>
<trkpt lat="21.054228" lon="105.781883">
<ele>10.1</ele>
<time>2011-04-29T09:50:05Z</time>
<desc>lat.=21.054228, lon.=105.781883, Alt.=-5.438663m. Speed=35.964001m/h.</desc>
<speed>9.990000</speed>
</trkpt>
<trkpt lat="21.051491" lon="105.781578">
<ele>12.2</ele>
<time>2011-04-29T09:51:00Z</time>
<desc>lat.=21.051491, lon.=105.781578, Alt.=1.180314m. Speed=19.476000m/h.</desc>
<speed>5.410000</speed>
</trkpt>
<trkpt lat="21.038465" lon="105.780746">
<ele>10.8</ele>
<time>2011-04-29T09:55:45Z</time>
<desc>lat.=21.038465, lon.=105.780746, Alt.=-4.762028m. Speed=35.495998m/h.</desc>
<speed>9.860000</speed>
</trkpt>
<trkpt lat="21.035728" lon="105.780403">
<ele>10.1</ele>
<time>2011-04-29T09:56:15Z</time>
<desc>lat.=21.035728, lon.=105.780403, Alt.=0.250447m. Speed=42.948002m/h.</desc>
<speed>11.930001</speed>
</trkpt>
<trkpt lat="21.031403" lon="105.779480">
<ele>9.6</ele>
<time>2011-04-29T09:57:40Z</time>
<desc>lat.=21.031403, lon.=105.779480, Alt.=0.070979m. Speed=7.524000m/h.</desc>
<speed>2.090000</speed>
</trkpt>
<trkpt lat="21.029219" lon="105.779175">
<ele>9.5</ele>
<time>2011-04-29T10:00:45Z</time>
<desc>lat.=21.029219, lon.=105.779175, Alt.=-2.050631m. Speed=1.800000m/h.</desc>
<speed>0.500000</speed>
</trkpt>
<trkpt lat="21.028856" lon="105.779045">
<ele>9.0</ele>
<time>2011-04-29T10:01:50Z</time>
<desc>lat.=21.028856, lon.=105.779045, Alt.=-4.553043m. Speed=4.968000m/h.</desc>
<speed>1.380000</speed>
</trkpt>
<trkpt lat="21.028797" lon="105.778877">
<ele>8.5</ele>
<time>2011-04-29T10:02:05Z</time>
<desc>lat.=21.028797, lon.=105.778877, Alt.=-3.886507m. Speed=6.192000m/h.</desc>
<speed>1.720000</speed>
</trkpt>
<trkpt lat="21.029037" lon="105.777603">
<ele>9.4</ele>
<time>2011-04-29T10:08:20Z</time>
<desc>lat.=21.029037, lon.=105.777603, Alt.=2.305208m. Speed=0.360000m/h.</desc>
<speed>0.100000</speed>
</trkpt>
<trkpt lat="21.028955" lon="105.776802">
<ele>9.2</ele>
<time>2011-04-29T10:19:20Z</time>
<desc>lat.=21.028955, lon.=105.776802, Alt.=7.621647m. Speed=0.036000m/h.</desc>
<speed>0.010000</speed>
</trkpt>
<trkpt lat="21.029198" lon="105.776855">
<ele>8.7</ele>
<time>2011-04-29T10:24:35Z</time>
<desc>lat.=21.029198, lon.=105.776855, Alt.=3.192965m. Speed=5.868000m/h.</desc>
<speed>1.630000</speed>
</trkpt>
<trkpt lat="21.028898" lon="105.778862">
<ele>8.7</ele>
<time>2011-04-29T10:27:50Z</time>
<desc>lat.=21.028898, lon.=105.778862, Alt.=5.918888m. Speed=0.036000m/h.</desc>
<speed>0.010000</speed>
</trkpt>
<trkpt lat="21.029146" lon="105.779022">
<ele>8.5</ele>
<time>2011-04-29T10:28:40Z</time>
<desc>lat.=21.029146, lon.=105.779022, Alt.=5.346378m. Speed=3.384000m/h.</desc>
<speed>0.940000</speed>
</trkpt>
<trkpt lat="21.031652" lon="105.779579">
<ele>9.3</ele>
<time>2011-04-29T10:31:15Z</time>
<desc>lat.=21.031652, lon.=105.779579, Alt.=4.261173m. Speed=6.984000m/h.</desc>
<speed>1.940000</speed>
</trkpt>
<trkpt lat="21.036055" lon="105.780258">
<ele>10.6</ele>
<time>2011-04-29T10:35:05Z</time>
<desc>lat.=21.036055, lon.=105.780258, Alt.=7.910831m. Speed=7.020000m/h.</desc>
<speed>1.950000</speed>
</trkpt>
<trkpt lat="21.036547" lon="105.780739">
<ele>6.0</ele>
<time>2011-04-29T10:35:45Z</time>
<desc>lat.=21.036547, lon.=105.780739, Alt.=3.641695m. Speed=15.048000m/h.</desc>
<speed>4.180000</speed>
</trkpt>
<trkpt lat="21.039072" lon="105.781021">
<ele>10.3</ele>
<time>2011-04-29T10:37:15Z</time>
<desc>lat.=21.039072, lon.=105.781021, Alt.=4.243717m. Speed=19.403999m/h.</desc>
<speed>5.390000</speed>
</trkpt>
<trkpt lat="21.041250" lon="105.780952">
<ele>15.9</ele>
<time>2011-04-29T10:38:10Z</time>
<desc>lat.=21.041250, lon.=105.780952, Alt.=7.780827m. Speed=15.984000m/h.</desc>
<speed>4.440000</speed>
</trkpt>
<trkpt lat="21.045475" lon="105.781296">
<ele>11.2</ele>
<time>2011-04-29T10:40:15Z</time>
<desc>lat.=21.045475, lon.=105.781296, Alt.=11.059456m. Speed=13.536000m/h.</desc>
<speed>3.760000</speed>
</trkpt>
<trkpt lat="21.045753" lon="105.781433">
<ele>11.6</ele>
<time>2011-04-29T10:40:25Z</time>
<desc>lat.=21.045753, lon.=105.781433, Alt.=9.745735m. Speed=14.076000m/h.</desc>
<speed>3.910000</speed>
</trkpt>
<trkpt lat="21.045954" lon="105.781799">
<ele>11.9</ele>
<time>2011-04-29T10:40:35Z</time>
<desc>lat.=21.045954, lon.=105.781799, Alt.=9.273323m. Speed=15.192000m/h.</desc>
<speed>4.220000</speed>
</trkpt>
<trkpt lat="21.046057" lon="105.782455">
<ele>11.0</ele>
<time>2011-04-29T10:40:55Z</time>
<desc>lat.=21.046057, lon.=105.782455, Alt.=8.593636m. Speed=10.080000m/h.</desc>
<speed>2.800000</speed>
</trkpt>
<trkpt lat="21.046112" lon="105.804581">
<ele>12.2</ele>
<time>2011-04-29T10:50:05Z</time>
<desc>lat.=21.046112, lon.=105.804581, Alt.=14.134163m. Speed=18.936001m/h.</desc>
<speed>5.260000</speed>
</trkpt>
<trkpt lat="21.046007" lon="105.805763">
<ele>12.9</ele>
<time>2011-04-29T10:50:50Z</time>
<desc>lat.=21.046007, lon.=105.805763, Alt.=13.712776m. Speed=1.584000m/h.</desc>
<speed>0.440000</speed>
</trkpt>
<trkpt lat="21.045227" lon="105.805916">
<ele>16.3</ele>
<time>2011-04-29T10:51:25Z</time>
<desc>lat.=21.045227, lon.=105.805916, Alt.=15.403938m. Speed=5.976000m/h.</desc>
<speed>1.660000</speed>
</trkpt>
<trkpt lat="21.045458" lon="105.806053">
<ele>16.4</ele>
<time>2011-04-29T10:51:40Z</time>
<desc>lat.=21.045458, lon.=105.806053, Alt.=18.507095m. Speed=4.464000m/h.</desc>
<speed>1.240000</speed>
</trkpt>
<trkpt lat="21.046965" lon="105.805946">
<ele>14.9</ele>
<time>2011-04-29T10:53:35Z</time>
<desc>lat.=21.046965, lon.=105.805946, Alt.=24.357681m. Speed=2.700000m/h.</desc>
<speed>0.750000</speed>
</trkpt>
<trkpt lat="21.047459" lon="105.806091">
<ele>16.8</ele>
<time>2011-04-29T10:54:15Z</time>
<desc>lat.=21.047459, lon.=105.806091, Alt.=21.204849m. Speed=12.564000m/h.</desc>
<speed>3.490000</speed>
</trkpt>
<trkpt lat="21.047369" lon="105.808098">
<ele>20.5</ele>
<time>2011-04-29T10:55:15Z</time>
<desc>lat.=21.047369, lon.=105.808098, Alt.=24.719498m. Speed=9.252000m/h.</desc>
<speed>2.570000</speed>
</trkpt>
<trkpt lat="21.045877" lon="105.811256">
<ele>21.1</ele>
<time>2011-04-29T10:57:00Z</time>
<desc>lat.=21.045877, lon.=105.811256, Alt.=29.952408m. Speed=11.160000m/h.</desc>
<speed>3.100000</speed>
</trkpt>
<trkpt lat="21.045099" lon="105.812195">
<ele>21.1</ele>
<time>2011-04-29T10:57:30Z</time>
<desc>lat.=21.045099, lon.=105.812195, Alt.=41.837433m. Speed=14.040000m/h.</desc>
<speed>3.900000</speed>
</trkpt>
<trkpt lat="21.043615" lon="105.813576">
<ele>15.2</ele>
<time>2011-04-29T10:58:10Z</time>
<desc>lat.=21.043615, lon.=105.813576, Alt.=31.987564m. Speed=19.872000m/h.</desc>
<speed>5.520000</speed>
</trkpt>
<trkpt lat="21.042971" lon="105.814560">
<ele>21.3</ele>
<time>2011-04-29T10:58:35Z</time>
<desc>lat.=21.042971, lon.=105.814560, Alt.=28.797134m. Speed=9.504000m/h.</desc>
<speed>2.640000</speed>
</trkpt>
<trkpt lat="21.042225" lon="105.816147">
<ele>14.4</ele>
<time>2011-04-29T11:00:15Z</time>
<desc>lat.=21.042225, lon.=105.816147, Alt.=14.025520m. Speed=1.980000m/h.</desc>
<speed>0.550000</speed>
</trkpt>
<trkpt lat="21.041971" lon="105.816254">
<ele>13.5</ele>
<time>2011-04-29T11:00:40Z</time>
<desc>lat.=21.041971, lon.=105.816254, Alt.=11.491585m. Speed=9.144000m/h.</desc>
<speed>2.540000</speed>
</trkpt>
<trkpt lat="21.041319" lon="105.816017">
<ele>12.0</ele>
<time>2011-04-29T11:01:15Z</time>
<desc>lat.=21.041319, lon.=105.816017, Alt.=6.432926m. Speed=2.880000m/h.</desc>
<speed>0.800000</speed>
</trkpt>
<trkpt lat="21.041294" lon="105.815323">
<ele>14.0</ele>
<time>2011-04-29T11:02:20Z</time>
<desc>lat.=21.041294, lon.=105.815323, Alt.=12.325325m. Speed=8.208000m/h.</desc>
<speed>2.280000</speed>
</trkpt>
<trkpt lat="21.041698" lon="105.815178">
<ele>19.9</ele>
<time>2011-04-29T11:03:45Z</time>
<desc>lat.=21.041698, lon.=105.815178, Alt.=30.097427m. Speed=1.872000m/h.</desc>
<speed>0.520000</speed>
</trkpt>
</trkseg>
</trk>
</gpx>